<?xml version="1.0" encoding="UTF-8" standalone="no" ?>
<gpx xmlns="http://www.topografix.com/GPX/1/1" xmlns:xsi="http://www.w3.org/2001/XMLSchema-instance" xsi:schemaLocation="http://www.topografix.com/GPX/1/1 http://www.topografix.com/GPX/1/1/gpx.xsd" version="1.1" creator="VisuGPX - https://www.visugpx.com">
  <metadata>
    <name>350_Circuit 85 km Les Herbiers_Les Herbiers édité par cth85.com</name>
    <desc><![CDATA[Cicuit de 85 km passant par:
Les Herbiers
D755 la croix bara
D79 Le Boupère
D13 Rochetrejoux
D97 Saint Germain de Prinçay
D39 Sigournais
Saint Mars des Prés
D949B direction Mouilleron sur 500m,
à droite, rejoindre D31
à gauche Saint Phibert du Pont Charrault
D31 La jaudonnière
D31 Saint Hilaire du Bois
D31 La Caillère
D19 Thouarsais Bouildroux
D39, D23 Bazoges en Pareds
D23 Chavagnes les Redoux
D23 Monsireigne
D23 Saint Prouant
D23 Saint Paul en Pareds
la pillaudière, la croix saint laurent
D48 Les Herbiers]]></desc>
  </metadata>
  <trk>
    <name><![CDATA[85_350 on GPSies.com]]></name>
    <trkseg>
      <trkpt lat="46.86541" lon="-1.00594">
        <ele>118</ele>
        <time>2010-01-01T00:00:00Z</time>
      </trkpt>
      <trkpt lat="46.86542" lon="-1.00589">
        <ele>117</ele>
        <time>2010-01-01T00:00:00Z</time>
      </trkpt>
      <trkpt lat="46.86523" lon="-1.00577">
        <ele>118</ele>
        <time>2010-01-01T00:00:03Z</time>
      </trkpt>
      <trkpt lat="46.86488" lon="-1.00561">
        <ele>119</ele>
        <time>2010-01-01T00:00:10Z</time>
      </trkpt>
      <trkpt lat="46.86462" lon="-1.00555">
        <ele>120</ele>
        <time>2010-01-01T00:00:14Z</time>
      </trkpt>
      <trkpt lat="46.86392" lon="-1.00554">
        <ele>120</ele>
        <time>2010-01-01T00:00:26Z</time>
      </trkpt>
      <trkpt lat="46.86381" lon="-1.00562">
        <ele>120</ele>
        <time>2010-01-01T00:00:28Z</time>
      </trkpt>
      <trkpt lat="46.86335" lon="-1.00614">
        <ele>119</ele>
        <time>2010-01-01T00:00:37Z</time>
      </trkpt>
      <trkpt lat="46.86315" lon="-1.00632">
        <ele>119</ele>
        <time>2010-01-01T00:00:41Z</time>
      </trkpt>
      <trkpt lat="46.8627" lon="-1.00662">
        <ele>118</ele>
        <time>2010-01-01T00:00:50Z</time>
      </trkpt>
      <trkpt lat="46.86234" lon="-1.00681">
        <ele>117</ele>
        <time>2010-01-01T00:00:56Z</time>
      </trkpt>
      <trkpt lat="46.86228" lon="-1.00664">
        <ele>117</ele>
        <time>2010-01-01T00:00:58Z</time>
      </trkpt>
      <trkpt lat="46.86189" lon="-1.00512">
        <ele>115</ele>
        <time>2010-01-01T00:01:17Z</time>
      </trkpt>
      <trkpt lat="46.86278" lon="-1.00221">
        <ele>120</ele>
        <time>2010-01-01T00:01:53Z</time>
      </trkpt>
      <trkpt lat="46.86367" lon="-0.9991">
        <ele>124</ele>
        <time>2010-01-01T00:02:31Z</time>
      </trkpt>
      <trkpt lat="46.86376" lon="-0.99876">
        <ele>124</ele>
        <time>2010-01-01T00:02:36Z</time>
      </trkpt>
      <trkpt lat="46.86375" lon="-0.99859">
        <ele>124</ele>
        <time>2010-01-01T00:02:38Z</time>
      </trkpt>
      <trkpt lat="46.86373" lon="-0.99841">
        <ele>124</ele>
        <time>2010-01-01T00:02:40Z</time>
      </trkpt>
      <trkpt lat="46.86369" lon="-0.99828">
        <ele>124</ele>
        <time>2010-01-01T00:02:41Z</time>
      </trkpt>
      <trkpt lat="46.86358" lon="-0.99813">
        <ele>123</ele>
        <time>2010-01-01T00:02:44Z</time>
      </trkpt>
      <trkpt lat="46.86346" lon="-0.99804">
        <ele>123</ele>
        <time>2010-01-01T00:02:46Z</time>
      </trkpt>
      <trkpt lat="46.86222" lon="-0.99727">
        <ele>121</ele>
        <time>2010-01-01T00:03:08Z</time>
      </trkpt>
      <trkpt lat="46.86213" lon="-0.99723">
        <ele>120</ele>
        <time>2010-01-01T00:03:10Z</time>
      </trkpt>
      <trkpt lat="46.86221" lon="-0.99704">
        <ele>121</ele>
        <time>2010-01-01T00:03:13Z</time>
      </trkpt>
      <trkpt lat="46.86314" lon="-0.99225">
        <ele>126</ele>
        <time>2010-01-01T00:04:09Z</time>
      </trkpt>
      <trkpt lat="46.86325" lon="-0.99162">
        <ele>128</ele>
        <time>2010-01-01T00:04:17Z</time>
      </trkpt>
      <trkpt lat="46.86336" lon="-0.99116">
        <ele>129</ele>
        <time>2010-01-01T00:04:22Z</time>
      </trkpt>
      <trkpt lat="46.86349" lon="-0.99072">
        <ele>130</ele>
        <time>2010-01-01T00:04:28Z</time>
      </trkpt>
      <trkpt lat="46.8638" lon="-0.98991">
        <ele>132</ele>
        <time>2010-01-01T00:04:38Z</time>
      </trkpt>
      <trkpt lat="46.86437" lon="-0.98874">
        <ele>138</ele>
        <time>2010-01-01T00:04:55Z</time>
      </trkpt>
      <trkpt lat="46.86442" lon="-0.9887">
        <ele>139</ele>
        <time>2010-01-01T00:04:56Z</time>
      </trkpt>
      <trkpt lat="46.86448" lon="-0.98871">
        <ele>139</ele>
        <time>2010-01-01T00:04:57Z</time>
      </trkpt>
      <trkpt lat="46.86498" lon="-0.98769">
        <ele>143</ele>
        <time>2010-01-01T00:05:11Z</time>
      </trkpt>
      <trkpt lat="46.86531" lon="-0.98695">
        <ele>146</ele>
        <time>2010-01-01T00:05:21Z</time>
      </trkpt>
      <trkpt lat="46.86563" lon="-0.98597">
        <ele>148</ele>
        <time>2010-01-01T00:05:34Z</time>
      </trkpt>
      <trkpt lat="46.86583" lon="-0.98523">
        <ele>149</ele>
        <time>2010-01-01T00:05:43Z</time>
      </trkpt>
      <trkpt lat="46.86583" lon="-0.98524">
        <ele>149</ele>
        <time>2010-01-01T00:05:43Z</time>
      </trkpt>
      <trkpt lat="46.86601" lon="-0.98456">
        <ele>149</ele>
        <time>2010-01-01T00:05:51Z</time>
      </trkpt>
      <trkpt lat="46.86614" lon="-0.98397">
        <ele>148</ele>
        <time>2010-01-01T00:05:58Z</time>
      </trkpt>
      <trkpt lat="46.86619" lon="-0.98385">
        <ele>147</ele>
        <time>2010-01-01T00:06:00Z</time>
      </trkpt>
      <trkpt lat="46.86632" lon="-0.98366">
        <ele>145</ele>
        <time>2010-01-01T00:06:03Z</time>
      </trkpt>
      <trkpt lat="46.86633" lon="-0.9825">
        <ele>146</ele>
        <time>2010-01-01T00:06:16Z</time>
      </trkpt>
      <trkpt lat="46.86628" lon="-0.98158">
        <ele>149</ele>
        <time>2010-01-01T00:06:27Z</time>
      </trkpt>
      <trkpt lat="46.86618" lon="-0.9805">
        <ele>151</ele>
        <time>2010-01-01T00:06:39Z</time>
      </trkpt>
      <trkpt lat="46.86598" lon="-0.97956">
        <ele>152</ele>
        <time>2010-01-01T00:06:50Z</time>
      </trkpt>
      <trkpt lat="46.86564" lon="-0.97791">
        <ele>150</ele>
        <time>2010-01-01T00:07:10Z</time>
      </trkpt>
      <trkpt lat="46.86484" lon="-0.97597">
        <ele>147</ele>
        <time>2010-01-01T00:07:36Z</time>
      </trkpt>
      <trkpt lat="46.86435" lon="-0.97502">
        <ele>142</ele>
        <time>2010-01-01T00:07:49Z</time>
      </trkpt>
      <trkpt lat="46.86294" lon="-0.97251">
        <ele>137</ele>
        <time>2010-01-01T00:08:26Z</time>
      </trkpt>
      <trkpt lat="46.86271" lon="-0.97217">
        <ele>137</ele>
        <time>2010-01-01T00:08:32Z</time>
      </trkpt>
      <trkpt lat="46.86258" lon="-0.97204">
        <ele>137</ele>
        <time>2010-01-01T00:08:34Z</time>
      </trkpt>
      <trkpt lat="46.86251" lon="-0.97206">
        <ele>137</ele>
        <time>2010-01-01T00:08:36Z</time>
      </trkpt>
      <trkpt lat="46.86244" lon="-0.97205">
        <ele>136</ele>
        <time>2010-01-01T00:08:37Z</time>
      </trkpt>
      <trkpt lat="46.86237" lon="-0.972">
        <ele>136</ele>
        <time>2010-01-01T00:08:38Z</time>
      </trkpt>
      <trkpt lat="46.86233" lon="-0.97193">
        <ele>136</ele>
        <time>2010-01-01T00:08:39Z</time>
      </trkpt>
      <trkpt lat="46.86229" lon="-0.97177">
        <ele>137</ele>
        <time>2010-01-01T00:08:41Z</time>
      </trkpt>
      <trkpt lat="46.86232" lon="-0.97161">
        <ele>137</ele>
        <time>2010-01-01T00:08:43Z</time>
      </trkpt>
      <trkpt lat="46.86229" lon="-0.97146">
        <ele>137</ele>
        <time>2010-01-01T00:08:45Z</time>
      </trkpt>
      <trkpt lat="46.86201" lon="-0.97087">
        <ele>138</ele>
        <time>2010-01-01T00:08:53Z</time>
      </trkpt>
      <trkpt lat="46.86028" lon="-0.9679">
        <ele>136</ele>
        <time>2010-01-01T00:09:37Z</time>
      </trkpt>
      <trkpt lat="46.85662" lon="-0.96142">
        <ele>112</ele>
        <time>2010-01-01T00:11:13Z</time>
      </trkpt>
      <trkpt lat="46.85596" lon="-0.96021">
        <ele>110</ele>
        <time>2010-01-01T00:11:31Z</time>
      </trkpt>
      <trkpt lat="46.85522" lon="-0.95897">
        <ele>108</ele>
        <time>2010-01-01T00:11:50Z</time>
      </trkpt>
      <trkpt lat="46.85457" lon="-0.95799">
        <ele>107</ele>
        <time>2010-01-01T00:12:05Z</time>
      </trkpt>
      <trkpt lat="46.85341" lon="-0.95673">
        <ele>102</ele>
        <time>2010-01-01T00:12:29Z</time>
      </trkpt>
      <trkpt lat="46.85291" lon="-0.95625">
        <ele>105</ele>
        <time>2010-01-01T00:12:39Z</time>
      </trkpt>
      <trkpt lat="46.85222" lon="-0.95544">
        <ele>111</ele>
        <time>2010-01-01T00:12:54Z</time>
      </trkpt>
      <trkpt lat="46.85126" lon="-0.95389">
        <ele>120</ele>
        <time>2010-01-01T00:13:18Z</time>
      </trkpt>
      <trkpt lat="46.85076" lon="-0.95245">
        <ele>121</ele>
        <time>2010-01-01T00:13:36Z</time>
      </trkpt>
      <trkpt lat="46.8507" lon="-0.95223">
        <ele>121</ele>
        <time>2010-01-01T00:13:39Z</time>
      </trkpt>
      <trkpt lat="46.85041" lon="-0.95081">
        <ele>121</ele>
        <time>2010-01-01T00:13:56Z</time>
      </trkpt>
      <trkpt lat="46.85042" lon="-0.94919">
        <ele>126</ele>
        <time>2010-01-01T00:14:14Z</time>
      </trkpt>
      <trkpt lat="46.85086" lon="-0.94736">
        <ele>129</ele>
        <time>2010-01-01T00:14:37Z</time>
      </trkpt>
      <trkpt lat="46.85115" lon="-0.94633">
        <ele>131</ele>
        <time>2010-01-01T00:14:49Z</time>
      </trkpt>
      <trkpt lat="46.85115" lon="-0.94634">
        <ele>131</ele>
        <time>2010-01-01T00:14:49Z</time>
      </trkpt>
      <trkpt lat="46.85139" lon="-0.9455">
        <ele>133</ele>
        <time>2010-01-01T00:15:00Z</time>
      </trkpt>
      <trkpt lat="46.8518" lon="-0.94302">
        <ele>141</ele>
        <time>2010-01-01T00:15:29Z</time>
      </trkpt>
      <trkpt lat="46.85188" lon="-0.94001">
        <ele>146</ele>
        <time>2010-01-01T00:16:03Z</time>
      </trkpt>
      <trkpt lat="46.85167" lon="-0.93779">
        <ele>154</ele>
        <time>2010-01-01T00:16:29Z</time>
      </trkpt>
      <trkpt lat="46.85102" lon="-0.93453">
        <ele>161</ele>
        <time>2010-01-01T00:17:08Z</time>
      </trkpt>
      <trkpt lat="46.85072" lon="-0.93325">
        <ele>163</ele>
        <time>2010-01-01T00:17:23Z</time>
      </trkpt>
      <trkpt lat="46.85029" lon="-0.93166">
        <ele>169</ele>
        <time>2010-01-01T00:17:42Z</time>
      </trkpt>
      <trkpt lat="46.85022" lon="-0.93171">
        <ele>168</ele>
        <time>2010-01-01T00:17:44Z</time>
      </trkpt>
      <trkpt lat="46.85011" lon="-0.93169">
        <ele>168</ele>
        <time>2010-01-01T00:17:46Z</time>
      </trkpt>
      <trkpt lat="46.84974" lon="-0.93151">
        <ele>168</ele>
        <time>2010-01-01T00:17:52Z</time>
      </trkpt>
      <trkpt lat="46.84892" lon="-0.93104">
        <ele>169</ele>
        <time>2010-01-01T00:18:07Z</time>
      </trkpt>
      <trkpt lat="46.84866" lon="-0.93096">
        <ele>169</ele>
        <time>2010-01-01T00:18:11Z</time>
      </trkpt>
      <trkpt lat="46.8482" lon="-0.93096">
        <ele>169</ele>
        <time>2010-01-01T00:18:19Z</time>
      </trkpt>
      <trkpt lat="46.84764" lon="-0.9311">
        <ele>169</ele>
        <time>2010-01-01T00:18:28Z</time>
      </trkpt>
      <trkpt lat="46.84678" lon="-0.93155">
        <ele>168</ele>
        <time>2010-01-01T00:18:44Z</time>
      </trkpt>
      <trkpt lat="46.84591" lon="-0.93207">
        <ele>170</ele>
        <time>2010-01-01T00:18:59Z</time>
      </trkpt>
      <trkpt lat="46.84487" lon="-0.93266">
        <ele>168</ele>
        <time>2010-01-01T00:19:18Z</time>
      </trkpt>
      <trkpt lat="46.8434" lon="-0.93362">
        <ele>165</ele>
        <time>2010-01-01T00:19:45Z</time>
      </trkpt>
      <trkpt lat="46.84293" lon="-0.93371">
        <ele>164</ele>
        <time>2010-01-01T00:19:53Z</time>
      </trkpt>
      <trkpt lat="46.84199" lon="-0.93354">
        <ele>165</ele>
        <time>2010-01-01T00:20:08Z</time>
      </trkpt>
      <trkpt lat="46.84111" lon="-0.93333">
        <ele>165</ele>
        <time>2010-01-01T00:20:23Z</time>
      </trkpt>
      <trkpt lat="46.84061" lon="-0.93306">
        <ele>165</ele>
        <time>2010-01-01T00:20:32Z</time>
      </trkpt>
      <trkpt lat="46.84002" lon="-0.93278">
        <ele>165</ele>
        <time>2010-01-01T00:20:43Z</time>
      </trkpt>
      <trkpt lat="46.83982" lon="-0.93276">
        <ele>165</ele>
        <time>2010-01-01T00:20:46Z</time>
      </trkpt>
      <trkpt lat="46.83928" lon="-0.93298">
        <ele>164</ele>
        <time>2010-01-01T00:20:55Z</time>
      </trkpt>
      <trkpt lat="46.83858" lon="-0.93313">
        <ele>164</ele>
        <time>2010-01-01T00:21:07Z</time>
      </trkpt>
      <trkpt lat="46.83857" lon="-0.93313">
        <ele>164</ele>
        <time>2010-01-01T00:21:07Z</time>
      </trkpt>
      <trkpt lat="46.83797" lon="-0.93325">
        <ele>164</ele>
        <time>2010-01-01T00:21:17Z</time>
      </trkpt>
      <trkpt lat="46.83764" lon="-0.93327">
        <ele>164</ele>
        <time>2010-01-01T00:21:23Z</time>
      </trkpt>
      <trkpt lat="46.83668" lon="-0.93308">
        <ele>163</ele>
        <time>2010-01-01T00:21:39Z</time>
      </trkpt>
      <trkpt lat="46.83577" lon="-0.93273">
        <ele>160</ele>
        <time>2010-01-01T00:21:55Z</time>
      </trkpt>
      <trkpt lat="46.83541" lon="-0.93261">
        <ele>158</ele>
        <time>2010-01-01T00:22:01Z</time>
      </trkpt>
      <trkpt lat="46.83501" lon="-0.93266">
        <ele>157</ele>
        <time>2010-01-01T00:22:08Z</time>
      </trkpt>
      <trkpt lat="46.83449" lon="-0.93279">
        <ele>157</ele>
        <time>2010-01-01T00:22:16Z</time>
      </trkpt>
      <trkpt lat="46.83397" lon="-0.93282">
        <ele>156</ele>
        <time>2010-01-01T00:22:25Z</time>
      </trkpt>
      <trkpt lat="46.83346" lon="-0.93272">
        <ele>154</ele>
        <time>2010-01-01T00:22:34Z</time>
      </trkpt>
      <trkpt lat="46.83305" lon="-0.93284">
        <ele>152</ele>
        <time>2010-01-01T00:22:41Z</time>
      </trkpt>
      <trkpt lat="46.83273" lon="-0.93285">
        <ele>151</ele>
        <time>2010-01-01T00:22:46Z</time>
      </trkpt>
      <trkpt lat="46.82946" lon="-0.93274">
        <ele>136</ele>
        <time>2010-01-01T00:23:40Z</time>
      </trkpt>
      <trkpt lat="46.82913" lon="-0.93268">
        <ele>135</ele>
        <time>2010-01-01T00:23:46Z</time>
      </trkpt>
      <trkpt lat="46.82878" lon="-0.93254">
        <ele>133</ele>
        <time>2010-01-01T00:23:52Z</time>
      </trkpt>
      <trkpt lat="46.82792" lon="-0.93185">
        <ele>134</ele>
        <time>2010-01-01T00:24:08Z</time>
      </trkpt>
      <trkpt lat="46.82749" lon="-0.93162">
        <ele>135</ele>
        <time>2010-01-01T00:24:16Z</time>
      </trkpt>
      <trkpt lat="46.82717" lon="-0.93148">
        <ele>136</ele>
        <time>2010-01-01T00:24:22Z</time>
      </trkpt>
      <trkpt lat="46.82658" lon="-0.93135">
        <ele>137</ele>
        <time>2010-01-01T00:24:32Z</time>
      </trkpt>
      <trkpt lat="46.82579" lon="-0.93123">
        <ele>132</ele>
        <time>2010-01-01T00:24:45Z</time>
      </trkpt>
      <trkpt lat="46.82514" lon="-0.93118">
        <ele>129</ele>
        <time>2010-01-01T00:24:56Z</time>
      </trkpt>
      <trkpt lat="46.82382" lon="-0.93118">
        <ele>125</ele>
        <time>2010-01-01T00:25:18Z</time>
      </trkpt>
      <trkpt lat="46.82308" lon="-0.93144">
        <ele>126</ele>
        <time>2010-01-01T00:25:30Z</time>
      </trkpt>
      <trkpt lat="46.82273" lon="-0.9314">
        <ele>127</ele>
        <time>2010-01-01T00:25:36Z</time>
      </trkpt>
      <trkpt lat="46.82203" lon="-0.93135">
        <ele>128</ele>
        <time>2010-01-01T00:25:48Z</time>
      </trkpt>
      <trkpt lat="46.82159" lon="-0.93118">
        <ele>130</ele>
        <time>2010-01-01T00:25:56Z</time>
      </trkpt>
      <trkpt lat="46.82112" lon="-0.9308">
        <ele>133</ele>
        <time>2010-01-01T00:26:05Z</time>
      </trkpt>
      <trkpt lat="46.82029" lon="-0.93007">
        <ele>138</ele>
        <time>2010-01-01T00:26:21Z</time>
      </trkpt>
      <trkpt lat="46.81988" lon="-0.92977">
        <ele>139</ele>
        <time>2010-01-01T00:26:28Z</time>
      </trkpt>
      <trkpt lat="46.81941" lon="-0.92964">
        <ele>140</ele>
        <time>2010-01-01T00:26:36Z</time>
      </trkpt>
      <trkpt lat="46.81906" lon="-0.92972">
        <ele>140</ele>
        <time>2010-01-01T00:26:42Z</time>
      </trkpt>
      <trkpt lat="46.81847" lon="-0.92981">
        <ele>141</ele>
        <time>2010-01-01T00:26:52Z</time>
      </trkpt>
      <trkpt lat="46.81797" lon="-0.93007">
        <ele>140</ele>
        <time>2010-01-01T00:27:01Z</time>
      </trkpt>
      <trkpt lat="46.81745" lon="-0.93041">
        <ele>140</ele>
        <time>2010-01-01T00:27:10Z</time>
      </trkpt>
      <trkpt lat="46.81695" lon="-0.93067">
        <ele>139</ele>
        <time>2010-01-01T00:27:19Z</time>
      </trkpt>
      <trkpt lat="46.81633" lon="-0.9308">
        <ele>139</ele>
        <time>2010-01-01T00:27:30Z</time>
      </trkpt>
      <trkpt lat="46.81577" lon="-0.93135">
        <ele>139</ele>
        <time>2010-01-01T00:27:41Z</time>
      </trkpt>
      <trkpt lat="46.81515" lon="-0.93178">
        <ele>138</ele>
        <time>2010-01-01T00:27:52Z</time>
      </trkpt>
      <trkpt lat="46.81463" lon="-0.932">
        <ele>137</ele>
        <time>2010-01-01T00:28:01Z</time>
      </trkpt>
      <trkpt lat="46.81342" lon="-0.93213">
        <ele>136</ele>
        <time>2010-01-01T00:28:22Z</time>
      </trkpt>
      <trkpt lat="46.81251" lon="-0.93213">
        <ele>135</ele>
        <time>2010-01-01T00:28:37Z</time>
      </trkpt>
      <trkpt lat="46.81166" lon="-0.93221">
        <ele>132</ele>
        <time>2010-01-01T00:28:51Z</time>
      </trkpt>
      <trkpt lat="46.80989" lon="-0.93263">
        <ele>127</ele>
        <time>2010-01-01T00:29:21Z</time>
      </trkpt>
      <trkpt lat="46.80938" lon="-0.93273">
        <ele>125</ele>
        <time>2010-01-01T00:29:30Z</time>
      </trkpt>
      <trkpt lat="46.80886" lon="-0.9326">
        <ele>122</ele>
        <time>2010-01-01T00:29:38Z</time>
      </trkpt>
      <trkpt lat="46.80748" lon="-0.93189">
        <ele>122</ele>
        <time>2010-01-01T00:30:03Z</time>
      </trkpt>
      <trkpt lat="46.80721" lon="-0.93188">
        <ele>123</ele>
        <time>2010-01-01T00:30:07Z</time>
      </trkpt>
      <trkpt lat="46.80685" lon="-0.93204">
        <ele>124</ele>
        <time>2010-01-01T00:30:14Z</time>
      </trkpt>
      <trkpt lat="46.80641" lon="-0.93228">
        <ele>127</ele>
        <time>2010-01-01T00:30:21Z</time>
      </trkpt>
      <trkpt lat="46.80589" lon="-0.93251">
        <ele>132</ele>
        <time>2010-01-01T00:30:30Z</time>
      </trkpt>
      <trkpt lat="46.80541" lon="-0.93253">
        <ele>134</ele>
        <time>2010-01-01T00:30:38Z</time>
      </trkpt>
      <trkpt lat="46.80469" lon="-0.93239">
        <ele>138</ele>
        <time>2010-01-01T00:30:51Z</time>
      </trkpt>
      <trkpt lat="46.80459" lon="-0.93234">
        <ele>138</ele>
        <time>2010-01-01T00:30:52Z</time>
      </trkpt>
      <trkpt lat="46.80438" lon="-0.93214">
        <ele>139</ele>
        <time>2010-01-01T00:30:57Z</time>
      </trkpt>
      <trkpt lat="46.80376" lon="-0.9314">
        <ele>139</ele>
        <time>2010-01-01T00:31:10Z</time>
      </trkpt>
      <trkpt lat="46.80344" lon="-0.93114">
        <ele>138</ele>
        <time>2010-01-01T00:31:16Z</time>
      </trkpt>
      <trkpt lat="46.80303" lon="-0.93069">
        <ele>138</ele>
        <time>2010-01-01T00:31:25Z</time>
      </trkpt>
      <trkpt lat="46.80257" lon="-0.93009">
        <ele>137</ele>
        <time>2010-01-01T00:31:35Z</time>
      </trkpt>
      <trkpt lat="46.80189" lon="-0.92914">
        <ele>137</ele>
        <time>2010-01-01T00:31:51Z</time>
      </trkpt>
      <trkpt lat="46.80086" lon="-0.92811">
        <ele>138</ele>
        <time>2010-01-01T00:32:11Z</time>
      </trkpt>
      <trkpt lat="46.80056" lon="-0.92792">
        <ele>138</ele>
        <time>2010-01-01T00:32:17Z</time>
      </trkpt>
      <trkpt lat="46.79972" lon="-0.92753">
        <ele>140</ele>
        <time>2010-01-01T00:32:32Z</time>
      </trkpt>
      <trkpt lat="46.79931" lon="-0.9273">
        <ele>142</ele>
        <time>2010-01-01T00:32:39Z</time>
      </trkpt>
      <trkpt lat="46.79882" lon="-0.92707">
        <ele>143</ele>
        <time>2010-01-01T00:32:47Z</time>
      </trkpt>
      <trkpt lat="46.79803" lon="-0.9267">
        <ele>142</ele>
        <time>2010-01-01T00:33:01Z</time>
      </trkpt>
      <trkpt lat="46.79762" lon="-0.92648">
        <ele>141</ele>
        <time>2010-01-01T00:33:09Z</time>
      </trkpt>
      <trkpt lat="46.79767" lon="-0.92667">
        <ele>141</ele>
        <time>2010-01-01T00:33:11Z</time>
      </trkpt>
      <trkpt lat="46.79758" lon="-0.9271">
        <ele>142</ele>
        <time>2010-01-01T00:33:16Z</time>
      </trkpt>
      <trkpt lat="46.79597" lon="-0.92818">
        <ele>139</ele>
        <time>2010-01-01T00:33:46Z</time>
      </trkpt>
      <trkpt lat="46.79582" lon="-0.92824">
        <ele>138</ele>
        <time>2010-01-01T00:33:48Z</time>
      </trkpt>
      <trkpt lat="46.79572" lon="-0.9282">
        <ele>138</ele>
        <time>2010-01-01T00:33:50Z</time>
      </trkpt>
      <trkpt lat="46.79548" lon="-0.92798">
        <ele>137</ele>
        <time>2010-01-01T00:33:55Z</time>
      </trkpt>
      <trkpt lat="46.79536" lon="-0.92797">
        <ele>136</ele>
        <time>2010-01-01T00:33:57Z</time>
      </trkpt>
      <trkpt lat="46.79525" lon="-0.92808">
        <ele>135</ele>
        <time>2010-01-01T00:33:59Z</time>
      </trkpt>
      <trkpt lat="46.79489" lon="-0.92852">
        <ele>133</ele>
        <time>2010-01-01T00:34:07Z</time>
      </trkpt>
      <trkpt lat="46.7947" lon="-0.92884">
        <ele>133</ele>
        <time>2010-01-01T00:34:11Z</time>
      </trkpt>
      <trkpt lat="46.79468" lon="-0.92908">
        <ele>133</ele>
        <time>2010-01-01T00:34:14Z</time>
      </trkpt>
      <trkpt lat="46.79455" lon="-0.92971">
        <ele>134</ele>
        <time>2010-01-01T00:34:22Z</time>
      </trkpt>
      <trkpt lat="46.79444" lon="-0.93001">
        <ele>134</ele>
        <time>2010-01-01T00:34:26Z</time>
      </trkpt>
      <trkpt lat="46.7945" lon="-0.93028">
        <ele>135</ele>
        <time>2010-01-01T00:34:29Z</time>
      </trkpt>
      <trkpt lat="46.79464" lon="-0.93112">
        <ele>136</ele>
        <time>2010-01-01T00:34:39Z</time>
      </trkpt>
      <trkpt lat="46.79464" lon="-0.93137">
        <ele>136</ele>
        <time>2010-01-01T00:34:42Z</time>
      </trkpt>
      <trkpt lat="46.79462" lon="-0.93168">
        <ele>137</ele>
        <time>2010-01-01T00:34:45Z</time>
      </trkpt>
      <trkpt lat="46.79436" lon="-0.93303">
        <ele>138</ele>
        <time>2010-01-01T00:35:01Z</time>
      </trkpt>
      <trkpt lat="46.79413" lon="-0.93411">
        <ele>138</ele>
        <time>2010-01-01T00:35:14Z</time>
      </trkpt>
      <trkpt lat="46.794" lon="-0.93469">
        <ele>137</ele>
        <time>2010-01-01T00:35:21Z</time>
      </trkpt>
      <trkpt lat="46.79399" lon="-0.93498">
        <ele>137</ele>
        <time>2010-01-01T00:35:24Z</time>
      </trkpt>
      <trkpt lat="46.79403" lon="-0.93583">
        <ele>137</ele>
        <time>2010-01-01T00:35:34Z</time>
      </trkpt>
      <trkpt lat="46.79418" lon="-0.93659">
        <ele>135</ele>
        <time>2010-01-01T00:35:43Z</time>
      </trkpt>
      <trkpt lat="46.79424" lon="-0.93659">
        <ele>135</ele>
        <time>2010-01-01T00:35:44Z</time>
      </trkpt>
      <trkpt lat="46.7943" lon="-0.93661">
        <ele>135</ele>
        <time>2010-01-01T00:35:45Z</time>
      </trkpt>
      <trkpt lat="46.79433" lon="-0.93666">
        <ele>135</ele>
        <time>2010-01-01T00:35:46Z</time>
      </trkpt>
      <trkpt lat="46.79435" lon="-0.93672">
        <ele>135</ele>
        <time>2010-01-01T00:35:47Z</time>
      </trkpt>
      <trkpt lat="46.79435" lon="-0.93684">
        <ele>135</ele>
        <time>2010-01-01T00:35:48Z</time>
      </trkpt>
      <trkpt lat="46.79431" lon="-0.93692">
        <ele>135</ele>
        <time>2010-01-01T00:35:49Z</time>
      </trkpt>
      <trkpt lat="46.79426" lon="-0.93695">
        <ele>135</ele>
        <time>2010-01-01T00:35:50Z</time>
      </trkpt>
      <trkpt lat="46.79431" lon="-0.93718">
        <ele>135</ele>
        <time>2010-01-01T00:35:53Z</time>
      </trkpt>
      <trkpt lat="46.79436" lon="-0.93761">
        <ele>135</ele>
        <time>2010-01-01T00:35:58Z</time>
      </trkpt>
      <trkpt lat="46.79437" lon="-0.93806">
        <ele>134</ele>
        <time>2010-01-01T00:36:03Z</time>
      </trkpt>
      <trkpt lat="46.79433" lon="-0.93866">
        <ele>132</ele>
        <time>2010-01-01T00:36:10Z</time>
      </trkpt>
      <trkpt lat="46.79427" lon="-0.939">
        <ele>131</ele>
        <time>2010-01-01T00:36:14Z</time>
      </trkpt>
      <trkpt lat="46.79418" lon="-0.93928">
        <ele>131</ele>
        <time>2010-01-01T00:36:17Z</time>
      </trkpt>
      <trkpt lat="46.79369" lon="-0.94028">
        <ele>127</ele>
        <time>2010-01-01T00:36:31Z</time>
      </trkpt>
      <trkpt lat="46.79354" lon="-0.94066">
        <ele>127</ele>
        <time>2010-01-01T00:36:36Z</time>
      </trkpt>
      <trkpt lat="46.79334" lon="-0.94135">
        <ele>125</ele>
        <time>2010-01-01T00:36:45Z</time>
      </trkpt>
      <trkpt lat="46.7933" lon="-0.94175">
        <ele>124</ele>
        <time>2010-01-01T00:36:50Z</time>
      </trkpt>
      <trkpt lat="46.79328" lon="-0.94218">
        <ele>125</ele>
        <time>2010-01-01T00:36:55Z</time>
      </trkpt>
      <trkpt lat="46.79336" lon="-0.94332">
        <ele>124</ele>
        <time>2010-01-01T00:37:08Z</time>
      </trkpt>
      <trkpt lat="46.79344" lon="-0.94473">
        <ele>120</ele>
        <time>2010-01-01T00:37:24Z</time>
      </trkpt>
      <trkpt lat="46.79355" lon="-0.94617">
        <ele>119</ele>
        <time>2010-01-01T00:37:40Z</time>
      </trkpt>
      <trkpt lat="46.79356" lon="-0.94648">
        <ele>119</ele>
        <time>2010-01-01T00:37:44Z</time>
      </trkpt>
      <trkpt lat="46.79355" lon="-0.9469">
        <ele>118</ele>
        <time>2010-01-01T00:37:49Z</time>
      </trkpt>
      <trkpt lat="46.79339" lon="-0.94782">
        <ele>116</ele>
        <time>2010-01-01T00:38:00Z</time>
      </trkpt>
      <trkpt lat="46.79329" lon="-0.94829">
        <ele>116</ele>
        <time>2010-01-01T00:38:05Z</time>
      </trkpt>
      <trkpt lat="46.79313" lon="-0.94973">
        <ele>114</ele>
        <time>2010-01-01T00:38:22Z</time>
      </trkpt>
      <trkpt lat="46.79305" lon="-0.95141">
        <ele>111</ele>
        <time>2010-01-01T00:38:41Z</time>
      </trkpt>
      <trkpt lat="46.79301" lon="-0.95162">
        <ele>111</ele>
        <time>2010-01-01T00:38:44Z</time>
      </trkpt>
      <trkpt lat="46.79295" lon="-0.95217">
        <ele>111</ele>
        <time>2010-01-01T00:38:50Z</time>
      </trkpt>
      <trkpt lat="46.79284" lon="-0.95266">
        <ele>110</ele>
        <time>2010-01-01T00:38:56Z</time>
      </trkpt>
      <trkpt lat="46.79256" lon="-0.95359">
        <ele>108</ele>
        <time>2010-01-01T00:39:07Z</time>
      </trkpt>
      <trkpt lat="46.79246" lon="-0.95398">
        <ele>108</ele>
        <time>2010-01-01T00:39:12Z</time>
      </trkpt>
      <trkpt lat="46.79217" lon="-0.95502">
        <ele>106</ele>
        <time>2010-01-01T00:39:25Z</time>
      </trkpt>
      <trkpt lat="46.7921" lon="-0.95546">
        <ele>106</ele>
        <time>2010-01-01T00:39:30Z</time>
      </trkpt>
      <trkpt lat="46.79206" lon="-0.95589">
        <ele>105</ele>
        <time>2010-01-01T00:39:35Z</time>
      </trkpt>
      <trkpt lat="46.79207" lon="-0.9566">
        <ele>106</ele>
        <time>2010-01-01T00:39:43Z</time>
      </trkpt>
      <trkpt lat="46.79219" lon="-0.95872">
        <ele>108</ele>
        <time>2010-01-01T00:40:07Z</time>
      </trkpt>
      <trkpt lat="46.7922" lon="-0.95914">
        <ele>109</ele>
        <time>2010-01-01T00:40:12Z</time>
      </trkpt>
      <trkpt lat="46.79202" lon="-0.96194">
        <ele>112</ele>
        <time>2010-01-01T00:40:44Z</time>
      </trkpt>
      <trkpt lat="46.79195" lon="-0.96234">
        <ele>113</ele>
        <time>2010-01-01T00:40:49Z</time>
      </trkpt>
      <trkpt lat="46.7919" lon="-0.96297">
        <ele>113</ele>
        <time>2010-01-01T00:40:56Z</time>
      </trkpt>
      <trkpt lat="46.79178" lon="-0.96382">
        <ele>113</ele>
        <time>2010-01-01T00:41:06Z</time>
      </trkpt>
      <trkpt lat="46.79149" lon="-0.96608">
        <ele>110</ele>
        <time>2010-01-01T00:41:33Z</time>
      </trkpt>
      <trkpt lat="46.79148" lon="-0.96632">
        <ele>110</ele>
        <time>2010-01-01T00:41:35Z</time>
      </trkpt>
      <trkpt lat="46.7915" lon="-0.96667">
        <ele>111</ele>
        <time>2010-01-01T00:41:39Z</time>
      </trkpt>
      <trkpt lat="46.79165" lon="-0.96744">
        <ele>112</ele>
        <time>2010-01-01T00:41:48Z</time>
      </trkpt>
      <trkpt lat="46.79172" lon="-0.96793">
        <ele>113</ele>
        <time>2010-01-01T00:41:54Z</time>
      </trkpt>
      <trkpt lat="46.79172" lon="-0.96832">
        <ele>114</ele>
        <time>2010-01-01T00:41:59Z</time>
      </trkpt>
      <trkpt lat="46.79169" lon="-0.96877">
        <ele>114</ele>
        <time>2010-01-01T00:42:04Z</time>
      </trkpt>
      <trkpt lat="46.79161" lon="-0.96951">
        <ele>112</ele>
        <time>2010-01-01T00:42:12Z</time>
      </trkpt>
      <trkpt lat="46.79157" lon="-0.97073">
        <ele>108</ele>
        <time>2010-01-01T00:42:26Z</time>
      </trkpt>
      <trkpt lat="46.79162" lon="-0.9727">
        <ele>107</ele>
        <time>2010-01-01T00:42:49Z</time>
      </trkpt>
      <trkpt lat="46.79168" lon="-0.97305">
        <ele>108</ele>
        <time>2010-01-01T00:42:53Z</time>
      </trkpt>
      <trkpt lat="46.79165" lon="-0.97321">
        <ele>108</ele>
        <time>2010-01-01T00:42:55Z</time>
      </trkpt>
      <trkpt lat="46.79164" lon="-0.97348">
        <ele>108</ele>
        <time>2010-01-01T00:42:58Z</time>
      </trkpt>
      <trkpt lat="46.79142" lon="-0.97432">
        <ele>108</ele>
        <time>2010-01-01T00:43:08Z</time>
      </trkpt>
      <trkpt lat="46.79128" lon="-0.97492">
        <ele>109</ele>
        <time>2010-01-01T00:43:15Z</time>
      </trkpt>
      <trkpt lat="46.79082" lon="-0.97655">
        <ele>109</ele>
        <time>2010-01-01T00:43:35Z</time>
      </trkpt>
      <trkpt lat="46.7905" lon="-0.97755">
        <ele>108</ele>
        <time>2010-01-01T00:43:48Z</time>
      </trkpt>
      <trkpt lat="46.78988" lon="-0.97928">
        <ele>105</ele>
        <time>2010-01-01T00:44:10Z</time>
      </trkpt>
      <trkpt lat="46.78946" lon="-0.98071">
        <ele>102</ele>
        <time>2010-01-01T00:44:28Z</time>
      </trkpt>
      <trkpt lat="46.7893" lon="-0.98147">
        <ele>101</ele>
        <time>2010-01-01T00:44:37Z</time>
      </trkpt>
      <trkpt lat="46.78912" lon="-0.9826">
        <ele>102</ele>
        <time>2010-01-01T00:44:50Z</time>
      </trkpt>
      <trkpt lat="46.78913" lon="-0.98335">
        <ele>102</ele>
        <time>2010-01-01T00:44:59Z</time>
      </trkpt>
      <trkpt lat="46.78952" lon="-0.9861">
        <ele>106</ele>
        <time>2010-01-01T00:45:31Z</time>
      </trkpt>
      <trkpt lat="46.78981" lon="-0.98822">
        <ele>106</ele>
        <time>2010-01-01T00:45:56Z</time>
      </trkpt>
      <trkpt lat="46.78982" lon="-0.98897">
        <ele>105</ele>
        <time>2010-01-01T00:46:04Z</time>
      </trkpt>
      <trkpt lat="46.78979" lon="-0.99042">
        <ele>102</ele>
        <time>2010-01-01T00:46:21Z</time>
      </trkpt>
      <trkpt lat="46.78969" lon="-0.99111">
        <ele>101</ele>
        <time>2010-01-01T00:46:29Z</time>
      </trkpt>
      <trkpt lat="46.78947" lon="-0.9919">
        <ele>100</ele>
        <time>2010-01-01T00:46:39Z</time>
      </trkpt>
      <trkpt lat="46.78937" lon="-0.99256">
        <ele>99</ele>
        <time>2010-01-01T00:46:46Z</time>
      </trkpt>
      <trkpt lat="46.78942" lon="-0.9934">
        <ele>100</ele>
        <time>2010-01-01T00:46:56Z</time>
      </trkpt>
      <trkpt lat="46.78957" lon="-0.99414">
        <ele>101</ele>
        <time>2010-01-01T00:47:05Z</time>
      </trkpt>
      <trkpt lat="46.78961" lon="-0.99446">
        <ele>102</ele>
        <time>2010-01-01T00:47:09Z</time>
      </trkpt>
      <trkpt lat="46.78962" lon="-0.99463">
        <ele>102</ele>
        <time>2010-01-01T00:47:11Z</time>
      </trkpt>
      <trkpt lat="46.78959" lon="-0.99489">
        <ele>102</ele>
        <time>2010-01-01T00:47:14Z</time>
      </trkpt>
      <trkpt lat="46.78951" lon="-0.9952">
        <ele>102</ele>
        <time>2010-01-01T00:47:17Z</time>
      </trkpt>
      <trkpt lat="46.7894" lon="-0.99543">
        <ele>102</ele>
        <time>2010-01-01T00:47:21Z</time>
      </trkpt>
      <trkpt lat="46.78916" lon="-0.99583">
        <ele>101</ele>
        <time>2010-01-01T00:47:27Z</time>
      </trkpt>
      <trkpt lat="46.78907" lon="-0.99608">
        <ele>101</ele>
        <time>2010-01-01T00:47:30Z</time>
      </trkpt>
      <trkpt lat="46.78904" lon="-0.99653">
        <ele>101</ele>
        <time>2010-01-01T00:47:35Z</time>
      </trkpt>
      <trkpt lat="46.7894" lon="-0.99762">
        <ele>101</ele>
        <time>2010-01-01T00:47:49Z</time>
      </trkpt>
      <trkpt lat="46.78944" lon="-0.99785">
        <ele>101</ele>
        <time>2010-01-01T00:47:52Z</time>
      </trkpt>
      <trkpt lat="46.78944" lon="-0.99821">
        <ele>101</ele>
        <time>2010-01-01T00:47:56Z</time>
      </trkpt>
      <trkpt lat="46.78853" lon="-0.99833">
        <ele>98</ele>
        <time>2010-01-01T00:48:11Z</time>
      </trkpt>
      <trkpt lat="46.78823" lon="-0.99842">
        <ele>97</ele>
        <time>2010-01-01T00:48:16Z</time>
      </trkpt>
      <trkpt lat="46.78695" lon="-0.99946">
        <ele>95</ele>
        <time>2010-01-01T00:48:40Z</time>
      </trkpt>
      <trkpt lat="46.7859" lon="-1.00002">
        <ele>100</ele>
        <time>2010-01-01T00:48:59Z</time>
      </trkpt>
      <trkpt lat="46.78454" lon="-1.00158">
        <ele>106</ele>
        <time>2010-01-01T00:49:28Z</time>
      </trkpt>
      <trkpt lat="46.78353" lon="-1.00217">
        <ele>107</ele>
        <time>2010-01-01T00:49:46Z</time>
      </trkpt>
      <trkpt lat="46.78329" lon="-1.00242">
        <ele>107</ele>
        <time>2010-01-01T00:49:51Z</time>
      </trkpt>
      <trkpt lat="46.7831" lon="-1.00267">
        <ele>106</ele>
        <time>2010-01-01T00:49:55Z</time>
      </trkpt>
      <trkpt lat="46.78294" lon="-1.00298">
        <ele>105</ele>
        <time>2010-01-01T00:50:00Z</time>
      </trkpt>
      <trkpt lat="46.78259" lon="-1.0038">
        <ele>102</ele>
        <time>2010-01-01T00:50:11Z</time>
      </trkpt>
      <trkpt lat="46.78234" lon="-1.0041">
        <ele>99</ele>
        <time>2010-01-01T00:50:16Z</time>
      </trkpt>
      <trkpt lat="46.78173" lon="-1.00454">
        <ele>94</ele>
        <time>2010-01-01T00:50:27Z</time>
      </trkpt>
      <trkpt lat="46.78097" lon="-1.00466">
        <ele>92</ele>
        <time>2010-01-01T00:50:40Z</time>
      </trkpt>
      <trkpt lat="46.78071" lon="-1.00491">
        <ele>94</ele>
        <time>2010-01-01T00:50:45Z</time>
      </trkpt>
      <trkpt lat="46.78048" lon="-1.00538">
        <ele>97</ele>
        <time>2010-01-01T00:50:52Z</time>
      </trkpt>
      <trkpt lat="46.78023" lon="-1.00639">
        <ele>101</ele>
        <time>2010-01-01T00:51:04Z</time>
      </trkpt>
      <trkpt lat="46.78023" lon="-1.0064">
        <ele>101</ele>
        <time>2010-01-01T00:51:04Z</time>
      </trkpt>
      <trkpt lat="46.78017" lon="-1.00661">
        <ele>102</ele>
        <time>2010-01-01T00:51:07Z</time>
      </trkpt>
      <trkpt lat="46.78005" lon="-1.00685">
        <ele>103</ele>
        <time>2010-01-01T00:51:10Z</time>
      </trkpt>
      <trkpt lat="46.77928" lon="-1.00799">
        <ele>108</ele>
        <time>2010-01-01T00:51:29Z</time>
      </trkpt>
      <trkpt lat="46.77895" lon="-1.00869">
        <ele>108</ele>
        <time>2010-01-01T00:51:38Z</time>
      </trkpt>
      <trkpt lat="46.77873" lon="-1.00894">
        <ele>109</ele>
        <time>2010-01-01T00:51:43Z</time>
      </trkpt>
      <trkpt lat="46.7785" lon="-1.00908">
        <ele>109</ele>
        <time>2010-01-01T00:51:47Z</time>
      </trkpt>
      <trkpt lat="46.77815" lon="-1.00918">
        <ele>108</ele>
        <time>2010-01-01T00:51:53Z</time>
      </trkpt>
      <trkpt lat="46.7778" lon="-1.00938">
        <ele>107</ele>
        <time>2010-01-01T00:51:59Z</time>
      </trkpt>
      <trkpt lat="46.77728" lon="-1.0096">
        <ele>103</ele>
        <time>2010-01-01T00:52:08Z</time>
      </trkpt>
      <trkpt lat="46.77708" lon="-1.00975">
        <ele>101</ele>
        <time>2010-01-01T00:52:12Z</time>
      </trkpt>
      <trkpt lat="46.77701" lon="-1.00991">
        <ele>100</ele>
        <time>2010-01-01T00:52:14Z</time>
      </trkpt>
      <trkpt lat="46.77697" lon="-1.01014">
        <ele>100</ele>
        <time>2010-01-01T00:52:17Z</time>
      </trkpt>
      <trkpt lat="46.77712" lon="-1.01109">
        <ele>99</ele>
        <time>2010-01-01T00:52:28Z</time>
      </trkpt>
      <trkpt lat="46.77724" lon="-1.01223">
        <ele>98</ele>
        <time>2010-01-01T00:52:41Z</time>
      </trkpt>
      <trkpt lat="46.77729" lon="-1.01311">
        <ele>96</ele>
        <time>2010-01-01T00:52:51Z</time>
      </trkpt>
      <trkpt lat="46.77727" lon="-1.01345">
        <ele>95</ele>
        <time>2010-01-01T00:52:55Z</time>
      </trkpt>
      <trkpt lat="46.77701" lon="-1.01416">
        <ele>92</ele>
        <time>2010-01-01T00:53:05Z</time>
      </trkpt>
      <trkpt lat="46.77666" lon="-1.01489">
        <ele>89</ele>
        <time>2010-01-01T00:53:15Z</time>
      </trkpt>
      <trkpt lat="46.77627" lon="-1.01545">
        <ele>88</ele>
        <time>2010-01-01T00:53:24Z</time>
      </trkpt>
      <trkpt lat="46.77526" lon="-1.01646">
        <ele>89</ele>
        <time>2010-01-01T00:53:44Z</time>
      </trkpt>
      <trkpt lat="46.77349" lon="-1.01774">
        <ele>94</ele>
        <time>2010-01-01T00:54:17Z</time>
      </trkpt>
      <trkpt lat="46.77183" lon="-1.01835">
        <ele>102</ele>
        <time>2010-01-01T00:54:46Z</time>
      </trkpt>
      <trkpt lat="46.77126" lon="-1.01835">
        <ele>104</ele>
        <time>2010-01-01T00:54:55Z</time>
      </trkpt>
      <trkpt lat="46.77097" lon="-1.01843">
        <ele>105</ele>
        <time>2010-01-01T00:55:00Z</time>
      </trkpt>
      <trkpt lat="46.77014" lon="-1.01883">
        <ele>107</ele>
        <time>2010-01-01T00:55:15Z</time>
      </trkpt>
      <trkpt lat="46.76877" lon="-1.0192">
        <ele>106</ele>
        <time>2010-01-01T00:55:38Z</time>
      </trkpt>
      <trkpt lat="46.76805" lon="-1.01935">
        <ele>106</ele>
        <time>2010-01-01T00:55:50Z</time>
      </trkpt>
      <trkpt lat="46.76745" lon="-1.01922">
        <ele>106</ele>
        <time>2010-01-01T00:56:00Z</time>
      </trkpt>
      <trkpt lat="46.7666" lon="-1.01891">
        <ele>104</ele>
        <time>2010-01-01T00:56:15Z</time>
      </trkpt>
      <trkpt lat="46.76444" lon="-1.01771">
        <ele>97</ele>
        <time>2010-01-01T00:56:53Z</time>
      </trkpt>
      <trkpt lat="46.76358" lon="-1.01727">
        <ele>93</ele>
        <time>2010-01-01T00:57:09Z</time>
      </trkpt>
      <trkpt lat="46.76323" lon="-1.01707">
        <ele>91</ele>
        <time>2010-01-01T00:57:15Z</time>
      </trkpt>
      <trkpt lat="46.76302" lon="-1.01696">
        <ele>90</ele>
        <time>2010-01-01T00:57:19Z</time>
      </trkpt>
      <trkpt lat="46.76272" lon="-1.01693">
        <ele>88</ele>
        <time>2010-01-01T00:57:24Z</time>
      </trkpt>
      <trkpt lat="46.76163" lon="-1.01693">
        <ele>85</ele>
        <time>2010-01-01T00:57:42Z</time>
      </trkpt>
      <trkpt lat="46.76152" lon="-1.01692">
        <ele>84</ele>
        <time>2010-01-01T00:57:44Z</time>
      </trkpt>
      <trkpt lat="46.76114" lon="-1.01679">
        <ele>83</ele>
        <time>2010-01-01T00:57:50Z</time>
      </trkpt>
      <trkpt lat="46.76081" lon="-1.01666">
        <ele>82</ele>
        <time>2010-01-01T00:57:56Z</time>
      </trkpt>
      <trkpt lat="46.7604" lon="-1.01645">
        <ele>82</ele>
        <time>2010-01-01T00:58:03Z</time>
      </trkpt>
      <trkpt lat="46.75969" lon="-1.01586">
        <ele>82</ele>
        <time>2010-01-01T00:58:17Z</time>
      </trkpt>
      <trkpt lat="46.75934" lon="-1.01567">
        <ele>82</ele>
        <time>2010-01-01T00:58:23Z</time>
      </trkpt>
      <trkpt lat="46.75878" lon="-1.01547">
        <ele>82</ele>
        <time>2010-01-01T00:58:33Z</time>
      </trkpt>
      <trkpt lat="46.75756" lon="-1.01468">
        <ele>84</ele>
        <time>2010-01-01T00:58:55Z</time>
      </trkpt>
      <trkpt lat="46.75736" lon="-1.0146">
        <ele>85</ele>
        <time>2010-01-01T00:58:58Z</time>
      </trkpt>
      <trkpt lat="46.75698" lon="-1.01463">
        <ele>86</ele>
        <time>2010-01-01T00:59:05Z</time>
      </trkpt>
      <trkpt lat="46.7559" lon="-1.01482">
        <ele>90</ele>
        <time>2010-01-01T00:59:23Z</time>
      </trkpt>
      <trkpt lat="46.7552" lon="-1.01525">
        <ele>92</ele>
        <time>2010-01-01T00:59:35Z</time>
      </trkpt>
      <trkpt lat="46.75452" lon="-1.01555">
        <ele>93</ele>
        <time>2010-01-01T00:59:47Z</time>
      </trkpt>
      <trkpt lat="46.75247" lon="-1.01664">
        <ele>95</ele>
        <time>2010-01-01T01:00:24Z</time>
      </trkpt>
      <trkpt lat="46.75221" lon="-1.01681">
        <ele>95</ele>
        <time>2010-01-01T01:00:28Z</time>
      </trkpt>
      <trkpt lat="46.75173" lon="-1.01693">
        <ele>94</ele>
        <time>2010-01-01T01:00:37Z</time>
      </trkpt>
      <trkpt lat="46.75087" lon="-1.01706">
        <ele>93</ele>
        <time>2010-01-01T01:00:51Z</time>
      </trkpt>
      <trkpt lat="46.75029" lon="-1.01737">
        <ele>92</ele>
        <time>2010-01-01T01:01:01Z</time>
      </trkpt>
      <trkpt lat="46.74992" lon="-1.01752">
        <ele>92</ele>
        <time>2010-01-01T01:01:08Z</time>
      </trkpt>
      <trkpt lat="46.74952" lon="-1.01758">
        <ele>91</ele>
        <time>2010-01-01T01:01:14Z</time>
      </trkpt>
      <trkpt lat="46.74894" lon="-1.01758">
        <ele>91</ele>
        <time>2010-01-01T01:01:24Z</time>
      </trkpt>
      <trkpt lat="46.74879" lon="-1.01762">
        <ele>90</ele>
        <time>2010-01-01T01:01:27Z</time>
      </trkpt>
      <trkpt lat="46.74865" lon="-1.01772">
        <ele>90</ele>
        <time>2010-01-01T01:01:29Z</time>
      </trkpt>
      <trkpt lat="46.74789" lon="-1.01843">
        <ele>88</ele>
        <time>2010-01-01T01:01:44Z</time>
      </trkpt>
      <trkpt lat="46.74718" lon="-1.01888">
        <ele>86</ele>
        <time>2010-01-01T01:01:57Z</time>
      </trkpt>
      <trkpt lat="46.74703" lon="-1.01909">
        <ele>85</ele>
        <time>2010-01-01T01:02:01Z</time>
      </trkpt>
      <trkpt lat="46.74599" lon="-1.02154">
        <ele>81</ele>
        <time>2010-01-01T01:02:34Z</time>
      </trkpt>
      <trkpt lat="46.74539" lon="-1.02301">
        <ele>78</ele>
        <time>2010-01-01T01:02:53Z</time>
      </trkpt>
      <trkpt lat="46.74524" lon="-1.02327">
        <ele>78</ele>
        <time>2010-01-01T01:02:57Z</time>
      </trkpt>
      <trkpt lat="46.74502" lon="-1.02357">
        <ele>77</ele>
        <time>2010-01-01T01:03:02Z</time>
      </trkpt>
      <trkpt lat="46.74476" lon="-1.02385">
        <ele>77</ele>
        <time>2010-01-01T01:03:07Z</time>
      </trkpt>
      <trkpt lat="46.74463" lon="-1.02413">
        <ele>77</ele>
        <time>2010-01-01T01:03:11Z</time>
      </trkpt>
      <trkpt lat="46.74424" lon="-1.02577">
        <ele>77</ele>
        <time>2010-01-01T01:03:31Z</time>
      </trkpt>
      <trkpt lat="46.74411" lon="-1.02606">
        <ele>77</ele>
        <time>2010-01-01T01:03:35Z</time>
      </trkpt>
      <trkpt lat="46.74382" lon="-1.02643">
        <ele>78</ele>
        <time>2010-01-01T01:03:42Z</time>
      </trkpt>
      <trkpt lat="46.74352" lon="-1.02708">
        <ele>78</ele>
        <time>2010-01-01T01:03:51Z</time>
      </trkpt>
      <trkpt lat="46.74333" lon="-1.02735">
        <ele>78</ele>
        <time>2010-01-01T01:03:55Z</time>
      </trkpt>
      <trkpt lat="46.74317" lon="-1.02745">
        <ele>77</ele>
        <time>2010-01-01T01:03:58Z</time>
      </trkpt>
      <trkpt lat="46.74143" lon="-1.028">
        <ele>82</ele>
        <time>2010-01-01T01:04:28Z</time>
      </trkpt>
      <trkpt lat="46.74107" lon="-1.02815">
        <ele>83</ele>
        <time>2010-01-01T01:04:34Z</time>
      </trkpt>
      <trkpt lat="46.74025" lon="-1.02868">
        <ele>83</ele>
        <time>2010-01-01T01:04:49Z</time>
      </trkpt>
      <trkpt lat="46.73996" lon="-1.02873">
        <ele>82</ele>
        <time>2010-01-01T01:04:54Z</time>
      </trkpt>
      <trkpt lat="46.7396" lon="-1.02869">
        <ele>83</ele>
        <time>2010-01-01T01:05:00Z</time>
      </trkpt>
      <trkpt lat="46.73938" lon="-1.02873">
        <ele>83</ele>
        <time>2010-01-01T01:05:03Z</time>
      </trkpt>
      <trkpt lat="46.73867" lon="-1.02896">
        <ele>85</ele>
        <time>2010-01-01T01:05:15Z</time>
      </trkpt>
      <trkpt lat="46.73749" lon="-1.0292">
        <ele>89</ele>
        <time>2010-01-01T01:05:35Z</time>
      </trkpt>
      <trkpt lat="46.73671" lon="-1.0294">
        <ele>86</ele>
        <time>2010-01-01T01:05:49Z</time>
      </trkpt>
      <trkpt lat="46.73645" lon="-1.02943">
        <ele>85</ele>
        <time>2010-01-01T01:05:53Z</time>
      </trkpt>
      <trkpt lat="46.73404" lon="-1.02943">
        <ele>82</ele>
        <time>2010-01-01T01:06:33Z</time>
      </trkpt>
      <trkpt lat="46.73363" lon="-1.02949">
        <ele>82</ele>
        <time>2010-01-01T01:06:40Z</time>
      </trkpt>
      <trkpt lat="46.73313" lon="-1.02958">
        <ele>83</ele>
        <time>2010-01-01T01:06:48Z</time>
      </trkpt>
      <trkpt lat="46.73287" lon="-1.02953">
        <ele>83</ele>
        <time>2010-01-01T01:06:53Z</time>
      </trkpt>
      <trkpt lat="46.73221" lon="-1.02933">
        <ele>84</ele>
        <time>2010-01-01T01:07:04Z</time>
      </trkpt>
      <trkpt lat="46.73083" lon="-1.02917">
        <ele>88</ele>
        <time>2010-01-01T01:07:27Z</time>
      </trkpt>
      <trkpt lat="46.73064" lon="-1.02925">
        <ele>88</ele>
        <time>2010-01-01T01:07:30Z</time>
      </trkpt>
      <trkpt lat="46.73037" lon="-1.02943">
        <ele>88</ele>
        <time>2010-01-01T01:07:35Z</time>
      </trkpt>
      <trkpt lat="46.73023" lon="-1.02946">
        <ele>88</ele>
        <time>2010-01-01T01:07:38Z</time>
      </trkpt>
      <trkpt lat="46.73004" lon="-1.0294">
        <ele>88</ele>
        <time>2010-01-01T01:07:41Z</time>
      </trkpt>
      <trkpt lat="46.72795" lon="-1.0283">
        <ele>89</ele>
        <time>2010-01-01T01:08:18Z</time>
      </trkpt>
      <trkpt lat="46.7276" lon="-1.02824">
        <ele>88</ele>
        <time>2010-01-01T01:08:24Z</time>
      </trkpt>
      <trkpt lat="46.72675" lon="-1.0282">
        <ele>87</ele>
        <time>2010-01-01T01:08:38Z</time>
      </trkpt>
      <trkpt lat="46.72613" lon="-1.02824">
        <ele>86</ele>
        <time>2010-01-01T01:08:48Z</time>
      </trkpt>
      <trkpt lat="46.72433" lon="-1.02849">
        <ele>84</ele>
        <time>2010-01-01T01:09:19Z</time>
      </trkpt>
      <trkpt lat="46.72412" lon="-1.02853">
        <ele>84</ele>
        <time>2010-01-01T01:09:22Z</time>
      </trkpt>
      <trkpt lat="46.72396" lon="-1.02869">
        <ele>84</ele>
        <time>2010-01-01T01:09:25Z</time>
      </trkpt>
      <trkpt lat="46.72381" lon="-1.0288">
        <ele>84</ele>
        <time>2010-01-01T01:09:28Z</time>
      </trkpt>
      <trkpt lat="46.7238" lon="-1.02893">
        <ele>83</ele>
        <time>2010-01-01T01:09:30Z</time>
      </trkpt>
      <trkpt lat="46.72375" lon="-1.029">
        <ele>83</ele>
        <time>2010-01-01T01:09:31Z</time>
      </trkpt>
      <trkpt lat="46.7237" lon="-1.02902">
        <ele>83</ele>
        <time>2010-01-01T01:09:32Z</time>
      </trkpt>
      <trkpt lat="46.72365" lon="-1.02901">
        <ele>83</ele>
        <time>2010-01-01T01:09:32Z</time>
      </trkpt>
      <trkpt lat="46.72359" lon="-1.02894">
        <ele>83</ele>
        <time>2010-01-01T01:09:34Z</time>
      </trkpt>
      <trkpt lat="46.72357" lon="-1.02883">
        <ele>84</ele>
        <time>2010-01-01T01:09:35Z</time>
      </trkpt>
      <trkpt lat="46.7236" lon="-1.02873">
        <ele>84</ele>
        <time>2010-01-01T01:09:36Z</time>
      </trkpt>
      <trkpt lat="46.72362" lon="-1.02871">
        <ele>84</ele>
        <time>2010-01-01T01:09:37Z</time>
      </trkpt>
      <trkpt lat="46.72362" lon="-1.02872">
        <ele>84</ele>
        <time>2010-01-01T01:09:37Z</time>
      </trkpt>
      <trkpt lat="46.72367" lon="-1.02867">
        <ele>84</ele>
        <time>2010-01-01T01:09:38Z</time>
      </trkpt>
      <trkpt lat="46.72356" lon="-1.02819">
        <ele>85</ele>
        <time>2010-01-01T01:09:44Z</time>
      </trkpt>
      <trkpt lat="46.72345" lon="-1.02736">
        <ele>84</ele>
        <time>2010-01-01T01:09:53Z</time>
      </trkpt>
      <trkpt lat="46.72322" lon="-1.02628">
        <ele>83</ele>
        <time>2010-01-01T01:10:06Z</time>
      </trkpt>
      <trkpt lat="46.72304" lon="-1.02576">
        <ele>83</ele>
        <time>2010-01-01T01:10:13Z</time>
      </trkpt>
      <trkpt lat="46.72238" lon="-1.02419">
        <ele>81</ele>
        <time>2010-01-01T01:10:34Z</time>
      </trkpt>
      <trkpt lat="46.72225" lon="-1.02396">
        <ele>81</ele>
        <time>2010-01-01T01:10:37Z</time>
      </trkpt>
      <trkpt lat="46.72163" lon="-1.02306">
        <ele>79</ele>
        <time>2010-01-01T01:10:52Z</time>
      </trkpt>
      <trkpt lat="46.72155" lon="-1.02291">
        <ele>78</ele>
        <time>2010-01-01T01:10:54Z</time>
      </trkpt>
      <trkpt lat="46.72099" lon="-1.02206">
        <ele>75</ele>
        <time>2010-01-01T01:11:08Z</time>
      </trkpt>
      <trkpt lat="46.72043" lon="-1.02108">
        <ele>73</ele>
        <time>2010-01-01T01:11:22Z</time>
      </trkpt>
      <trkpt lat="46.72032" lon="-1.02071">
        <ele>72</ele>
        <time>2010-01-01T01:11:27Z</time>
      </trkpt>
      <trkpt lat="46.7199" lon="-1.01913">
        <ele>69</ele>
        <time>2010-01-01T01:11:46Z</time>
      </trkpt>
      <trkpt lat="46.71978" lon="-1.01894">
        <ele>68</ele>
        <time>2010-01-01T01:11:49Z</time>
      </trkpt>
      <trkpt lat="46.71791" lon="-1.01779">
        <ele>62</ele>
        <time>2010-01-01T01:12:23Z</time>
      </trkpt>
      <trkpt lat="46.71702" lon="-1.01738">
        <ele>64</ele>
        <time>2010-01-01T01:12:39Z</time>
      </trkpt>
      <trkpt lat="46.71698" lon="-1.01745">
        <ele>64</ele>
        <time>2010-01-01T01:12:40Z</time>
      </trkpt>
      <trkpt lat="46.71691" lon="-1.0175">
        <ele>64</ele>
        <time>2010-01-01T01:12:41Z</time>
      </trkpt>
      <trkpt lat="46.71684" lon="-1.01751">
        <ele>64</ele>
        <time>2010-01-01T01:12:42Z</time>
      </trkpt>
      <trkpt lat="46.71674" lon="-1.01745">
        <ele>65</ele>
        <time>2010-01-01T01:12:44Z</time>
      </trkpt>
      <trkpt lat="46.71668" lon="-1.01733">
        <ele>65</ele>
        <time>2010-01-01T01:12:46Z</time>
      </trkpt>
      <trkpt lat="46.71667" lon="-1.0172">
        <ele>65</ele>
        <time>2010-01-01T01:12:47Z</time>
      </trkpt>
      <trkpt lat="46.71669" lon="-1.01708">
        <ele>65</ele>
        <time>2010-01-01T01:12:48Z</time>
      </trkpt>
      <trkpt lat="46.71606" lon="-1.0167">
        <ele>67</ele>
        <time>2010-01-01T01:13:00Z</time>
      </trkpt>
      <trkpt lat="46.71565" lon="-1.01638">
        <ele>68</ele>
        <time>2010-01-01T01:13:08Z</time>
      </trkpt>
      <trkpt lat="46.71508" lon="-1.01503">
        <ele>70</ele>
        <time>2010-01-01T01:13:26Z</time>
      </trkpt>
      <trkpt lat="46.714" lon="-1.01229">
        <ele>71</ele>
        <time>2010-01-01T01:14:02Z</time>
      </trkpt>
      <trkpt lat="46.71349" lon="-1.01075">
        <ele>72</ele>
        <time>2010-01-01T01:14:21Z</time>
      </trkpt>
      <trkpt lat="46.71318" lon="-1.01002">
        <ele>73</ele>
        <time>2010-01-01T01:14:31Z</time>
      </trkpt>
      <trkpt lat="46.71279" lon="-1.00924">
        <ele>72</ele>
        <time>2010-01-01T01:14:42Z</time>
      </trkpt>
      <trkpt lat="46.71249" lon="-1.00887">
        <ele>71</ele>
        <time>2010-01-01T01:14:49Z</time>
      </trkpt>
      <trkpt lat="46.71171" lon="-1.00835">
        <ele>71</ele>
        <time>2010-01-01T01:15:03Z</time>
      </trkpt>
      <trkpt lat="46.70971" lon="-1.00703">
        <ele>72</ele>
        <time>2010-01-01T01:15:40Z</time>
      </trkpt>
      <trkpt lat="46.70947" lon="-1.00679">
        <ele>72</ele>
        <time>2010-01-01T01:15:45Z</time>
      </trkpt>
      <trkpt lat="46.70931" lon="-1.00624">
        <ele>72</ele>
        <time>2010-01-01T01:15:51Z</time>
      </trkpt>
      <trkpt lat="46.70902" lon="-1.00483">
        <ele>71</ele>
        <time>2010-01-01T01:16:08Z</time>
      </trkpt>
      <trkpt lat="46.70864" lon="-1.00338">
        <ele>70</ele>
        <time>2010-01-01T01:16:26Z</time>
      </trkpt>
      <trkpt lat="46.7083" lon="-1.00057">
        <ele>68</ele>
        <time>2010-01-01T01:16:59Z</time>
      </trkpt>
      <trkpt lat="46.70793" lon="-0.99877">
        <ele>66</ele>
        <time>2010-01-01T01:17:20Z</time>
      </trkpt>
      <trkpt lat="46.70771" lon="-0.99658">
        <ele>65</ele>
        <time>2010-01-01T01:17:45Z</time>
      </trkpt>
      <trkpt lat="46.70778" lon="-0.99537">
        <ele>70</ele>
        <time>2010-01-01T01:17:59Z</time>
      </trkpt>
      <trkpt lat="46.70771" lon="-0.9947">
        <ele>72</ele>
        <time>2010-01-01T01:18:07Z</time>
      </trkpt>
      <trkpt lat="46.70752" lon="-0.99412">
        <ele>73</ele>
        <time>2010-01-01T01:18:14Z</time>
      </trkpt>
      <trkpt lat="46.70652" lon="-0.99241">
        <ele>76</ele>
        <time>2010-01-01T01:18:40Z</time>
      </trkpt>
      <trkpt lat="46.70627" lon="-0.99187">
        <ele>75</ele>
        <time>2010-01-01T01:18:48Z</time>
      </trkpt>
      <trkpt lat="46.70618" lon="-0.99133">
        <ele>76</ele>
        <time>2010-01-01T01:18:54Z</time>
      </trkpt>
      <trkpt lat="46.70618" lon="-0.99062">
        <ele>77</ele>
        <time>2010-01-01T01:19:02Z</time>
      </trkpt>
      <trkpt lat="46.70635" lon="-0.98826">
        <ele>83</ele>
        <time>2010-01-01T01:19:29Z</time>
      </trkpt>
      <trkpt lat="46.70636" lon="-0.988">
        <ele>84</ele>
        <time>2010-01-01T01:19:32Z</time>
      </trkpt>
      <trkpt lat="46.70636" lon="-0.98801">
        <ele>84</ele>
        <time>2010-01-01T01:19:32Z</time>
      </trkpt>
      <trkpt lat="46.70637" lon="-0.98767">
        <ele>86</ele>
        <time>2010-01-01T01:19:36Z</time>
      </trkpt>
      <trkpt lat="46.70634" lon="-0.98742">
        <ele>87</ele>
        <time>2010-01-01T01:19:39Z</time>
      </trkpt>
      <trkpt lat="46.7063" lon="-0.98725">
        <ele>87</ele>
        <time>2010-01-01T01:19:41Z</time>
      </trkpt>
      <trkpt lat="46.70587" lon="-0.98738">
        <ele>86</ele>
        <time>2010-01-01T01:19:49Z</time>
      </trkpt>
      <trkpt lat="46.70539" lon="-0.98741">
        <ele>83</ele>
        <time>2010-01-01T01:19:57Z</time>
      </trkpt>
      <trkpt lat="46.70505" lon="-0.98767">
        <ele>80</ele>
        <time>2010-01-01T01:20:03Z</time>
      </trkpt>
      <trkpt lat="46.70454" lon="-0.98827">
        <ele>79</ele>
        <time>2010-01-01T01:20:14Z</time>
      </trkpt>
      <trkpt lat="46.70436" lon="-0.98845">
        <ele>78</ele>
        <time>2010-01-01T01:20:17Z</time>
      </trkpt>
      <trkpt lat="46.70415" lon="-0.98861">
        <ele>78</ele>
        <time>2010-01-01T01:20:21Z</time>
      </trkpt>
      <trkpt lat="46.70383" lon="-0.98873">
        <ele>77</ele>
        <time>2010-01-01T01:20:27Z</time>
      </trkpt>
      <trkpt lat="46.7035" lon="-0.98888">
        <ele>77</ele>
        <time>2010-01-01T01:20:33Z</time>
      </trkpt>
      <trkpt lat="46.70334" lon="-0.98901">
        <ele>77</ele>
        <time>2010-01-01T01:20:36Z</time>
      </trkpt>
      <trkpt lat="46.7032" lon="-0.98915">
        <ele>77</ele>
        <time>2010-01-01T01:20:39Z</time>
      </trkpt>
      <trkpt lat="46.70306" lon="-0.98938">
        <ele>76</ele>
        <time>2010-01-01T01:20:42Z</time>
      </trkpt>
      <trkpt lat="46.70296" lon="-0.98968">
        <ele>76</ele>
        <time>2010-01-01T01:20:46Z</time>
      </trkpt>
      <trkpt lat="46.70287" lon="-0.99013">
        <ele>76</ele>
        <time>2010-01-01T01:20:51Z</time>
      </trkpt>
      <trkpt lat="46.70276" lon="-0.99045">
        <ele>76</ele>
        <time>2010-01-01T01:20:55Z</time>
      </trkpt>
      <trkpt lat="46.70263" lon="-0.99067">
        <ele>77</ele>
        <time>2010-01-01T01:20:59Z</time>
      </trkpt>
      <trkpt lat="46.70247" lon="-0.99087">
        <ele>77</ele>
        <time>2010-01-01T01:21:02Z</time>
      </trkpt>
      <trkpt lat="46.70222" lon="-0.99114">
        <ele>76</ele>
        <time>2010-01-01T01:21:07Z</time>
      </trkpt>
      <trkpt lat="46.70199" lon="-0.99134">
        <ele>75</ele>
        <time>2010-01-01T01:21:12Z</time>
      </trkpt>
      <trkpt lat="46.70175" lon="-0.99146">
        <ele>75</ele>
        <time>2010-01-01T01:21:16Z</time>
      </trkpt>
      <trkpt lat="46.70116" lon="-0.99166">
        <ele>74</ele>
        <time>2010-01-01T01:21:26Z</time>
      </trkpt>
      <trkpt lat="46.70098" lon="-0.99178">
        <ele>73</ele>
        <time>2010-01-01T01:21:30Z</time>
      </trkpt>
      <trkpt lat="46.70089" lon="-0.99185">
        <ele>73</ele>
        <time>2010-01-01T01:21:31Z</time>
      </trkpt>
      <trkpt lat="46.69965" lon="-0.99306">
        <ele>77</ele>
        <time>2010-01-01T01:21:56Z</time>
      </trkpt>
      <trkpt lat="46.69935" lon="-0.99332">
        <ele>78</ele>
        <time>2010-01-01T01:22:02Z</time>
      </trkpt>
      <trkpt lat="46.69906" lon="-0.99344">
        <ele>79</ele>
        <time>2010-01-01T01:22:07Z</time>
      </trkpt>
      <trkpt lat="46.69803" lon="-0.99375">
        <ele>78</ele>
        <time>2010-01-01T01:22:25Z</time>
      </trkpt>
      <trkpt lat="46.69752" lon="-0.99397">
        <ele>77</ele>
        <time>2010-01-01T01:22:33Z</time>
      </trkpt>
      <trkpt lat="46.69691" lon="-0.99433">
        <ele>77</ele>
        <time>2010-01-01T01:22:44Z</time>
      </trkpt>
      <trkpt lat="46.6962" lon="-0.99469">
        <ele>77</ele>
        <time>2010-01-01T01:22:57Z</time>
      </trkpt>
      <trkpt lat="46.69585" lon="-0.99474">
        <ele>78</ele>
        <time>2010-01-01T01:23:03Z</time>
      </trkpt>
      <trkpt lat="46.69547" lon="-0.99468">
        <ele>79</ele>
        <time>2010-01-01T01:23:09Z</time>
      </trkpt>
      <trkpt lat="46.69489" lon="-0.99448">
        <ele>80</ele>
        <time>2010-01-01T01:23:19Z</time>
      </trkpt>
      <trkpt lat="46.69455" lon="-0.99434">
        <ele>80</ele>
        <time>2010-01-01T01:23:25Z</time>
      </trkpt>
      <trkpt lat="46.69415" lon="-0.99424">
        <ele>80</ele>
        <time>2010-01-01T01:23:32Z</time>
      </trkpt>
      <trkpt lat="46.69302" lon="-0.9942">
        <ele>81</ele>
        <time>2010-01-01T01:23:51Z</time>
      </trkpt>
      <trkpt lat="46.6924" lon="-0.9941">
        <ele>79</ele>
        <time>2010-01-01T01:24:01Z</time>
      </trkpt>
      <trkpt lat="46.69201" lon="-0.99398">
        <ele>77</ele>
        <time>2010-01-01T01:24:08Z</time>
      </trkpt>
      <trkpt lat="46.69109" lon="-0.99354">
        <ele>76</ele>
        <time>2010-01-01T01:24:24Z</time>
      </trkpt>
      <trkpt lat="46.69086" lon="-0.99346">
        <ele>76</ele>
        <time>2010-01-01T01:24:28Z</time>
      </trkpt>
      <trkpt lat="46.69065" lon="-0.99347">
        <ele>75</ele>
        <time>2010-01-01T01:24:31Z</time>
      </trkpt>
      <trkpt lat="46.69038" lon="-0.99359">
        <ele>74</ele>
        <time>2010-01-01T01:24:36Z</time>
      </trkpt>
      <trkpt lat="46.68865" lon="-0.99447">
        <ele>70</ele>
        <time>2010-01-01T01:25:07Z</time>
      </trkpt>
      <trkpt lat="46.68839" lon="-0.99472">
        <ele>70</ele>
        <time>2010-01-01T01:25:12Z</time>
      </trkpt>
      <trkpt lat="46.68827" lon="-0.99491">
        <ele>70</ele>
        <time>2010-01-01T01:25:15Z</time>
      </trkpt>
      <trkpt lat="46.68803" lon="-0.99544">
        <ele>66</ele>
        <time>2010-01-01T01:25:22Z</time>
      </trkpt>
      <trkpt lat="46.68773" lon="-0.99589">
        <ele>63</ele>
        <time>2010-01-01T01:25:29Z</time>
      </trkpt>
      <trkpt lat="46.68761" lon="-0.99598">
        <ele>62</ele>
        <time>2010-01-01T01:25:31Z</time>
      </trkpt>
      <trkpt lat="46.68745" lon="-0.99602">
        <ele>60</ele>
        <time>2010-01-01T01:25:34Z</time>
      </trkpt>
      <trkpt lat="46.68731" lon="-0.99602">
        <ele>59</ele>
        <time>2010-01-01T01:25:36Z</time>
      </trkpt>
      <trkpt lat="46.6872" lon="-0.99597">
        <ele>58</ele>
        <time>2010-01-01T01:25:38Z</time>
      </trkpt>
      <trkpt lat="46.68692" lon="-0.99566">
        <ele>56</ele>
        <time>2010-01-01T01:25:44Z</time>
      </trkpt>
      <trkpt lat="46.68685" lon="-0.99563">
        <ele>55</ele>
        <time>2010-01-01T01:25:45Z</time>
      </trkpt>
      <trkpt lat="46.68678" lon="-0.99564">
        <ele>54</ele>
        <time>2010-01-01T01:25:47Z</time>
      </trkpt>
      <trkpt lat="46.68672" lon="-0.99568">
        <ele>53</ele>
        <time>2010-01-01T01:25:48Z</time>
      </trkpt>
      <trkpt lat="46.68655" lon="-0.99592">
        <ele>51</ele>
        <time>2010-01-01T01:25:52Z</time>
      </trkpt>
      <trkpt lat="46.68646" lon="-0.99601">
        <ele>50</ele>
        <time>2010-01-01T01:25:53Z</time>
      </trkpt>
      <trkpt lat="46.68612" lon="-0.99611">
        <ele>48</ele>
        <time>2010-01-01T01:25:59Z</time>
      </trkpt>
      <trkpt lat="46.68599" lon="-0.9962">
        <ele>47</ele>
        <time>2010-01-01T01:26:02Z</time>
      </trkpt>
      <trkpt lat="46.68588" lon="-0.99641">
        <ele>46</ele>
        <time>2010-01-01T01:26:05Z</time>
      </trkpt>
      <trkpt lat="46.68541" lon="-0.99745">
        <ele>44</ele>
        <time>2010-01-01T01:26:19Z</time>
      </trkpt>
      <trkpt lat="46.68504" lon="-0.9982">
        <ele>42</ele>
        <time>2010-01-01T01:26:29Z</time>
      </trkpt>
      <trkpt lat="46.68471" lon="-0.99879">
        <ele>44</ele>
        <time>2010-01-01T01:26:38Z</time>
      </trkpt>
      <trkpt lat="46.684" lon="-0.99982">
        <ele>51</ele>
        <time>2010-01-01T01:26:55Z</time>
      </trkpt>
      <trkpt lat="46.68387" lon="-1.00018">
        <ele>55</ele>
        <time>2010-01-01T01:27:00Z</time>
      </trkpt>
      <trkpt lat="46.68377" lon="-1.00055">
        <ele>57</ele>
        <time>2010-01-01T01:27:04Z</time>
      </trkpt>
      <trkpt lat="46.68371" lon="-1.00062">
        <ele>58</ele>
        <time>2010-01-01T01:27:05Z</time>
      </trkpt>
      <trkpt lat="46.68354" lon="-1.00045">
        <ele>59</ele>
        <time>2010-01-01T01:27:09Z</time>
      </trkpt>
      <trkpt lat="46.68327" lon="-1.00026">
        <ele>60</ele>
        <time>2010-01-01T01:27:14Z</time>
      </trkpt>
      <trkpt lat="46.68267" lon="-0.99966">
        <ele>59</ele>
        <time>2010-01-01T01:27:26Z</time>
      </trkpt>
      <trkpt lat="46.68239" lon="-0.99957">
        <ele>60</ele>
        <time>2010-01-01T01:27:31Z</time>
      </trkpt>
      <trkpt lat="46.68218" lon="-0.99946">
        <ele>61</ele>
        <time>2010-01-01T01:27:34Z</time>
      </trkpt>
      <trkpt lat="46.68204" lon="-0.99934">
        <ele>61</ele>
        <time>2010-01-01T01:27:37Z</time>
      </trkpt>
      <trkpt lat="46.6819" lon="-0.99917">
        <ele>61</ele>
        <time>2010-01-01T01:27:40Z</time>
      </trkpt>
      <trkpt lat="46.68149" lon="-0.99784">
        <ele>56</ele>
        <time>2010-01-01T01:27:57Z</time>
      </trkpt>
      <trkpt lat="46.68142" lon="-0.99784">
        <ele>57</ele>
        <time>2010-01-01T01:27:58Z</time>
      </trkpt>
      <trkpt lat="46.68139" lon="-0.99786">
        <ele>57</ele>
        <time>2010-01-01T01:27:59Z</time>
      </trkpt>
      <trkpt lat="46.68125" lon="-0.99747">
        <ele>56</ele>
        <time>2010-01-01T01:28:04Z</time>
      </trkpt>
      <trkpt lat="46.68114" lon="-0.99724">
        <ele>55</ele>
        <time>2010-01-01T01:28:07Z</time>
      </trkpt>
      <trkpt lat="46.68074" lon="-0.9965">
        <ele>51</ele>
        <time>2010-01-01T01:28:18Z</time>
      </trkpt>
      <trkpt lat="46.68032" lon="-0.99588">
        <ele>48</ele>
        <time>2010-01-01T01:28:28Z</time>
      </trkpt>
      <trkpt lat="46.67946" lon="-0.99472">
        <ele>48</ele>
        <time>2010-01-01T01:28:47Z</time>
      </trkpt>
      <trkpt lat="46.67905" lon="-0.99411">
        <ele>47</ele>
        <time>2010-01-01T01:28:57Z</time>
      </trkpt>
      <trkpt lat="46.67886" lon="-0.99376">
        <ele>48</ele>
        <time>2010-01-01T01:29:02Z</time>
      </trkpt>
      <trkpt lat="46.67846" lon="-0.99291">
        <ele>47</ele>
        <time>2010-01-01T01:29:14Z</time>
      </trkpt>
      <trkpt lat="46.67809" lon="-0.99201">
        <ele>45</ele>
        <time>2010-01-01T01:29:26Z</time>
      </trkpt>
      <trkpt lat="46.67791" lon="-0.99151">
        <ele>44</ele>
        <time>2010-01-01T01:29:32Z</time>
      </trkpt>
      <trkpt lat="46.67764" lon="-0.99066">
        <ele>42</ele>
        <time>2010-01-01T01:29:43Z</time>
      </trkpt>
      <trkpt lat="46.6776" lon="-0.99071">
        <ele>42</ele>
        <time>2010-01-01T01:29:44Z</time>
      </trkpt>
      <trkpt lat="46.67747" lon="-0.99113">
        <ele>44</ele>
        <time>2010-01-01T01:29:49Z</time>
      </trkpt>
      <trkpt lat="46.67736" lon="-0.99171">
        <ele>47</ele>
        <time>2010-01-01T01:29:56Z</time>
      </trkpt>
      <trkpt lat="46.6773" lon="-0.99187">
        <ele>48</ele>
        <time>2010-01-01T01:29:58Z</time>
      </trkpt>
      <trkpt lat="46.67719" lon="-0.99204">
        <ele>49</ele>
        <time>2010-01-01T01:30:01Z</time>
      </trkpt>
      <trkpt lat="46.67696" lon="-0.9923">
        <ele>51</ele>
        <time>2010-01-01T01:30:06Z</time>
      </trkpt>
      <trkpt lat="46.67678" lon="-0.99256">
        <ele>53</ele>
        <time>2010-01-01T01:30:10Z</time>
      </trkpt>
      <trkpt lat="46.67654" lon="-0.99295">
        <ele>54</ele>
        <time>2010-01-01T01:30:16Z</time>
      </trkpt>
      <trkpt lat="46.6765" lon="-0.99299">
        <ele>54</ele>
        <time>2010-01-01T01:30:17Z</time>
      </trkpt>
      <trkpt lat="46.67649" lon="-0.99299">
        <ele>54</ele>
        <time>2010-01-01T01:30:17Z</time>
      </trkpt>
      <trkpt lat="46.67545" lon="-0.994">
        <ele>54</ele>
        <time>2010-01-01T01:30:38Z</time>
      </trkpt>
      <trkpt lat="46.67524" lon="-0.99415">
        <ele>54</ele>
        <time>2010-01-01T01:30:42Z</time>
      </trkpt>
      <trkpt lat="46.6748" lon="-0.99436">
        <ele>52</ele>
        <time>2010-01-01T01:30:49Z</time>
      </trkpt>
      <trkpt lat="46.67463" lon="-0.99446">
        <ele>52</ele>
        <time>2010-01-01T01:30:52Z</time>
      </trkpt>
      <trkpt lat="46.67319" lon="-0.996">
        <ele>48</ele>
        <time>2010-01-01T01:31:22Z</time>
      </trkpt>
      <trkpt lat="46.67306" lon="-0.99614">
        <ele>49</ele>
        <time>2010-01-01T01:31:25Z</time>
      </trkpt>
      <trkpt lat="46.67292" lon="-0.99636">
        <ele>49</ele>
        <time>2010-01-01T01:31:28Z</time>
      </trkpt>
      <trkpt lat="46.67261" lon="-0.99703">
        <ele>48</ele>
        <time>2010-01-01T01:31:38Z</time>
      </trkpt>
      <trkpt lat="46.67233" lon="-0.99754">
        <ele>48</ele>
        <time>2010-01-01T01:31:45Z</time>
      </trkpt>
      <trkpt lat="46.67127" lon="-0.99908">
        <ele>57</ele>
        <time>2010-01-01T01:32:10Z</time>
      </trkpt>
      <trkpt lat="46.67061" lon="-0.99993">
        <ele>62</ele>
        <time>2010-01-01T01:32:25Z</time>
      </trkpt>
      <trkpt lat="46.67014" lon="-1.00051">
        <ele>62</ele>
        <time>2010-01-01T01:32:35Z</time>
      </trkpt>
      <trkpt lat="46.66971" lon="-1.00098">
        <ele>61</ele>
        <time>2010-01-01T01:32:44Z</time>
      </trkpt>
      <trkpt lat="46.66927" lon="-1.00144">
        <ele>60</ele>
        <time>2010-01-01T01:32:53Z</time>
      </trkpt>
      <trkpt lat="46.66871" lon="-1.00198">
        <ele>58</ele>
        <time>2010-01-01T01:33:04Z</time>
      </trkpt>
      <trkpt lat="46.6676" lon="-1.00317">
        <ele>53</ele>
        <time>2010-01-01T01:33:27Z</time>
      </trkpt>
      <trkpt lat="46.66735" lon="-1.00346">
        <ele>52</ele>
        <time>2010-01-01T01:33:32Z</time>
      </trkpt>
      <trkpt lat="46.66718" lon="-1.00371">
        <ele>51</ele>
        <time>2010-01-01T01:33:36Z</time>
      </trkpt>
      <trkpt lat="46.66712" lon="-1.00383">
        <ele>51</ele>
        <time>2010-01-01T01:33:38Z</time>
      </trkpt>
      <trkpt lat="46.66709" lon="-1.00399">
        <ele>51</ele>
        <time>2010-01-01T01:33:40Z</time>
      </trkpt>
      <trkpt lat="46.66708" lon="-1.00427">
        <ele>51</ele>
        <time>2010-01-01T01:33:43Z</time>
      </trkpt>
      <trkpt lat="46.66712" lon="-1.00464">
        <ele>52</ele>
        <time>2010-01-01T01:33:48Z</time>
      </trkpt>
      <trkpt lat="46.6671" lon="-1.00484">
        <ele>52</ele>
        <time>2010-01-01T01:33:50Z</time>
      </trkpt>
      <trkpt lat="46.66702" lon="-1.00509">
        <ele>52</ele>
        <time>2010-01-01T01:33:53Z</time>
      </trkpt>
      <trkpt lat="46.66695" lon="-1.00524">
        <ele>52</ele>
        <time>2010-01-01T01:33:55Z</time>
      </trkpt>
      <trkpt lat="46.66633" lon="-1.00628">
        <ele>53</ele>
        <time>2010-01-01T01:34:11Z</time>
      </trkpt>
      <trkpt lat="46.66519" lon="-1.00542">
        <ele>49</ele>
        <time>2010-01-01T01:34:32Z</time>
      </trkpt>
      <trkpt lat="46.66486" lon="-1.00513">
        <ele>47</ele>
        <time>2010-01-01T01:34:39Z</time>
      </trkpt>
      <trkpt lat="46.66486" lon="-1.00512">
        <ele>47</ele>
        <time>2010-01-01T01:34:39Z</time>
      </trkpt>
      <trkpt lat="46.6646" lon="-1.00481">
        <ele>45</ele>
        <time>2010-01-01T01:34:44Z</time>
      </trkpt>
      <trkpt lat="46.66432" lon="-1.00439">
        <ele>43</ele>
        <time>2010-01-01T01:34:51Z</time>
      </trkpt>
      <trkpt lat="46.6638" lon="-1.00357">
        <ele>39</ele>
        <time>2010-01-01T01:35:04Z</time>
      </trkpt>
      <trkpt lat="46.66217" lon="-1.00084">
        <ele>39</ele>
        <time>2010-01-01T01:35:45Z</time>
      </trkpt>
      <trkpt lat="46.66208" lon="-1.00065">
        <ele>40</ele>
        <time>2010-01-01T01:35:48Z</time>
      </trkpt>
      <trkpt lat="46.66201" lon="-1.00044">
        <ele>40</ele>
        <time>2010-01-01T01:35:51Z</time>
      </trkpt>
      <trkpt lat="46.66184" lon="-0.99966">
        <ele>41</ele>
        <time>2010-01-01T01:36:00Z</time>
      </trkpt>
      <trkpt lat="46.66176" lon="-0.99942">
        <ele>42</ele>
        <time>2010-01-01T01:36:03Z</time>
      </trkpt>
      <trkpt lat="46.66163" lon="-0.99912">
        <ele>42</ele>
        <time>2010-01-01T01:36:07Z</time>
      </trkpt>
      <trkpt lat="46.66149" lon="-0.99893">
        <ele>43</ele>
        <time>2010-01-01T01:36:10Z</time>
      </trkpt>
      <trkpt lat="46.66103" lon="-0.99845">
        <ele>45</ele>
        <time>2010-01-01T01:36:20Z</time>
      </trkpt>
      <trkpt lat="46.66089" lon="-0.99826">
        <ele>46</ele>
        <time>2010-01-01T01:36:23Z</time>
      </trkpt>
      <trkpt lat="46.66063" lon="-0.99782">
        <ele>48</ele>
        <time>2010-01-01T01:36:30Z</time>
      </trkpt>
      <trkpt lat="46.66049" lon="-0.99748">
        <ele>48</ele>
        <time>2010-01-01T01:36:34Z</time>
      </trkpt>
      <trkpt lat="46.66043" lon="-0.99725">
        <ele>48</ele>
        <time>2010-01-01T01:36:37Z</time>
      </trkpt>
      <trkpt lat="46.66033" lon="-0.99626">
        <ele>49</ele>
        <time>2010-01-01T01:36:48Z</time>
      </trkpt>
      <trkpt lat="46.6602" lon="-0.99542">
        <ele>51</ele>
        <time>2010-01-01T01:36:58Z</time>
      </trkpt>
      <trkpt lat="46.66015" lon="-0.99518">
        <ele>52</ele>
        <time>2010-01-01T01:37:01Z</time>
      </trkpt>
      <trkpt lat="46.66008" lon="-0.99496">
        <ele>54</ele>
        <time>2010-01-01T01:37:04Z</time>
      </trkpt>
      <trkpt lat="46.65995" lon="-0.9947">
        <ele>55</ele>
        <time>2010-01-01T01:37:08Z</time>
      </trkpt>
      <trkpt lat="46.6598" lon="-0.99453">
        <ele>56</ele>
        <time>2010-01-01T01:37:11Z</time>
      </trkpt>
      <trkpt lat="46.65959" lon="-0.99441">
        <ele>58</ele>
        <time>2010-01-01T01:37:15Z</time>
      </trkpt>
      <trkpt lat="46.65936" lon="-0.99434">
        <ele>59</ele>
        <time>2010-01-01T01:37:18Z</time>
      </trkpt>
      <trkpt lat="46.65888" lon="-0.99428">
        <ele>62</ele>
        <time>2010-01-01T01:37:27Z</time>
      </trkpt>
      <trkpt lat="46.65858" lon="-0.99415">
        <ele>64</ele>
        <time>2010-01-01T01:37:32Z</time>
      </trkpt>
      <trkpt lat="46.65828" lon="-0.99396">
        <ele>67</ele>
        <time>2010-01-01T01:37:37Z</time>
      </trkpt>
      <trkpt lat="46.65739" lon="-0.99342">
        <ele>76</ele>
        <time>2010-01-01T01:37:53Z</time>
      </trkpt>
      <trkpt lat="46.65731" lon="-0.99335">
        <ele>77</ele>
        <time>2010-01-01T01:37:55Z</time>
      </trkpt>
      <trkpt lat="46.65718" lon="-0.99321">
        <ele>78</ele>
        <time>2010-01-01T01:37:58Z</time>
      </trkpt>
      <trkpt lat="46.6571" lon="-0.99305">
        <ele>79</ele>
        <time>2010-01-01T01:38:00Z</time>
      </trkpt>
      <trkpt lat="46.65706" lon="-0.9929">
        <ele>80</ele>
        <time>2010-01-01T01:38:02Z</time>
      </trkpt>
      <trkpt lat="46.65705" lon="-0.99265">
        <ele>81</ele>
        <time>2010-01-01T01:38:04Z</time>
      </trkpt>
      <trkpt lat="46.65708" lon="-0.99238">
        <ele>82</ele>
        <time>2010-01-01T01:38:08Z</time>
      </trkpt>
      <trkpt lat="46.65728" lon="-0.99169">
        <ele>82</ele>
        <time>2010-01-01T01:38:16Z</time>
      </trkpt>
      <trkpt lat="46.65731" lon="-0.99152">
        <ele>81</ele>
        <time>2010-01-01T01:38:18Z</time>
      </trkpt>
      <trkpt lat="46.65729" lon="-0.99135">
        <ele>81</ele>
        <time>2010-01-01T01:38:20Z</time>
      </trkpt>
      <trkpt lat="46.65723" lon="-0.99099">
        <ele>80</ele>
        <time>2010-01-01T01:38:24Z</time>
      </trkpt>
      <trkpt lat="46.65719" lon="-0.99081">
        <ele>80</ele>
        <time>2010-01-01T01:38:27Z</time>
      </trkpt>
      <trkpt lat="46.65714" lon="-0.99072">
        <ele>80</ele>
        <time>2010-01-01T01:38:28Z</time>
      </trkpt>
      <trkpt lat="46.65715" lon="-0.99062">
        <ele>79</ele>
        <time>2010-01-01T01:38:29Z</time>
      </trkpt>
      <trkpt lat="46.65717" lon="-0.98923">
        <ele>72</ele>
        <time>2010-01-01T01:38:45Z</time>
      </trkpt>
      <trkpt lat="46.65701" lon="-0.98734">
        <ele>59</ele>
        <time>2010-01-01T01:39:07Z</time>
      </trkpt>
      <trkpt lat="46.65686" lon="-0.98666">
        <ele>58</ele>
        <time>2010-01-01T01:39:15Z</time>
      </trkpt>
      <trkpt lat="46.65681" lon="-0.98658">
        <ele>58</ele>
        <time>2010-01-01T01:39:16Z</time>
      </trkpt>
      <trkpt lat="46.65681" lon="-0.98646">
        <ele>58</ele>
        <time>2010-01-01T01:39:18Z</time>
      </trkpt>
      <trkpt lat="46.65678" lon="-0.98613">
        <ele>59</ele>
        <time>2010-01-01T01:39:21Z</time>
      </trkpt>
      <trkpt lat="46.6567" lon="-0.98575">
        <ele>60</ele>
        <time>2010-01-01T01:39:26Z</time>
      </trkpt>
      <trkpt lat="46.65652" lon="-0.98516">
        <ele>60</ele>
        <time>2010-01-01T01:39:33Z</time>
      </trkpt>
      <trkpt lat="46.6564" lon="-0.98487">
        <ele>61</ele>
        <time>2010-01-01T01:39:37Z</time>
      </trkpt>
      <trkpt lat="46.65631" lon="-0.9847">
        <ele>61</ele>
        <time>2010-01-01T01:39:40Z</time>
      </trkpt>
      <trkpt lat="46.6561" lon="-0.9844">
        <ele>62</ele>
        <time>2010-01-01T01:39:45Z</time>
      </trkpt>
      <trkpt lat="46.65558" lon="-0.98379">
        <ele>65</ele>
        <time>2010-01-01T01:39:56Z</time>
      </trkpt>
      <trkpt lat="46.65539" lon="-0.98348">
        <ele>67</ele>
        <time>2010-01-01T01:40:00Z</time>
      </trkpt>
      <trkpt lat="46.65528" lon="-0.98319">
        <ele>68</ele>
        <time>2010-01-01T01:40:04Z</time>
      </trkpt>
      <trkpt lat="46.65506" lon="-0.98233">
        <ele>73</ele>
        <time>2010-01-01T01:40:15Z</time>
      </trkpt>
      <trkpt lat="46.65486" lon="-0.98183">
        <ele>76</ele>
        <time>2010-01-01T01:40:21Z</time>
      </trkpt>
      <trkpt lat="46.65466" lon="-0.98152">
        <ele>79</ele>
        <time>2010-01-01T01:40:26Z</time>
      </trkpt>
      <trkpt lat="46.65438" lon="-0.98122">
        <ele>81</ele>
        <time>2010-01-01T01:40:32Z</time>
      </trkpt>
      <trkpt lat="46.65414" lon="-0.98105">
        <ele>82</ele>
        <time>2010-01-01T01:40:37Z</time>
      </trkpt>
      <trkpt lat="46.65257" lon="-0.98011">
        <ele>94</ele>
        <time>2010-01-01T01:41:05Z</time>
      </trkpt>
      <trkpt lat="46.6524" lon="-0.98006">
        <ele>95</ele>
        <time>2010-01-01T01:41:08Z</time>
      </trkpt>
      <trkpt lat="46.65207" lon="-0.98004">
        <ele>95</ele>
        <time>2010-01-01T01:41:13Z</time>
      </trkpt>
      <trkpt lat="46.65117" lon="-0.98002">
        <ele>95</ele>
        <time>2010-01-01T01:41:28Z</time>
      </trkpt>
      <trkpt lat="46.6498" lon="-0.98001">
        <ele>96</ele>
        <time>2010-01-01T01:41:51Z</time>
      </trkpt>
      <trkpt lat="46.64961" lon="-0.97995">
        <ele>96</ele>
        <time>2010-01-01T01:41:54Z</time>
      </trkpt>
      <trkpt lat="46.64948" lon="-0.97986">
        <ele>97</ele>
        <time>2010-01-01T01:41:57Z</time>
      </trkpt>
      <trkpt lat="46.64936" lon="-0.9797">
        <ele>97</ele>
        <time>2010-01-01T01:41:59Z</time>
      </trkpt>
      <trkpt lat="46.64925" lon="-0.97951">
        <ele>98</ele>
        <time>2010-01-01T01:42:02Z</time>
      </trkpt>
      <trkpt lat="46.64892" lon="-0.97876">
        <ele>99</ele>
        <time>2010-01-01T01:42:12Z</time>
      </trkpt>
      <trkpt lat="46.64866" lon="-0.97823">
        <ele>99</ele>
        <time>2010-01-01T01:42:20Z</time>
      </trkpt>
      <trkpt lat="46.64692" lon="-0.97519">
        <ele>101</ele>
        <time>2010-01-01T01:43:05Z</time>
      </trkpt>
      <trkpt lat="46.64665" lon="-0.97474">
        <ele>104</ele>
        <time>2010-01-01T01:43:12Z</time>
      </trkpt>
      <trkpt lat="46.64645" lon="-0.97454">
        <ele>105</ele>
        <time>2010-01-01T01:43:16Z</time>
      </trkpt>
      <trkpt lat="46.64631" lon="-0.97446">
        <ele>106</ele>
        <time>2010-01-01T01:43:19Z</time>
      </trkpt>
      <trkpt lat="46.64618" lon="-0.97442">
        <ele>107</ele>
        <time>2010-01-01T01:43:21Z</time>
      </trkpt>
      <trkpt lat="46.64578" lon="-0.97436">
        <ele>109</ele>
        <time>2010-01-01T01:43:28Z</time>
      </trkpt>
      <trkpt lat="46.64565" lon="-0.97431">
        <ele>110</ele>
        <time>2010-01-01T01:43:30Z</time>
      </trkpt>
      <trkpt lat="46.64548" lon="-0.97418">
        <ele>110</ele>
        <time>2010-01-01T01:43:33Z</time>
      </trkpt>
      <trkpt lat="46.64534" lon="-0.97394">
        <ele>110</ele>
        <time>2010-01-01T01:43:37Z</time>
      </trkpt>
      <trkpt lat="46.64518" lon="-0.97352">
        <ele>109</ele>
        <time>2010-01-01T01:43:42Z</time>
      </trkpt>
      <trkpt lat="46.64502" lon="-0.97289">
        <ele>106</ele>
        <time>2010-01-01T01:43:50Z</time>
      </trkpt>
      <trkpt lat="46.64496" lon="-0.97247">
        <ele>105</ele>
        <time>2010-01-01T01:43:55Z</time>
      </trkpt>
      <trkpt lat="46.64495" lon="-0.97222">
        <ele>104</ele>
        <time>2010-01-01T01:43:58Z</time>
      </trkpt>
      <trkpt lat="46.64497" lon="-0.97197">
        <ele>103</ele>
        <time>2010-01-01T01:44:00Z</time>
      </trkpt>
      <trkpt lat="46.64509" lon="-0.97121">
        <ele>101</ele>
        <time>2010-01-01T01:44:09Z</time>
      </trkpt>
      <trkpt lat="46.64512" lon="-0.9708">
        <ele>100</ele>
        <time>2010-01-01T01:44:14Z</time>
      </trkpt>
      <trkpt lat="46.64511" lon="-0.97055">
        <ele>99</ele>
        <time>2010-01-01T01:44:17Z</time>
      </trkpt>
      <trkpt lat="46.64507" lon="-0.97032">
        <ele>98</ele>
        <time>2010-01-01T01:44:20Z</time>
      </trkpt>
      <trkpt lat="46.64492" lon="-0.96984">
        <ele>96</ele>
        <time>2010-01-01T01:44:26Z</time>
      </trkpt>
      <trkpt lat="46.64442" lon="-0.96863">
        <ele>96</ele>
        <time>2010-01-01T01:44:42Z</time>
      </trkpt>
      <trkpt lat="46.64413" lon="-0.9682">
        <ele>97</ele>
        <time>2010-01-01T01:44:49Z</time>
      </trkpt>
      <trkpt lat="46.6439" lon="-0.96791">
        <ele>98</ele>
        <time>2010-01-01T01:44:54Z</time>
      </trkpt>
      <trkpt lat="46.64369" lon="-0.9676">
        <ele>100</ele>
        <time>2010-01-01T01:44:59Z</time>
      </trkpt>
      <trkpt lat="46.64355" lon="-0.96733">
        <ele>101</ele>
        <time>2010-01-01T01:45:03Z</time>
      </trkpt>
      <trkpt lat="46.64342" lon="-0.96683">
        <ele>103</ele>
        <time>2010-01-01T01:45:09Z</time>
      </trkpt>
      <trkpt lat="46.64337" lon="-0.96643">
        <ele>104</ele>
        <time>2010-01-01T01:45:14Z</time>
      </trkpt>
      <trkpt lat="46.64334" lon="-0.96601">
        <ele>105</ele>
        <time>2010-01-01T01:45:18Z</time>
      </trkpt>
      <trkpt lat="46.64341" lon="-0.9647">
        <ele>100</ele>
        <time>2010-01-01T01:45:33Z</time>
      </trkpt>
      <trkpt lat="46.64339" lon="-0.96433">
        <ele>99</ele>
        <time>2010-01-01T01:45:38Z</time>
      </trkpt>
      <trkpt lat="46.64332" lon="-0.96402">
        <ele>98</ele>
        <time>2010-01-01T01:45:41Z</time>
      </trkpt>
      <trkpt lat="46.64305" lon="-0.96337">
        <ele>101</ele>
        <time>2010-01-01T01:45:50Z</time>
      </trkpt>
      <trkpt lat="46.64231" lon="-0.96229">
        <ele>107</ele>
        <time>2010-01-01T01:46:08Z</time>
      </trkpt>
      <trkpt lat="46.64221" lon="-0.96219">
        <ele>107</ele>
        <time>2010-01-01T01:46:10Z</time>
      </trkpt>
      <trkpt lat="46.64207" lon="-0.9622">
        <ele>108</ele>
        <time>2010-01-01T01:46:12Z</time>
      </trkpt>
      <trkpt lat="46.64163" lon="-0.96214">
        <ele>109</ele>
        <time>2010-01-01T01:46:19Z</time>
      </trkpt>
      <trkpt lat="46.64146" lon="-0.9614">
        <ele>111</ele>
        <time>2010-01-01T01:46:28Z</time>
      </trkpt>
      <trkpt lat="46.64143" lon="-0.96136">
        <ele>111</ele>
        <time>2010-01-01T01:46:29Z</time>
      </trkpt>
      <trkpt lat="46.64131" lon="-0.96054">
        <ele>113</ele>
        <time>2010-01-01T01:46:39Z</time>
      </trkpt>
      <trkpt lat="46.6412" lon="-0.96006">
        <ele>114</ele>
        <time>2010-01-01T01:46:44Z</time>
      </trkpt>
      <trkpt lat="46.64105" lon="-0.95992">
        <ele>115</ele>
        <time>2010-01-01T01:46:47Z</time>
      </trkpt>
      <trkpt lat="46.64089" lon="-0.95968">
        <ele>115</ele>
        <time>2010-01-01T01:46:51Z</time>
      </trkpt>
      <trkpt lat="46.64054" lon="-0.95924">
        <ele>115</ele>
        <time>2010-01-01T01:46:59Z</time>
      </trkpt>
      <trkpt lat="46.64037" lon="-0.95911">
        <ele>116</ele>
        <time>2010-01-01T01:47:02Z</time>
      </trkpt>
      <trkpt lat="46.63988" lon="-0.95893">
        <ele>116</ele>
        <time>2010-01-01T01:47:10Z</time>
      </trkpt>
      <trkpt lat="46.63972" lon="-0.95842">
        <ele>117</ele>
        <time>2010-01-01T01:47:17Z</time>
      </trkpt>
      <trkpt lat="46.63929" lon="-0.95742">
        <ele>112</ele>
        <time>2010-01-01T01:47:30Z</time>
      </trkpt>
      <trkpt lat="46.63918" lon="-0.95709">
        <ele>110</ele>
        <time>2010-01-01T01:47:35Z</time>
      </trkpt>
      <trkpt lat="46.63918" lon="-0.95685">
        <ele>109</ele>
        <time>2010-01-01T01:47:37Z</time>
      </trkpt>
      <trkpt lat="46.63922" lon="-0.9566">
        <ele>108</ele>
        <time>2010-01-01T01:47:40Z</time>
      </trkpt>
      <trkpt lat="46.63948" lon="-0.9561">
        <ele>105</ele>
        <time>2010-01-01T01:47:47Z</time>
      </trkpt>
      <trkpt lat="46.63961" lon="-0.95575">
        <ele>103</ele>
        <time>2010-01-01T01:47:52Z</time>
      </trkpt>
      <trkpt lat="46.63969" lon="-0.95547">
        <ele>103</ele>
        <time>2010-01-01T01:47:56Z</time>
      </trkpt>
      <trkpt lat="46.63977" lon="-0.95506">
        <ele>101</ele>
        <time>2010-01-01T01:48:00Z</time>
      </trkpt>
      <trkpt lat="46.63999" lon="-0.95304">
        <ele>98</ele>
        <time>2010-01-01T01:48:24Z</time>
      </trkpt>
      <trkpt lat="46.64007" lon="-0.95169">
        <ele>104</ele>
        <time>2010-01-01T01:48:39Z</time>
      </trkpt>
      <trkpt lat="46.64003" lon="-0.9511">
        <ele>104</ele>
        <time>2010-01-01T01:48:46Z</time>
      </trkpt>
      <trkpt lat="46.63984" lon="-0.95008">
        <ele>96</ele>
        <time>2010-01-01T01:48:58Z</time>
      </trkpt>
      <trkpt lat="46.63968" lon="-0.94946">
        <ele>93</ele>
        <time>2010-01-01T01:49:06Z</time>
      </trkpt>
      <trkpt lat="46.63946" lon="-0.94899">
        <ele>91</ele>
        <time>2010-01-01T01:49:12Z</time>
      </trkpt>
      <trkpt lat="46.63911" lon="-0.94835">
        <ele>91</ele>
        <time>2010-01-01T01:49:22Z</time>
      </trkpt>
      <trkpt lat="46.63828" lon="-0.94671">
        <ele>97</ele>
        <time>2010-01-01T01:49:45Z</time>
      </trkpt>
      <trkpt lat="46.63775" lon="-0.94574">
        <ele>97</ele>
        <time>2010-01-01T01:49:59Z</time>
      </trkpt>
      <trkpt lat="46.63739" lon="-0.94493">
        <ele>98</ele>
        <time>2010-01-01T01:50:10Z</time>
      </trkpt>
      <trkpt lat="46.63674" lon="-0.94329">
        <ele>96</ele>
        <time>2010-01-01T01:50:32Z</time>
      </trkpt>
      <trkpt lat="46.63641" lon="-0.9419">
        <ele>91</ele>
        <time>2010-01-01T01:50:49Z</time>
      </trkpt>
      <trkpt lat="46.6361" lon="-0.94128">
        <ele>92</ele>
        <time>2010-01-01T01:50:58Z</time>
      </trkpt>
      <trkpt lat="46.63585" lon="-0.9404">
        <ele>95</ele>
        <time>2010-01-01T01:51:08Z</time>
      </trkpt>
      <trkpt lat="46.63486" lon="-0.93948">
        <ele>99</ele>
        <time>2010-01-01T01:51:28Z</time>
      </trkpt>
      <trkpt lat="46.63451" lon="-0.9391">
        <ele>97</ele>
        <time>2010-01-01T01:51:35Z</time>
      </trkpt>
      <trkpt lat="46.63424" lon="-0.93875">
        <ele>95</ele>
        <time>2010-01-01T01:51:41Z</time>
      </trkpt>
      <trkpt lat="46.63401" lon="-0.93834">
        <ele>93</ele>
        <time>2010-01-01T01:51:47Z</time>
      </trkpt>
      <trkpt lat="46.63364" lon="-0.93732">
        <ele>90</ele>
        <time>2010-01-01T01:52:01Z</time>
      </trkpt>
      <trkpt lat="46.63351" lon="-0.93688">
        <ele>88</ele>
        <time>2010-01-01T01:52:06Z</time>
      </trkpt>
      <trkpt lat="46.63347" lon="-0.93643">
        <ele>86</ele>
        <time>2010-01-01T01:52:11Z</time>
      </trkpt>
      <trkpt lat="46.63351" lon="-0.93612">
        <ele>84</ele>
        <time>2010-01-01T01:52:15Z</time>
      </trkpt>
      <trkpt lat="46.63359" lon="-0.93583">
        <ele>83</ele>
        <time>2010-01-01T01:52:19Z</time>
      </trkpt>
      <trkpt lat="46.63369" lon="-0.93558">
        <ele>83</ele>
        <time>2010-01-01T01:52:22Z</time>
      </trkpt>
      <trkpt lat="46.63383" lon="-0.93539">
        <ele>82</ele>
        <time>2010-01-01T01:52:25Z</time>
      </trkpt>
      <trkpt lat="46.6342" lon="-0.93505">
        <ele>79</ele>
        <time>2010-01-01T01:52:32Z</time>
      </trkpt>
      <trkpt lat="46.63435" lon="-0.93485">
        <ele>79</ele>
        <time>2010-01-01T01:52:36Z</time>
      </trkpt>
      <trkpt lat="46.6345" lon="-0.93459">
        <ele>77</ele>
        <time>2010-01-01T01:52:40Z</time>
      </trkpt>
      <trkpt lat="46.63462" lon="-0.93432">
        <ele>75</ele>
        <time>2010-01-01T01:52:43Z</time>
      </trkpt>
      <trkpt lat="46.63479" lon="-0.93372">
        <ele>73</ele>
        <time>2010-01-01T01:52:51Z</time>
      </trkpt>
      <trkpt lat="46.63483" lon="-0.93337">
        <ele>72</ele>
        <time>2010-01-01T01:52:55Z</time>
      </trkpt>
      <trkpt lat="46.63482" lon="-0.93295">
        <ele>73</ele>
        <time>2010-01-01T01:53:00Z</time>
      </trkpt>
      <trkpt lat="46.63477" lon="-0.93257">
        <ele>74</ele>
        <time>2010-01-01T01:53:04Z</time>
      </trkpt>
      <trkpt lat="46.63452" lon="-0.93097">
        <ele>75</ele>
        <time>2010-01-01T01:53:23Z</time>
      </trkpt>
      <trkpt lat="46.63435" lon="-0.93031">
        <ele>77</ele>
        <time>2010-01-01T01:53:31Z</time>
      </trkpt>
      <trkpt lat="46.63407" lon="-0.9297">
        <ele>81</ele>
        <time>2010-01-01T01:53:39Z</time>
      </trkpt>
      <trkpt lat="46.63216" lon="-0.92634">
        <ele>72</ele>
        <time>2010-01-01T01:54:29Z</time>
      </trkpt>
      <trkpt lat="46.63209" lon="-0.92643">
        <ele>73</ele>
        <time>2010-01-01T01:54:31Z</time>
      </trkpt>
      <trkpt lat="46.63208" lon="-0.92643">
        <ele>73</ele>
        <time>2010-01-01T01:54:31Z</time>
      </trkpt>
      <trkpt lat="46.63216" lon="-0.92634">
        <ele>72</ele>
        <time>2010-01-01T01:54:33Z</time>
      </trkpt>
      <trkpt lat="46.63033" lon="-0.92305">
        <ele>69</ele>
        <time>2010-01-01T01:55:21Z</time>
      </trkpt>
      <trkpt lat="46.62871" lon="-0.92002">
        <ele>71</ele>
        <time>2010-01-01T01:56:05Z</time>
      </trkpt>
      <trkpt lat="46.62798" lon="-0.91877">
        <ele>72</ele>
        <time>2010-01-01T01:56:24Z</time>
      </trkpt>
      <trkpt lat="46.62537" lon="-0.91444">
        <ele>84</ele>
        <time>2010-01-01T01:57:30Z</time>
      </trkpt>
      <trkpt lat="46.62508" lon="-0.91403">
        <ele>87</ele>
        <time>2010-01-01T01:57:37Z</time>
      </trkpt>
      <trkpt lat="46.62481" lon="-0.91384">
        <ele>87</ele>
        <time>2010-01-01T01:57:42Z</time>
      </trkpt>
      <trkpt lat="46.62457" lon="-0.91379">
        <ele>88</ele>
        <time>2010-01-01T01:57:46Z</time>
      </trkpt>
      <trkpt lat="46.62428" lon="-0.91379">
        <ele>88</ele>
        <time>2010-01-01T01:57:51Z</time>
      </trkpt>
      <trkpt lat="46.62328" lon="-0.91397">
        <ele>92</ele>
        <time>2010-01-01T01:58:07Z</time>
      </trkpt>
      <trkpt lat="46.62275" lon="-0.91409">
        <ele>92</ele>
        <time>2010-01-01T01:58:16Z</time>
      </trkpt>
      <trkpt lat="46.62212" lon="-0.91434">
        <ele>96</ele>
        <time>2010-01-01T01:58:27Z</time>
      </trkpt>
      <trkpt lat="46.62132" lon="-0.91481">
        <ele>102</ele>
        <time>2010-01-01T01:58:42Z</time>
      </trkpt>
      <trkpt lat="46.62032" lon="-0.91544">
        <ele>106</ele>
        <time>2010-01-01T01:59:00Z</time>
      </trkpt>
      <trkpt lat="46.62009" lon="-0.91562">
        <ele>108</ele>
        <time>2010-01-01T01:59:04Z</time>
      </trkpt>
      <trkpt lat="46.61986" lon="-0.91499">
        <ele>104</ele>
        <time>2010-01-01T01:59:12Z</time>
      </trkpt>
      <trkpt lat="46.61981" lon="-0.91489">
        <ele>103</ele>
        <time>2010-01-01T01:59:14Z</time>
      </trkpt>
      <trkpt lat="46.61936" lon="-0.91415">
        <ele>103</ele>
        <time>2010-01-01T01:59:25Z</time>
      </trkpt>
      <trkpt lat="46.61921" lon="-0.91371">
        <ele>104</ele>
        <time>2010-01-01T01:59:31Z</time>
      </trkpt>
      <trkpt lat="46.61943" lon="-0.91329">
        <ele>102</ele>
        <time>2010-01-01T01:59:37Z</time>
      </trkpt>
      <trkpt lat="46.61958" lon="-0.91309">
        <ele>101</ele>
        <time>2010-01-01T01:59:40Z</time>
      </trkpt>
      <trkpt lat="46.6198" lon="-0.91287">
        <ele>100</ele>
        <time>2010-01-01T01:59:45Z</time>
      </trkpt>
      <trkpt lat="46.61955" lon="-0.91256">
        <ele>100</ele>
        <time>2010-01-01T01:59:50Z</time>
      </trkpt>
      <trkpt lat="46.61929" lon="-0.91236">
        <ele>100</ele>
        <time>2010-01-01T01:59:55Z</time>
      </trkpt>
      <trkpt lat="46.61917" lon="-0.91236">
        <ele>101</ele>
        <time>2010-01-01T01:59:57Z</time>
      </trkpt>
      <trkpt lat="46.61894" lon="-0.91254">
        <ele>101</ele>
        <time>2010-01-01T02:00:01Z</time>
      </trkpt>
      <trkpt lat="46.61886" lon="-0.91231">
        <ele>102</ele>
        <time>2010-01-01T02:00:04Z</time>
      </trkpt>
      <trkpt lat="46.61879" lon="-0.91157">
        <ele>103</ele>
        <time>2010-01-01T02:00:13Z</time>
      </trkpt>
      <trkpt lat="46.61891" lon="-0.91123">
        <ele>103</ele>
        <time>2010-01-01T02:00:17Z</time>
      </trkpt>
      <trkpt lat="46.61891" lon="-0.91124">
        <ele>103</ele>
        <time>2010-01-01T02:00:17Z</time>
      </trkpt>
      <trkpt lat="46.61902" lon="-0.91091">
        <ele>104</ele>
        <time>2010-01-01T02:00:22Z</time>
      </trkpt>
      <trkpt lat="46.61913" lon="-0.91042">
        <ele>104</ele>
        <time>2010-01-01T02:00:27Z</time>
      </trkpt>
      <trkpt lat="46.61918" lon="-0.9101">
        <ele>104</ele>
        <time>2010-01-01T02:00:31Z</time>
      </trkpt>
      <trkpt lat="46.61918" lon="-0.9098">
        <ele>103</ele>
        <time>2010-01-01T02:00:35Z</time>
      </trkpt>
      <trkpt lat="46.61917" lon="-0.90953">
        <ele>103</ele>
        <time>2010-01-01T02:00:38Z</time>
      </trkpt>
      <trkpt lat="46.61906" lon="-0.90915">
        <ele>102</ele>
        <time>2010-01-01T02:00:42Z</time>
      </trkpt>
      <trkpt lat="46.6186" lon="-0.90845">
        <ele>101</ele>
        <time>2010-01-01T02:00:54Z</time>
      </trkpt>
      <trkpt lat="46.61854" lon="-0.90822">
        <ele>100</ele>
        <time>2010-01-01T02:00:56Z</time>
      </trkpt>
      <trkpt lat="46.61855" lon="-0.90798">
        <ele>99</ele>
        <time>2010-01-01T02:00:59Z</time>
      </trkpt>
      <trkpt lat="46.61859" lon="-0.90765">
        <ele>97</ele>
        <time>2010-01-01T02:01:03Z</time>
      </trkpt>
      <trkpt lat="46.61869" lon="-0.90734">
        <ele>95</ele>
        <time>2010-01-01T02:01:07Z</time>
      </trkpt>
      <trkpt lat="46.61891" lon="-0.90691">
        <ele>93</ele>
        <time>2010-01-01T02:01:13Z</time>
      </trkpt>
      <trkpt lat="46.61891" lon="-0.90692">
        <ele>93</ele>
        <time>2010-01-01T02:01:13Z</time>
      </trkpt>
      <trkpt lat="46.61953" lon="-0.90615">
        <ele>89</ele>
        <time>2010-01-01T02:01:27Z</time>
      </trkpt>
      <trkpt lat="46.62074" lon="-0.90509">
        <ele>85</ele>
        <time>2010-01-01T02:01:50Z</time>
      </trkpt>
      <trkpt lat="46.62105" lon="-0.90452">
        <ele>80</ele>
        <time>2010-01-01T02:01:59Z</time>
      </trkpt>
      <trkpt lat="46.62139" lon="-0.90375">
        <ele>77</ele>
        <time>2010-01-01T02:02:09Z</time>
      </trkpt>
      <trkpt lat="46.62143" lon="-0.90351">
        <ele>76</ele>
        <time>2010-01-01T02:02:12Z</time>
      </trkpt>
      <trkpt lat="46.6214" lon="-0.90325">
        <ele>76</ele>
        <time>2010-01-01T02:02:15Z</time>
      </trkpt>
      <trkpt lat="46.62128" lon="-0.90302">
        <ele>76</ele>
        <time>2010-01-01T02:02:18Z</time>
      </trkpt>
      <trkpt lat="46.62102" lon="-0.90265">
        <ele>76</ele>
        <time>2010-01-01T02:02:24Z</time>
      </trkpt>
      <trkpt lat="46.62095" lon="-0.90251">
        <ele>76</ele>
        <time>2010-01-01T02:02:26Z</time>
      </trkpt>
      <trkpt lat="46.62082" lon="-0.90184">
        <ele>77</ele>
        <time>2010-01-01T02:02:34Z</time>
      </trkpt>
      <trkpt lat="46.6208" lon="-0.90165">
        <ele>77</ele>
        <time>2010-01-01T02:02:36Z</time>
      </trkpt>
      <trkpt lat="46.62074" lon="-0.90111">
        <ele>76</ele>
        <time>2010-01-01T02:02:43Z</time>
      </trkpt>
      <trkpt lat="46.62076" lon="-0.90029">
        <ele>75</ele>
        <time>2010-01-01T02:02:52Z</time>
      </trkpt>
      <trkpt lat="46.62109" lon="-0.89767">
        <ele>75</ele>
        <time>2010-01-01T02:03:23Z</time>
      </trkpt>
      <trkpt lat="46.62108" lon="-0.89767">
        <ele>75</ele>
        <time>2010-01-01T02:03:23Z</time>
      </trkpt>
      <trkpt lat="46.6213" lon="-0.89588">
        <ele>73</ele>
        <time>2010-01-01T02:03:44Z</time>
      </trkpt>
      <trkpt lat="46.62137" lon="-0.89514">
        <ele>72</ele>
        <time>2010-01-01T02:03:52Z</time>
      </trkpt>
      <trkpt lat="46.62138" lon="-0.89491">
        <ele>72</ele>
        <time>2010-01-01T02:03:55Z</time>
      </trkpt>
      <trkpt lat="46.62137" lon="-0.89437">
        <ele>72</ele>
        <time>2010-01-01T02:04:01Z</time>
      </trkpt>
      <trkpt lat="46.62129" lon="-0.89324">
        <ele>75</ele>
        <time>2010-01-01T02:04:14Z</time>
      </trkpt>
      <trkpt lat="46.62124" lon="-0.89275">
        <ele>77</ele>
        <time>2010-01-01T02:04:20Z</time>
      </trkpt>
      <trkpt lat="46.62113" lon="-0.89214">
        <ele>77</ele>
        <time>2010-01-01T02:04:27Z</time>
      </trkpt>
      <trkpt lat="46.61989" lon="-0.88701">
        <ele>82</ele>
        <time>2010-01-01T02:05:29Z</time>
      </trkpt>
      <trkpt lat="46.61983" lon="-0.88666">
        <ele>82</ele>
        <time>2010-01-01T02:05:33Z</time>
      </trkpt>
      <trkpt lat="46.61978" lon="-0.8862">
        <ele>81</ele>
        <time>2010-01-01T02:05:39Z</time>
      </trkpt>
      <trkpt lat="46.6198" lon="-0.88563">
        <ele>80</ele>
        <time>2010-01-01T02:05:45Z</time>
      </trkpt>
      <trkpt lat="46.61988" lon="-0.88488">
        <ele>78</ele>
        <time>2010-01-01T02:05:54Z</time>
      </trkpt>
      <trkpt lat="46.62009" lon="-0.88369">
        <ele>74</ele>
        <time>2010-01-01T02:06:08Z</time>
      </trkpt>
      <trkpt lat="46.62009" lon="-0.8837">
        <ele>74</ele>
        <time>2010-01-01T02:06:08Z</time>
      </trkpt>
      <trkpt lat="46.62035" lon="-0.88227">
        <ele>71</ele>
        <time>2010-01-01T02:06:25Z</time>
      </trkpt>
      <trkpt lat="46.62034" lon="-0.88177">
        <ele>72</ele>
        <time>2010-01-01T02:06:31Z</time>
      </trkpt>
      <trkpt lat="46.62016" lon="-0.88069">
        <ele>77</ele>
        <time>2010-01-01T02:06:44Z</time>
      </trkpt>
      <trkpt lat="46.62052" lon="-0.8807">
        <ele>76</ele>
        <time>2010-01-01T02:06:50Z</time>
      </trkpt>
      <trkpt lat="46.62073" lon="-0.88077">
        <ele>75</ele>
        <time>2010-01-01T02:06:53Z</time>
      </trkpt>
      <trkpt lat="46.62089" lon="-0.88091">
        <ele>73</ele>
        <time>2010-01-01T02:06:56Z</time>
      </trkpt>
      <trkpt lat="46.62149" lon="-0.88164">
        <ele>68</ele>
        <time>2010-01-01T02:07:09Z</time>
      </trkpt>
      <trkpt lat="46.62178" lon="-0.88191">
        <ele>69</ele>
        <time>2010-01-01T02:07:15Z</time>
      </trkpt>
      <trkpt lat="46.62225" lon="-0.88217">
        <ele>70</ele>
        <time>2010-01-01T02:07:23Z</time>
      </trkpt>
      <trkpt lat="46.62243" lon="-0.88225">
        <ele>70</ele>
        <time>2010-01-01T02:07:27Z</time>
      </trkpt>
      <trkpt lat="46.62265" lon="-0.8823">
        <ele>70</ele>
        <time>2010-01-01T02:07:30Z</time>
      </trkpt>
      <trkpt lat="46.62279" lon="-0.8823">
        <ele>69</ele>
        <time>2010-01-01T02:07:33Z</time>
      </trkpt>
      <trkpt lat="46.62292" lon="-0.88228">
        <ele>69</ele>
        <time>2010-01-01T02:07:35Z</time>
      </trkpt>
      <trkpt lat="46.623" lon="-0.88223">
        <ele>68</ele>
        <time>2010-01-01T02:07:36Z</time>
      </trkpt>
      <trkpt lat="46.62383" lon="-0.88165">
        <ele>68</ele>
        <time>2010-01-01T02:07:52Z</time>
      </trkpt>
      <trkpt lat="46.62403" lon="-0.88153">
        <ele>69</ele>
        <time>2010-01-01T02:07:55Z</time>
      </trkpt>
      <trkpt lat="46.62438" lon="-0.88137">
        <ele>70</ele>
        <time>2010-01-01T02:08:01Z</time>
      </trkpt>
      <trkpt lat="46.62465" lon="-0.88129">
        <ele>70</ele>
        <time>2010-01-01T02:08:06Z</time>
      </trkpt>
      <trkpt lat="46.62514" lon="-0.8812">
        <ele>71</ele>
        <time>2010-01-01T02:08:14Z</time>
      </trkpt>
      <trkpt lat="46.62548" lon="-0.88118">
        <ele>71</ele>
        <time>2010-01-01T02:08:20Z</time>
      </trkpt>
      <trkpt lat="46.62586" lon="-0.88119">
        <ele>72</ele>
        <time>2010-01-01T02:08:26Z</time>
      </trkpt>
      <trkpt lat="46.62632" lon="-0.88129">
        <ele>75</ele>
        <time>2010-01-01T02:08:34Z</time>
      </trkpt>
      <trkpt lat="46.62724" lon="-0.88141">
        <ele>77</ele>
        <time>2010-01-01T02:08:49Z</time>
      </trkpt>
      <trkpt lat="46.62753" lon="-0.88138">
        <ele>77</ele>
        <time>2010-01-01T02:08:54Z</time>
      </trkpt>
      <trkpt lat="46.6281" lon="-0.88107">
        <ele>77</ele>
        <time>2010-01-01T02:09:04Z</time>
      </trkpt>
      <trkpt lat="46.6284" lon="-0.88094">
        <ele>77</ele>
        <time>2010-01-01T02:09:10Z</time>
      </trkpt>
      <trkpt lat="46.62873" lon="-0.88096">
        <ele>77</ele>
        <time>2010-01-01T02:09:15Z</time>
      </trkpt>
      <trkpt lat="46.629" lon="-0.88111">
        <ele>76</ele>
        <time>2010-01-01T02:09:20Z</time>
      </trkpt>
      <trkpt lat="46.62934" lon="-0.88133">
        <ele>76</ele>
        <time>2010-01-01T02:09:26Z</time>
      </trkpt>
      <trkpt lat="46.6296" lon="-0.88143">
        <ele>76</ele>
        <time>2010-01-01T02:09:31Z</time>
      </trkpt>
      <trkpt lat="46.62991" lon="-0.88131">
        <ele>76</ele>
        <time>2010-01-01T02:09:36Z</time>
      </trkpt>
      <trkpt lat="46.63105" lon="-0.88064">
        <ele>80</ele>
        <time>2010-01-01T02:09:56Z</time>
      </trkpt>
      <trkpt lat="46.63123" lon="-0.88057">
        <ele>80</ele>
        <time>2010-01-01T02:10:00Z</time>
      </trkpt>
      <trkpt lat="46.63146" lon="-0.88061">
        <ele>80</ele>
        <time>2010-01-01T02:10:03Z</time>
      </trkpt>
      <trkpt lat="46.63169" lon="-0.88072">
        <ele>80</ele>
        <time>2010-01-01T02:10:07Z</time>
      </trkpt>
      <trkpt lat="46.63181" lon="-0.88081">
        <ele>81</ele>
        <time>2010-01-01T02:10:10Z</time>
      </trkpt>
      <trkpt lat="46.63254" lon="-0.8815">
        <ele>83</ele>
        <time>2010-01-01T02:10:24Z</time>
      </trkpt>
      <trkpt lat="46.63306" lon="-0.88203">
        <ele>82</ele>
        <time>2010-01-01T02:10:35Z</time>
      </trkpt>
      <trkpt lat="46.63338" lon="-0.88232">
        <ele>81</ele>
        <time>2010-01-01T02:10:41Z</time>
      </trkpt>
      <trkpt lat="46.63371" lon="-0.88257">
        <ele>80</ele>
        <time>2010-01-01T02:10:47Z</time>
      </trkpt>
      <trkpt lat="46.63411" lon="-0.88277">
        <ele>78</ele>
        <time>2010-01-01T02:10:54Z</time>
      </trkpt>
      <trkpt lat="46.63578" lon="-0.88349">
        <ele>81</ele>
        <time>2010-01-01T02:11:23Z</time>
      </trkpt>
      <trkpt lat="46.63608" lon="-0.88365">
        <ele>82</ele>
        <time>2010-01-01T02:11:29Z</time>
      </trkpt>
      <trkpt lat="46.63644" lon="-0.88393">
        <ele>84</ele>
        <time>2010-01-01T02:11:36Z</time>
      </trkpt>
      <trkpt lat="46.6371" lon="-0.88456">
        <ele>86</ele>
        <time>2010-01-01T02:11:49Z</time>
      </trkpt>
      <trkpt lat="46.63738" lon="-0.88475">
        <ele>87</ele>
        <time>2010-01-01T02:11:54Z</time>
      </trkpt>
      <trkpt lat="46.63761" lon="-0.88484">
        <ele>88</ele>
        <time>2010-01-01T02:11:58Z</time>
      </trkpt>
      <trkpt lat="46.63783" lon="-0.88488">
        <ele>88</ele>
        <time>2010-01-01T02:12:02Z</time>
      </trkpt>
      <trkpt lat="46.63854" lon="-0.88486">
        <ele>89</ele>
        <time>2010-01-01T02:12:13Z</time>
      </trkpt>
      <trkpt lat="46.63884" lon="-0.88493">
        <ele>90</ele>
        <time>2010-01-01T02:12:18Z</time>
      </trkpt>
      <trkpt lat="46.63907" lon="-0.88503">
        <ele>91</ele>
        <time>2010-01-01T02:12:22Z</time>
      </trkpt>
      <trkpt lat="46.63928" lon="-0.88516">
        <ele>91</ele>
        <time>2010-01-01T02:12:26Z</time>
      </trkpt>
      <trkpt lat="46.63983" lon="-0.88566">
        <ele>90</ele>
        <time>2010-01-01T02:12:37Z</time>
      </trkpt>
      <trkpt lat="46.64092" lon="-0.88673">
        <ele>91</ele>
        <time>2010-01-01T02:12:59Z</time>
      </trkpt>
      <trkpt lat="46.64197" lon="-0.88774">
        <ele>90</ele>
        <time>2010-01-01T02:13:20Z</time>
      </trkpt>
      <trkpt lat="46.64269" lon="-0.88839">
        <ele>91</ele>
        <time>2010-01-01T02:13:34Z</time>
      </trkpt>
      <trkpt lat="46.6432" lon="-0.88854">
        <ele>91</ele>
        <time>2010-01-01T02:13:43Z</time>
      </trkpt>
      <trkpt lat="46.64428" lon="-0.88873">
        <ele>90</ele>
        <time>2010-01-01T02:14:01Z</time>
      </trkpt>
      <trkpt lat="46.645" lon="-0.88914">
        <ele>91</ele>
        <time>2010-01-01T02:14:14Z</time>
      </trkpt>
      <trkpt lat="46.6457" lon="-0.88986">
        <ele>91</ele>
        <time>2010-01-01T02:14:28Z</time>
      </trkpt>
      <trkpt lat="46.64614" lon="-0.89073">
        <ele>90</ele>
        <time>2010-01-01T02:14:40Z</time>
      </trkpt>
      <trkpt lat="46.64725" lon="-0.89263">
        <ele>85</ele>
        <time>2010-01-01T02:15:09Z</time>
      </trkpt>
      <trkpt lat="46.64757" lon="-0.89294">
        <ele>85</ele>
        <time>2010-01-01T02:15:15Z</time>
      </trkpt>
      <trkpt lat="46.64798" lon="-0.89312">
        <ele>86</ele>
        <time>2010-01-01T02:15:23Z</time>
      </trkpt>
      <trkpt lat="46.64835" lon="-0.89336">
        <ele>86</ele>
        <time>2010-01-01T02:15:29Z</time>
      </trkpt>
      <trkpt lat="46.64974" lon="-0.89487">
        <ele>83</ele>
        <time>2010-01-01T02:15:58Z</time>
      </trkpt>
      <trkpt lat="46.65006" lon="-0.89527">
        <ele>82</ele>
        <time>2010-01-01T02:16:05Z</time>
      </trkpt>
      <trkpt lat="46.65026" lon="-0.89561">
        <ele>81</ele>
        <time>2010-01-01T02:16:10Z</time>
      </trkpt>
      <trkpt lat="46.65119" lon="-0.89743">
        <ele>80</ele>
        <time>2010-01-01T02:16:36Z</time>
      </trkpt>
      <trkpt lat="46.65175" lon="-0.89878">
        <ele>82</ele>
        <time>2010-01-01T02:16:54Z</time>
      </trkpt>
      <trkpt lat="46.65222" lon="-0.90009">
        <ele>82</ele>
        <time>2010-01-01T02:17:11Z</time>
      </trkpt>
      <trkpt lat="46.65323" lon="-0.90345">
        <ele>75</ele>
        <time>2010-01-01T02:17:53Z</time>
      </trkpt>
      <trkpt lat="46.65338" lon="-0.90422">
        <ele>75</ele>
        <time>2010-01-01T02:18:03Z</time>
      </trkpt>
      <trkpt lat="46.65342" lon="-0.90442">
        <ele>75</ele>
        <time>2010-01-01T02:18:05Z</time>
      </trkpt>
      <trkpt lat="46.65366" lon="-0.90611">
        <ele>72</ele>
        <time>2010-01-01T02:18:25Z</time>
      </trkpt>
      <trkpt lat="46.65379" lon="-0.90672">
        <ele>72</ele>
        <time>2010-01-01T02:18:32Z</time>
      </trkpt>
      <trkpt lat="46.65409" lon="-0.90747">
        <ele>72</ele>
        <time>2010-01-01T02:18:42Z</time>
      </trkpt>
      <trkpt lat="46.65448" lon="-0.909">
        <ele>69</ele>
        <time>2010-01-01T02:19:01Z</time>
      </trkpt>
      <trkpt lat="46.65483" lon="-0.91008">
        <ele>67</ele>
        <time>2010-01-01T02:19:14Z</time>
      </trkpt>
      <trkpt lat="46.65491" lon="-0.91027">
        <ele>67</ele>
        <time>2010-01-01T02:19:17Z</time>
      </trkpt>
      <trkpt lat="46.65522" lon="-0.91078">
        <ele>66</ele>
        <time>2010-01-01T02:19:25Z</time>
      </trkpt>
      <trkpt lat="46.65538" lon="-0.91125">
        <ele>68</ele>
        <time>2010-01-01T02:19:31Z</time>
      </trkpt>
      <trkpt lat="46.65547" lon="-0.91175">
        <ele>69</ele>
        <time>2010-01-01T02:19:37Z</time>
      </trkpt>
      <trkpt lat="46.65556" lon="-0.9126">
        <ele>72</ele>
        <time>2010-01-01T02:19:46Z</time>
      </trkpt>
      <trkpt lat="46.65584" lon="-0.91396">
        <ele>77</ele>
        <time>2010-01-01T02:20:03Z</time>
      </trkpt>
      <trkpt lat="46.65589" lon="-0.91408">
        <ele>77</ele>
        <time>2010-01-01T02:20:04Z</time>
      </trkpt>
      <trkpt lat="46.65594" lon="-0.91413">
        <ele>77</ele>
        <time>2010-01-01T02:20:05Z</time>
      </trkpt>
      <trkpt lat="46.65644" lon="-0.91399">
        <ele>75</ele>
        <time>2010-01-01T02:20:14Z</time>
      </trkpt>
      <trkpt lat="46.65658" lon="-0.91401">
        <ele>75</ele>
        <time>2010-01-01T02:20:16Z</time>
      </trkpt>
      <trkpt lat="46.65668" lon="-0.91413">
        <ele>75</ele>
        <time>2010-01-01T02:20:18Z</time>
      </trkpt>
      <trkpt lat="46.65703" lon="-0.91487">
        <ele>74</ele>
        <time>2010-01-01T02:20:29Z</time>
      </trkpt>
      <trkpt lat="46.6571" lon="-0.91521">
        <ele>74</ele>
        <time>2010-01-01T02:20:33Z</time>
      </trkpt>
      <trkpt lat="46.65761" lon="-0.91529">
        <ele>71</ele>
        <time>2010-01-01T02:20:41Z</time>
      </trkpt>
      <trkpt lat="46.65836" lon="-0.91554">
        <ele>70</ele>
        <time>2010-01-01T02:20:54Z</time>
      </trkpt>
      <trkpt lat="46.65846" lon="-0.9157">
        <ele>70</ele>
        <time>2010-01-01T02:20:57Z</time>
      </trkpt>
      <trkpt lat="46.65881" lon="-0.91685">
        <ele>65</ele>
        <time>2010-01-01T02:21:11Z</time>
      </trkpt>
      <trkpt lat="46.65898" lon="-0.91714">
        <ele>64</ele>
        <time>2010-01-01T02:21:15Z</time>
      </trkpt>
      <trkpt lat="46.65905" lon="-0.91721">
        <ele>64</ele>
        <time>2010-01-01T02:21:17Z</time>
      </trkpt>
      <trkpt lat="46.65925" lon="-0.91742">
        <ele>63</ele>
        <time>2010-01-01T02:21:21Z</time>
      </trkpt>
      <trkpt lat="46.65944" lon="-0.91745">
        <ele>63</ele>
        <time>2010-01-01T02:21:24Z</time>
      </trkpt>
      <trkpt lat="46.66021" lon="-0.91702">
        <ele>63</ele>
        <time>2010-01-01T02:21:38Z</time>
      </trkpt>
      <trkpt lat="46.66085" lon="-0.9165">
        <ele>60</ele>
        <time>2010-01-01T02:21:50Z</time>
      </trkpt>
      <trkpt lat="46.66134" lon="-0.91638">
        <ele>58</ele>
        <time>2010-01-01T02:21:58Z</time>
      </trkpt>
      <trkpt lat="46.66155" lon="-0.91635">
        <ele>58</ele>
        <time>2010-01-01T02:22:02Z</time>
      </trkpt>
      <trkpt lat="46.66168" lon="-0.91636">
        <ele>58</ele>
        <time>2010-01-01T02:22:04Z</time>
      </trkpt>
      <trkpt lat="46.6618" lon="-0.9164">
        <ele>58</ele>
        <time>2010-01-01T02:22:06Z</time>
      </trkpt>
      <trkpt lat="46.66209" lon="-0.91658">
        <ele>59</ele>
        <time>2010-01-01T02:22:11Z</time>
      </trkpt>
      <trkpt lat="46.66227" lon="-0.91678">
        <ele>59</ele>
        <time>2010-01-01T02:22:15Z</time>
      </trkpt>
      <trkpt lat="46.66266" lon="-0.91745">
        <ele>61</ele>
        <time>2010-01-01T02:22:25Z</time>
      </trkpt>
      <trkpt lat="46.6628" lon="-0.9176">
        <ele>62</ele>
        <time>2010-01-01T02:22:28Z</time>
      </trkpt>
      <trkpt lat="46.66304" lon="-0.91779">
        <ele>63</ele>
        <time>2010-01-01T02:22:33Z</time>
      </trkpt>
      <trkpt lat="46.66323" lon="-0.91787">
        <ele>64</ele>
        <time>2010-01-01T02:22:36Z</time>
      </trkpt>
      <trkpt lat="46.6634" lon="-0.91788">
        <ele>65</ele>
        <time>2010-01-01T02:22:39Z</time>
      </trkpt>
      <trkpt lat="46.66366" lon="-0.91782">
        <ele>66</ele>
        <time>2010-01-01T02:22:43Z</time>
      </trkpt>
      <trkpt lat="46.66401" lon="-0.91764">
        <ele>68</ele>
        <time>2010-01-01T02:22:49Z</time>
      </trkpt>
      <trkpt lat="46.66484" lon="-0.91709">
        <ele>71</ele>
        <time>2010-01-01T02:23:04Z</time>
      </trkpt>
      <trkpt lat="46.66527" lon="-0.91694">
        <ele>73</ele>
        <time>2010-01-01T02:23:12Z</time>
      </trkpt>
      <trkpt lat="46.66585" lon="-0.91685">
        <ele>75</ele>
        <time>2010-01-01T02:23:22Z</time>
      </trkpt>
      <trkpt lat="46.66768" lon="-0.91733">
        <ele>84</ele>
        <time>2010-01-01T02:23:53Z</time>
      </trkpt>
      <trkpt lat="46.6697" lon="-0.9179">
        <ele>89</ele>
        <time>2010-01-01T02:24:27Z</time>
      </trkpt>
      <trkpt lat="46.67009" lon="-0.91801">
        <ele>89</ele>
        <time>2010-01-01T02:24:34Z</time>
      </trkpt>
      <trkpt lat="46.6705" lon="-0.91807">
        <ele>88</ele>
        <time>2010-01-01T02:24:40Z</time>
      </trkpt>
      <trkpt lat="46.6718" lon="-0.91812">
        <ele>81</ele>
        <time>2010-01-01T02:25:02Z</time>
      </trkpt>
      <trkpt lat="46.67235" lon="-0.91801">
        <ele>78</ele>
        <time>2010-01-01T02:25:11Z</time>
      </trkpt>
      <trkpt lat="46.67273" lon="-0.91774">
        <ele>76</ele>
        <time>2010-01-01T02:25:18Z</time>
      </trkpt>
      <trkpt lat="46.67346" lon="-0.91675">
        <ele>71</ele>
        <time>2010-01-01T02:25:35Z</time>
      </trkpt>
      <trkpt lat="46.6745" lon="-0.9158">
        <ele>71</ele>
        <time>2010-01-01T02:25:56Z</time>
      </trkpt>
      <trkpt lat="46.67526" lon="-0.91529">
        <ele>71</ele>
        <time>2010-01-01T02:26:09Z</time>
      </trkpt>
      <trkpt lat="46.67598" lon="-0.91503">
        <ele>68</ele>
        <time>2010-01-01T02:26:22Z</time>
      </trkpt>
      <trkpt lat="46.67677" lon="-0.91497">
        <ele>70</ele>
        <time>2010-01-01T02:26:35Z</time>
      </trkpt>
      <trkpt lat="46.67714" lon="-0.91502">
        <ele>72</ele>
        <time>2010-01-01T02:26:41Z</time>
      </trkpt>
      <trkpt lat="46.67732" lon="-0.91509">
        <ele>73</ele>
        <time>2010-01-01T02:26:44Z</time>
      </trkpt>
      <trkpt lat="46.67745" lon="-0.91518">
        <ele>74</ele>
        <time>2010-01-01T02:26:47Z</time>
      </trkpt>
      <trkpt lat="46.67768" lon="-0.91538">
        <ele>75</ele>
        <time>2010-01-01T02:26:51Z</time>
      </trkpt>
      <trkpt lat="46.67785" lon="-0.91547">
        <ele>75</ele>
        <time>2010-01-01T02:26:54Z</time>
      </trkpt>
      <trkpt lat="46.67803" lon="-0.9155">
        <ele>75</ele>
        <time>2010-01-01T02:26:57Z</time>
      </trkpt>
      <trkpt lat="46.67815" lon="-0.91558">
        <ele>75</ele>
        <time>2010-01-01T02:26:59Z</time>
      </trkpt>
      <trkpt lat="46.67835" lon="-0.91557">
        <ele>75</ele>
        <time>2010-01-01T02:27:03Z</time>
      </trkpt>
      <trkpt lat="46.67857" lon="-0.91559">
        <ele>75</ele>
        <time>2010-01-01T02:27:06Z</time>
      </trkpt>
      <trkpt lat="46.67873" lon="-0.91565">
        <ele>76</ele>
        <time>2010-01-01T02:27:09Z</time>
      </trkpt>
      <trkpt lat="46.68176" lon="-0.91699">
        <ele>84</ele>
        <time>2010-01-01T02:28:02Z</time>
      </trkpt>
      <trkpt lat="46.68215" lon="-0.91711">
        <ele>86</ele>
        <time>2010-01-01T02:28:09Z</time>
      </trkpt>
      <trkpt lat="46.68424" lon="-0.91735">
        <ele>90</ele>
        <time>2010-01-01T02:28:44Z</time>
      </trkpt>
      <trkpt lat="46.68857" lon="-0.91782">
        <ele>105</ele>
        <time>2010-01-01T02:29:56Z</time>
      </trkpt>
      <trkpt lat="46.69034" lon="-0.91801">
        <ele>100</ele>
        <time>2010-01-01T02:30:26Z</time>
      </trkpt>
      <trkpt lat="46.69073" lon="-0.91807">
        <ele>97</ele>
        <time>2010-01-01T02:30:32Z</time>
      </trkpt>
      <trkpt lat="46.69101" lon="-0.91819">
        <ele>95</ele>
        <time>2010-01-01T02:30:37Z</time>
      </trkpt>
      <trkpt lat="46.69187" lon="-0.9188">
        <ele>89</ele>
        <time>2010-01-01T02:30:53Z</time>
      </trkpt>
      <trkpt lat="46.6924" lon="-0.91903">
        <ele>87</ele>
        <time>2010-01-01T02:31:02Z</time>
      </trkpt>
      <trkpt lat="46.69267" lon="-0.91903">
        <ele>86</ele>
        <time>2010-01-01T02:31:07Z</time>
      </trkpt>
      <trkpt lat="46.69364" lon="-0.91872">
        <ele>81</ele>
        <time>2010-01-01T02:31:23Z</time>
      </trkpt>
      <trkpt lat="46.69383" lon="-0.91871">
        <ele>80</ele>
        <time>2010-01-01T02:31:26Z</time>
      </trkpt>
      <trkpt lat="46.6942" lon="-0.91875">
        <ele>78</ele>
        <time>2010-01-01T02:31:33Z</time>
      </trkpt>
      <trkpt lat="46.6946" lon="-0.9189">
        <ele>76</ele>
        <time>2010-01-01T02:31:40Z</time>
      </trkpt>
      <trkpt lat="46.69602" lon="-0.91987">
        <ele>67</ele>
        <time>2010-01-01T02:32:06Z</time>
      </trkpt>
      <trkpt lat="46.69626" lon="-0.91994">
        <ele>66</ele>
        <time>2010-01-01T02:32:10Z</time>
      </trkpt>
      <trkpt lat="46.69652" lon="-0.91992">
        <ele>65</ele>
        <time>2010-01-01T02:32:14Z</time>
      </trkpt>
      <trkpt lat="46.69684" lon="-0.91981">
        <ele>64</ele>
        <time>2010-01-01T02:32:20Z</time>
      </trkpt>
      <trkpt lat="46.69826" lon="-0.91854">
        <ele>64</ele>
        <time>2010-01-01T02:32:47Z</time>
      </trkpt>
      <trkpt lat="46.69856" lon="-0.91825">
        <ele>65</ele>
        <time>2010-01-01T02:32:53Z</time>
      </trkpt>
      <trkpt lat="46.69871" lon="-0.91805">
        <ele>65</ele>
        <time>2010-01-01T02:32:57Z</time>
      </trkpt>
      <trkpt lat="46.69887" lon="-0.91778">
        <ele>66</ele>
        <time>2010-01-01T02:33:01Z</time>
      </trkpt>
      <trkpt lat="46.69901" lon="-0.91748">
        <ele>66</ele>
        <time>2010-01-01T02:33:05Z</time>
      </trkpt>
      <trkpt lat="46.69911" lon="-0.91714">
        <ele>66</ele>
        <time>2010-01-01T02:33:09Z</time>
      </trkpt>
      <trkpt lat="46.69919" lon="-0.91657">
        <ele>65</ele>
        <time>2010-01-01T02:33:16Z</time>
      </trkpt>
      <trkpt lat="46.69927" lon="-0.9162">
        <ele>65</ele>
        <time>2010-01-01T02:33:20Z</time>
      </trkpt>
      <trkpt lat="46.69937" lon="-0.91598">
        <ele>65</ele>
        <time>2010-01-01T02:33:23Z</time>
      </trkpt>
      <trkpt lat="46.69949" lon="-0.91577">
        <ele>66</ele>
        <time>2010-01-01T02:33:27Z</time>
      </trkpt>
      <trkpt lat="46.69977" lon="-0.91556">
        <ele>68</ele>
        <time>2010-01-01T02:33:32Z</time>
      </trkpt>
      <trkpt lat="46.70102" lon="-0.91541">
        <ele>78</ele>
        <time>2010-01-01T02:33:53Z</time>
      </trkpt>
      <trkpt lat="46.70147" lon="-0.91543">
        <ele>81</ele>
        <time>2010-01-01T02:34:00Z</time>
      </trkpt>
      <trkpt lat="46.70192" lon="-0.91554">
        <ele>83</ele>
        <time>2010-01-01T02:34:08Z</time>
      </trkpt>
      <trkpt lat="46.70232" lon="-0.91574">
        <ele>85</ele>
        <time>2010-01-01T02:34:15Z</time>
      </trkpt>
      <trkpt lat="46.70639" lon="-0.91843">
        <ele>103</ele>
        <time>2010-01-01T02:35:29Z</time>
      </trkpt>
      <trkpt lat="46.70702" lon="-0.91869">
        <ele>100</ele>
        <time>2010-01-01T02:35:40Z</time>
      </trkpt>
      <trkpt lat="46.70761" lon="-0.91882">
        <ele>97</ele>
        <time>2010-01-01T02:35:50Z</time>
      </trkpt>
      <trkpt lat="46.7084" lon="-0.91893">
        <ele>95</ele>
        <time>2010-01-01T02:36:03Z</time>
      </trkpt>
      <trkpt lat="46.7091" lon="-0.91889">
        <ele>97</ele>
        <time>2010-01-01T02:36:15Z</time>
      </trkpt>
      <trkpt lat="46.70949" lon="-0.91882">
        <ele>98</ele>
        <time>2010-01-01T02:36:22Z</time>
      </trkpt>
      <trkpt lat="46.70985" lon="-0.91868">
        <ele>100</ele>
        <time>2010-01-01T02:36:28Z</time>
      </trkpt>
      <trkpt lat="46.71026" lon="-0.91846">
        <ele>103</ele>
        <time>2010-01-01T02:36:35Z</time>
      </trkpt>
      <trkpt lat="46.71025" lon="-0.91846">
        <ele>103</ele>
        <time>2010-01-01T02:36:35Z</time>
      </trkpt>
      <trkpt lat="46.71137" lon="-0.91786">
        <ele>106</ele>
        <time>2010-01-01T02:36:55Z</time>
      </trkpt>
      <trkpt lat="46.71162" lon="-0.91778">
        <ele>106</ele>
        <time>2010-01-01T02:37:00Z</time>
      </trkpt>
      <trkpt lat="46.71205" lon="-0.91772">
        <ele>107</ele>
        <time>2010-01-01T02:37:07Z</time>
      </trkpt>
      <trkpt lat="46.71239" lon="-0.91776">
        <ele>108</ele>
        <time>2010-01-01T02:37:12Z</time>
      </trkpt>
      <trkpt lat="46.71295" lon="-0.91794">
        <ele>108</ele>
        <time>2010-01-01T02:37:22Z</time>
      </trkpt>
      <trkpt lat="46.71608" lon="-0.91923">
        <ele>105</ele>
        <time>2010-01-01T02:38:16Z</time>
      </trkpt>
      <trkpt lat="46.71646" lon="-0.91934">
        <ele>104</ele>
        <time>2010-01-01T02:38:23Z</time>
      </trkpt>
      <trkpt lat="46.71693" lon="-0.9193">
        <ele>104</ele>
        <time>2010-01-01T02:38:31Z</time>
      </trkpt>
      <trkpt lat="46.71703" lon="-0.9192">
        <ele>103</ele>
        <time>2010-01-01T02:38:33Z</time>
      </trkpt>
      <trkpt lat="46.71718" lon="-0.91918">
        <ele>103</ele>
        <time>2010-01-01T02:38:35Z</time>
      </trkpt>
      <trkpt lat="46.71752" lon="-0.91938">
        <ele>102</ele>
        <time>2010-01-01T02:38:41Z</time>
      </trkpt>
      <trkpt lat="46.71768" lon="-0.91961">
        <ele>102</ele>
        <time>2010-01-01T02:38:45Z</time>
      </trkpt>
      <trkpt lat="46.71786" lon="-0.92">
        <ele>103</ele>
        <time>2010-01-01T02:38:50Z</time>
      </trkpt>
      <trkpt lat="46.71823" lon="-0.92063">
        <ele>101</ele>
        <time>2010-01-01T02:39:00Z</time>
      </trkpt>
      <trkpt lat="46.71867" lon="-0.92118">
        <ele>99</ele>
        <time>2010-01-01T02:39:10Z</time>
      </trkpt>
      <trkpt lat="46.71931" lon="-0.92178">
        <ele>96</ele>
        <time>2010-01-01T02:39:22Z</time>
      </trkpt>
      <trkpt lat="46.71968" lon="-0.92206">
        <ele>95</ele>
        <time>2010-01-01T02:39:29Z</time>
      </trkpt>
      <trkpt lat="46.72028" lon="-0.92241">
        <ele>92</ele>
        <time>2010-01-01T02:39:40Z</time>
      </trkpt>
      <trkpt lat="46.72281" lon="-0.92354">
        <ele>78</ele>
        <time>2010-01-01T02:40:24Z</time>
      </trkpt>
      <trkpt lat="46.72313" lon="-0.92384">
        <ele>76</ele>
        <time>2010-01-01T02:40:30Z</time>
      </trkpt>
      <trkpt lat="46.7233" lon="-0.92416">
        <ele>74</ele>
        <time>2010-01-01T02:40:35Z</time>
      </trkpt>
      <trkpt lat="46.72342" lon="-0.92454">
        <ele>73</ele>
        <time>2010-01-01T02:40:40Z</time>
      </trkpt>
      <trkpt lat="46.72368" lon="-0.92549">
        <ele>71</ele>
        <time>2010-01-01T02:40:52Z</time>
      </trkpt>
      <trkpt lat="46.72384" lon="-0.92585">
        <ele>69</ele>
        <time>2010-01-01T02:40:56Z</time>
      </trkpt>
      <trkpt lat="46.72418" lon="-0.92638">
        <ele>69</ele>
        <time>2010-01-01T02:41:05Z</time>
      </trkpt>
      <trkpt lat="46.72458" lon="-0.92678">
        <ele>72</ele>
        <time>2010-01-01T02:41:13Z</time>
      </trkpt>
      <trkpt lat="46.72494" lon="-0.92717">
        <ele>75</ele>
        <time>2010-01-01T02:41:20Z</time>
      </trkpt>
      <trkpt lat="46.72538" lon="-0.92771">
        <ele>79</ele>
        <time>2010-01-01T02:41:30Z</time>
      </trkpt>
      <trkpt lat="46.72578" lon="-0.92835">
        <ele>82</ele>
        <time>2010-01-01T02:41:40Z</time>
      </trkpt>
      <trkpt lat="46.72618" lon="-0.92908">
        <ele>87</ele>
        <time>2010-01-01T02:41:50Z</time>
      </trkpt>
      <trkpt lat="46.72652" lon="-0.92983">
        <ele>90</ele>
        <time>2010-01-01T02:42:01Z</time>
      </trkpt>
      <trkpt lat="46.727" lon="-0.93051">
        <ele>93</ele>
        <time>2010-01-01T02:42:12Z</time>
      </trkpt>
      <trkpt lat="46.72908" lon="-0.93311">
        <ele>102</ele>
        <time>2010-01-01T02:42:58Z</time>
      </trkpt>
      <trkpt lat="46.72979" lon="-0.93406">
        <ele>101</ele>
        <time>2010-01-01T02:43:14Z</time>
      </trkpt>
      <trkpt lat="46.73015" lon="-0.93467">
        <ele>101</ele>
        <time>2010-01-01T02:43:23Z</time>
      </trkpt>
      <trkpt lat="46.73042" lon="-0.93546">
        <ele>102</ele>
        <time>2010-01-01T02:43:33Z</time>
      </trkpt>
      <trkpt lat="46.73068" lon="-0.93628">
        <ele>102</ele>
        <time>2010-01-01T02:43:43Z</time>
      </trkpt>
      <trkpt lat="46.73101" lon="-0.93692">
        <ele>102</ele>
        <time>2010-01-01T02:43:52Z</time>
      </trkpt>
      <trkpt lat="46.73143" lon="-0.93759">
        <ele>103</ele>
        <time>2010-01-01T02:44:03Z</time>
      </trkpt>
      <trkpt lat="46.73187" lon="-0.93819">
        <ele>104</ele>
        <time>2010-01-01T02:44:13Z</time>
      </trkpt>
      <trkpt lat="46.73484" lon="-0.94227">
        <ele>97</ele>
        <time>2010-01-01T02:45:21Z</time>
      </trkpt>
      <trkpt lat="46.73586" lon="-0.94332">
        <ele>97</ele>
        <time>2010-01-01T02:45:42Z</time>
      </trkpt>
      <trkpt lat="46.73628" lon="-0.94359">
        <ele>97</ele>
        <time>2010-01-01T02:45:49Z</time>
      </trkpt>
      <trkpt lat="46.73663" lon="-0.94373">
        <ele>97</ele>
        <time>2010-01-01T02:45:55Z</time>
      </trkpt>
      <trkpt lat="46.73795" lon="-0.94406">
        <ele>102</ele>
        <time>2010-01-01T02:46:18Z</time>
      </trkpt>
      <trkpt lat="46.73846" lon="-0.9443">
        <ele>104</ele>
        <time>2010-01-01T02:46:27Z</time>
      </trkpt>
      <trkpt lat="46.73917" lon="-0.94502">
        <ele>108</ele>
        <time>2010-01-01T02:46:41Z</time>
      </trkpt>
      <trkpt lat="46.7398" lon="-0.94581">
        <ele>108</ele>
        <time>2010-01-01T02:46:55Z</time>
      </trkpt>
      <trkpt lat="46.74" lon="-0.94614">
        <ele>109</ele>
        <time>2010-01-01T02:47:00Z</time>
      </trkpt>
      <trkpt lat="46.74059" lon="-0.94737">
        <ele>107</ele>
        <time>2010-01-01T02:47:17Z</time>
      </trkpt>
      <trkpt lat="46.7408" lon="-0.94774">
        <ele>107</ele>
        <time>2010-01-01T02:47:23Z</time>
      </trkpt>
      <trkpt lat="46.74125" lon="-0.94838">
        <ele>108</ele>
        <time>2010-01-01T02:47:33Z</time>
      </trkpt>
      <trkpt lat="46.74167" lon="-0.94875">
        <ele>107</ele>
        <time>2010-01-01T02:47:41Z</time>
      </trkpt>
      <trkpt lat="46.74194" lon="-0.94885">
        <ele>107</ele>
        <time>2010-01-01T02:47:46Z</time>
      </trkpt>
      <trkpt lat="46.74238" lon="-0.94898">
        <ele>107</ele>
        <time>2010-01-01T02:47:53Z</time>
      </trkpt>
      <trkpt lat="46.74302" lon="-0.94911">
        <ele>104</ele>
        <time>2010-01-01T02:48:04Z</time>
      </trkpt>
      <trkpt lat="46.74391" lon="-0.94918">
        <ele>100</ele>
        <time>2010-01-01T02:48:19Z</time>
      </trkpt>
      <trkpt lat="46.74427" lon="-0.94904">
        <ele>99</ele>
        <time>2010-01-01T02:48:25Z</time>
      </trkpt>
      <trkpt lat="46.74451" lon="-0.94897">
        <ele>99</ele>
        <time>2010-01-01T02:48:29Z</time>
      </trkpt>
      <trkpt lat="46.74464" lon="-0.94912">
        <ele>99</ele>
        <time>2010-01-01T02:48:32Z</time>
      </trkpt>
      <trkpt lat="46.74492" lon="-0.94916">
        <ele>98</ele>
        <time>2010-01-01T02:48:37Z</time>
      </trkpt>
      <trkpt lat="46.74502" lon="-0.94948">
        <ele>96</ele>
        <time>2010-01-01T02:48:41Z</time>
      </trkpt>
      <trkpt lat="46.74512" lon="-0.94972">
        <ele>95</ele>
        <time>2010-01-01T02:48:44Z</time>
      </trkpt>
      <trkpt lat="46.74543" lon="-0.95031">
        <ele>92</ele>
        <time>2010-01-01T02:48:53Z</time>
      </trkpt>
      <trkpt lat="46.74571" lon="-0.95061">
        <ele>90</ele>
        <time>2010-01-01T02:48:58Z</time>
      </trkpt>
      <trkpt lat="46.746" lon="-0.95079">
        <ele>89</ele>
        <time>2010-01-01T02:49:04Z</time>
      </trkpt>
      <trkpt lat="46.74633" lon="-0.95092">
        <ele>87</ele>
        <time>2010-01-01T02:49:09Z</time>
      </trkpt>
      <trkpt lat="46.74656" lon="-0.95099">
        <ele>86</ele>
        <time>2010-01-01T02:49:13Z</time>
      </trkpt>
      <trkpt lat="46.74689" lon="-0.95116">
        <ele>83</ele>
        <time>2010-01-01T02:49:19Z</time>
      </trkpt>
      <trkpt lat="46.74738" lon="-0.95165">
        <ele>78</ele>
        <time>2010-01-01T02:49:29Z</time>
      </trkpt>
      <trkpt lat="46.74761" lon="-0.95176">
        <ele>76</ele>
        <time>2010-01-01T02:49:33Z</time>
      </trkpt>
      <trkpt lat="46.74817" lon="-0.95151">
        <ele>74</ele>
        <time>2010-01-01T02:49:43Z</time>
      </trkpt>
      <trkpt lat="46.74841" lon="-0.95151">
        <ele>73</ele>
        <time>2010-01-01T02:49:47Z</time>
      </trkpt>
      <trkpt lat="46.7487" lon="-0.95157">
        <ele>71</ele>
        <time>2010-01-01T02:49:52Z</time>
      </trkpt>
      <trkpt lat="46.74903" lon="-0.95141">
        <ele>71</ele>
        <time>2010-01-01T02:49:58Z</time>
      </trkpt>
      <trkpt lat="46.74938" lon="-0.95126">
        <ele>71</ele>
        <time>2010-01-01T02:50:04Z</time>
      </trkpt>
      <trkpt lat="46.74973" lon="-0.95136">
        <ele>67</ele>
        <time>2010-01-01T02:50:10Z</time>
      </trkpt>
      <trkpt lat="46.75006" lon="-0.95158">
        <ele>64</ele>
        <time>2010-01-01T02:50:16Z</time>
      </trkpt>
      <trkpt lat="46.75033" lon="-0.95188">
        <ele>66</ele>
        <time>2010-01-01T02:50:21Z</time>
      </trkpt>
      <trkpt lat="46.75049" lon="-0.95217">
        <ele>68</ele>
        <time>2010-01-01T02:50:26Z</time>
      </trkpt>
      <trkpt lat="46.75065" lon="-0.95251">
        <ele>71</ele>
        <time>2010-01-01T02:50:30Z</time>
      </trkpt>
      <trkpt lat="46.75077" lon="-0.95308">
        <ele>75</ele>
        <time>2010-01-01T02:50:37Z</time>
      </trkpt>
      <trkpt lat="46.75089" lon="-0.95375">
        <ele>76</ele>
        <time>2010-01-01T02:50:45Z</time>
      </trkpt>
      <trkpt lat="46.751" lon="-0.95418">
        <ele>77</ele>
        <time>2010-01-01T02:50:50Z</time>
      </trkpt>
      <trkpt lat="46.75117" lon="-0.95463">
        <ele>80</ele>
        <time>2010-01-01T02:50:56Z</time>
      </trkpt>
      <trkpt lat="46.75148" lon="-0.95511">
        <ele>82</ele>
        <time>2010-01-01T02:51:04Z</time>
      </trkpt>
      <trkpt lat="46.75209" lon="-0.95565">
        <ele>85</ele>
        <time>2010-01-01T02:51:16Z</time>
      </trkpt>
      <trkpt lat="46.75242" lon="-0.95597">
        <ele>86</ele>
        <time>2010-01-01T02:51:22Z</time>
      </trkpt>
      <trkpt lat="46.75274" lon="-0.95641">
        <ele>89</ele>
        <time>2010-01-01T02:51:29Z</time>
      </trkpt>
      <trkpt lat="46.753" lon="-0.95693">
        <ele>93</ele>
        <time>2010-01-01T02:51:37Z</time>
      </trkpt>
      <trkpt lat="46.7533" lon="-0.9577">
        <ele>97</ele>
        <time>2010-01-01T02:51:47Z</time>
      </trkpt>
      <trkpt lat="46.75337" lon="-0.95785">
        <ele>97</ele>
        <time>2010-01-01T02:51:49Z</time>
      </trkpt>
      <trkpt lat="46.7534" lon="-0.95782">
        <ele>97</ele>
        <time>2010-01-01T02:51:50Z</time>
      </trkpt>
      <trkpt lat="46.75349" lon="-0.95781">
        <ele>98</ele>
        <time>2010-01-01T02:51:51Z</time>
      </trkpt>
      <trkpt lat="46.75356" lon="-0.95788">
        <ele>98</ele>
        <time>2010-01-01T02:51:53Z</time>
      </trkpt>
      <trkpt lat="46.75359" lon="-0.958">
        <ele>98</ele>
        <time>2010-01-01T02:51:54Z</time>
      </trkpt>
      <trkpt lat="46.75358" lon="-0.95806">
        <ele>98</ele>
        <time>2010-01-01T02:51:55Z</time>
      </trkpt>
      <trkpt lat="46.75353" lon="-0.95816">
        <ele>98</ele>
        <time>2010-01-01T02:51:56Z</time>
      </trkpt>
      <trkpt lat="46.75369" lon="-0.95841">
        <ele>98</ele>
        <time>2010-01-01T02:52:00Z</time>
      </trkpt>
      <trkpt lat="46.75389" lon="-0.95867">
        <ele>99</ele>
        <time>2010-01-01T02:52:04Z</time>
      </trkpt>
      <trkpt lat="46.75412" lon="-0.95891">
        <ele>99</ele>
        <time>2010-01-01T02:52:09Z</time>
      </trkpt>
      <trkpt lat="46.75507" lon="-0.95967">
        <ele>102</ele>
        <time>2010-01-01T02:52:27Z</time>
      </trkpt>
      <trkpt lat="46.75514" lon="-0.95973">
        <ele>102</ele>
        <time>2010-01-01T02:52:29Z</time>
      </trkpt>
      <trkpt lat="46.75523" lon="-0.95986">
        <ele>102</ele>
        <time>2010-01-01T02:52:31Z</time>
      </trkpt>
      <trkpt lat="46.75529" lon="-0.96004">
        <ele>102</ele>
        <time>2010-01-01T02:52:33Z</time>
      </trkpt>
      <trkpt lat="46.75557" lon="-0.96063">
        <ele>103</ele>
        <time>2010-01-01T02:52:41Z</time>
      </trkpt>
      <trkpt lat="46.75585" lon="-0.9614">
        <ele>104</ele>
        <time>2010-01-01T02:52:51Z</time>
      </trkpt>
      <trkpt lat="46.75632" lon="-0.96251">
        <ele>107</ele>
        <time>2010-01-01T02:53:06Z</time>
      </trkpt>
      <trkpt lat="46.75649" lon="-0.963">
        <ele>107</ele>
        <time>2010-01-01T02:53:12Z</time>
      </trkpt>
      <trkpt lat="46.75668" lon="-0.96286">
        <ele>108</ele>
        <time>2010-01-01T02:53:16Z</time>
      </trkpt>
      <trkpt lat="46.75749" lon="-0.96205">
        <ele>109</ele>
        <time>2010-01-01T02:53:32Z</time>
      </trkpt>
      <trkpt lat="46.75765" lon="-0.96191">
        <ele>109</ele>
        <time>2010-01-01T02:53:35Z</time>
      </trkpt>
      <trkpt lat="46.75764" lon="-0.96191">
        <ele>109</ele>
        <time>2010-01-01T02:53:36Z</time>
      </trkpt>
      <trkpt lat="46.75799" lon="-0.96166">
        <ele>111</ele>
        <time>2010-01-01T02:53:42Z</time>
      </trkpt>
      <trkpt lat="46.75852" lon="-0.9614">
        <ele>111</ele>
        <time>2010-01-01T02:53:51Z</time>
      </trkpt>
      <trkpt lat="46.75905" lon="-0.96123">
        <ele>110</ele>
        <time>2010-01-01T02:54:00Z</time>
      </trkpt>
      <trkpt lat="46.75961" lon="-0.96119">
        <ele>108</ele>
        <time>2010-01-01T02:54:10Z</time>
      </trkpt>
      <trkpt lat="46.76011" lon="-0.96086">
        <ele>107</ele>
        <time>2010-01-01T02:54:19Z</time>
      </trkpt>
      <trkpt lat="46.76042" lon="-0.96049">
        <ele>105</ele>
        <time>2010-01-01T02:54:26Z</time>
      </trkpt>
      <trkpt lat="46.76039" lon="-0.96037">
        <ele>105</ele>
        <time>2010-01-01T02:54:27Z</time>
      </trkpt>
      <trkpt lat="46.76041" lon="-0.96024">
        <ele>105</ele>
        <time>2010-01-01T02:54:29Z</time>
      </trkpt>
      <trkpt lat="46.76046" lon="-0.96017">
        <ele>105</ele>
        <time>2010-01-01T02:54:30Z</time>
      </trkpt>
      <trkpt lat="46.76053" lon="-0.96013">
        <ele>105</ele>
        <time>2010-01-01T02:54:31Z</time>
      </trkpt>
      <trkpt lat="46.7606" lon="-0.96014">
        <ele>104</ele>
        <time>2010-01-01T02:54:32Z</time>
      </trkpt>
      <trkpt lat="46.76064" lon="-0.96018">
        <ele>104</ele>
        <time>2010-01-01T02:54:33Z</time>
      </trkpt>
      <trkpt lat="46.76082" lon="-0.95983">
        <ele>104</ele>
        <time>2010-01-01T02:54:38Z</time>
      </trkpt>
      <trkpt lat="46.76093" lon="-0.95966">
        <ele>103</ele>
        <time>2010-01-01T02:54:41Z</time>
      </trkpt>
      <trkpt lat="46.76117" lon="-0.95937">
        <ele>103</ele>
        <time>2010-01-01T02:54:46Z</time>
      </trkpt>
      <trkpt lat="46.76221" lon="-0.95836">
        <ele>107</ele>
        <time>2010-01-01T02:55:07Z</time>
      </trkpt>
      <trkpt lat="46.76429" lon="-0.95903">
        <ele>110</ele>
        <time>2010-01-01T02:55:42Z</time>
      </trkpt>
      <trkpt lat="46.76503" lon="-0.9595">
        <ele>110</ele>
        <time>2010-01-01T02:55:56Z</time>
      </trkpt>
      <trkpt lat="46.76587" lon="-0.96038">
        <ele>110</ele>
        <time>2010-01-01T02:56:13Z</time>
      </trkpt>
      <trkpt lat="46.7661" lon="-0.96049">
        <ele>110</ele>
        <time>2010-01-01T02:56:17Z</time>
      </trkpt>
      <trkpt lat="46.76711" lon="-0.96068">
        <ele>110</ele>
        <time>2010-01-01T02:56:34Z</time>
      </trkpt>
      <trkpt lat="46.76868" lon="-0.96069">
        <ele>107</ele>
        <time>2010-01-01T02:57:00Z</time>
      </trkpt>
      <trkpt lat="46.76906" lon="-0.96078">
        <ele>106</ele>
        <time>2010-01-01T02:57:07Z</time>
      </trkpt>
      <trkpt lat="46.76953" lon="-0.96116">
        <ele>108</ele>
        <time>2010-01-01T02:57:16Z</time>
      </trkpt>
      <trkpt lat="46.77169" lon="-0.96351">
        <ele>122</ele>
        <time>2010-01-01T02:58:00Z</time>
      </trkpt>
      <trkpt lat="46.77214" lon="-0.96386">
        <ele>124</ele>
        <time>2010-01-01T02:58:09Z</time>
      </trkpt>
      <trkpt lat="46.7726" lon="-0.96391">
        <ele>124</ele>
        <time>2010-01-01T02:58:17Z</time>
      </trkpt>
      <trkpt lat="46.77518" lon="-0.96327">
        <ele>130</ele>
        <time>2010-01-01T02:59:00Z</time>
      </trkpt>
      <trkpt lat="46.77558" lon="-0.96337">
        <ele>131</ele>
        <time>2010-01-01T02:59:07Z</time>
      </trkpt>
      <trkpt lat="46.7759" lon="-0.96355">
        <ele>132</ele>
        <time>2010-01-01T02:59:13Z</time>
      </trkpt>
      <trkpt lat="46.77793" lon="-0.96557">
        <ele>130</ele>
        <time>2010-01-01T02:59:54Z</time>
      </trkpt>
      <trkpt lat="46.77879" lon="-0.96606">
        <ele>127</ele>
        <time>2010-01-01T03:00:09Z</time>
      </trkpt>
      <trkpt lat="46.78099" lon="-0.96683">
        <ele>122</ele>
        <time>2010-01-01T03:00:47Z</time>
      </trkpt>
      <trkpt lat="46.78189" lon="-0.96735">
        <ele>121</ele>
        <time>2010-01-01T03:01:03Z</time>
      </trkpt>
      <trkpt lat="46.78204" lon="-0.96743">
        <ele>121</ele>
        <time>2010-01-01T03:01:06Z</time>
      </trkpt>
      <trkpt lat="46.7823" lon="-0.96753">
        <ele>120</ele>
        <time>2010-01-01T03:01:10Z</time>
      </trkpt>
      <trkpt lat="46.7833" lon="-0.96759">
        <ele>120</ele>
        <time>2010-01-01T03:01:27Z</time>
      </trkpt>
      <trkpt lat="46.78612" lon="-0.96948">
        <ele>121</ele>
        <time>2010-01-01T03:02:19Z</time>
      </trkpt>
      <trkpt lat="46.78724" lon="-0.96988">
        <ele>112</ele>
        <time>2010-01-01T03:02:38Z</time>
      </trkpt>
      <trkpt lat="46.78917" lon="-0.97084">
        <ele>107</ele>
        <time>2010-01-01T03:03:12Z</time>
      </trkpt>
      <trkpt lat="46.79044" lon="-0.97179">
        <ele>104</ele>
        <time>2010-01-01T03:03:36Z</time>
      </trkpt>
      <trkpt lat="46.79135" lon="-0.97261">
        <ele>106</ele>
        <time>2010-01-01T03:03:54Z</time>
      </trkpt>
      <trkpt lat="46.79168" lon="-0.97305">
        <ele>108</ele>
        <time>2010-01-01T03:04:01Z</time>
      </trkpt>
      <trkpt lat="46.79172" lon="-0.97295">
        <ele>108</ele>
        <time>2010-01-01T03:04:02Z</time>
      </trkpt>
      <trkpt lat="46.79229" lon="-0.97374">
        <ele>109</ele>
        <time>2010-01-01T03:04:15Z</time>
      </trkpt>
      <trkpt lat="46.79276" lon="-0.97448">
        <ele>110</ele>
        <time>2010-01-01T03:04:27Z</time>
      </trkpt>
      <trkpt lat="46.79299" lon="-0.97495">
        <ele>111</ele>
        <time>2010-01-01T03:04:34Z</time>
      </trkpt>
      <trkpt lat="46.79318" lon="-0.97527">
        <ele>111</ele>
        <time>2010-01-01T03:04:38Z</time>
      </trkpt>
      <trkpt lat="46.79336" lon="-0.97575">
        <ele>113</ele>
        <time>2010-01-01T03:04:45Z</time>
      </trkpt>
      <trkpt lat="46.79351" lon="-0.97628">
        <ele>113</ele>
        <time>2010-01-01T03:04:51Z</time>
      </trkpt>
      <trkpt lat="46.79357" lon="-0.97673">
        <ele>113</ele>
        <time>2010-01-01T03:04:56Z</time>
      </trkpt>
      <trkpt lat="46.79367" lon="-0.97779">
        <ele>113</ele>
        <time>2010-01-01T03:05:09Z</time>
      </trkpt>
      <trkpt lat="46.79374" lon="-0.97823">
        <ele>113</ele>
        <time>2010-01-01T03:05:14Z</time>
      </trkpt>
      <trkpt lat="46.79388" lon="-0.97871">
        <ele>112</ele>
        <time>2010-01-01T03:05:20Z</time>
      </trkpt>
      <trkpt lat="46.79413" lon="-0.9794">
        <ele>111</ele>
        <time>2010-01-01T03:05:29Z</time>
      </trkpt>
      <trkpt lat="46.79454" lon="-0.98009">
        <ele>110</ele>
        <time>2010-01-01T03:05:39Z</time>
      </trkpt>
      <trkpt lat="46.79477" lon="-0.98043">
        <ele>109</ele>
        <time>2010-01-01T03:05:45Z</time>
      </trkpt>
      <trkpt lat="46.795" lon="-0.98071">
        <ele>108</ele>
        <time>2010-01-01T03:05:50Z</time>
      </trkpt>
      <trkpt lat="46.79545" lon="-0.98115">
        <ele>107</ele>
        <time>2010-01-01T03:05:59Z</time>
      </trkpt>
      <trkpt lat="46.79559" lon="-0.98132">
        <ele>106</ele>
        <time>2010-01-01T03:06:02Z</time>
      </trkpt>
      <trkpt lat="46.796" lon="-0.98219">
        <ele>103</ele>
        <time>2010-01-01T03:06:14Z</time>
      </trkpt>
      <trkpt lat="46.79618" lon="-0.98252">
        <ele>102</ele>
        <time>2010-01-01T03:06:18Z</time>
      </trkpt>
      <trkpt lat="46.79659" lon="-0.98318">
        <ele>97</ele>
        <time>2010-01-01T03:06:29Z</time>
      </trkpt>
      <trkpt lat="46.79737" lon="-0.98364">
        <ele>94</ele>
        <time>2010-01-01T03:06:43Z</time>
      </trkpt>
      <trkpt lat="46.79779" lon="-0.98372">
        <ele>94</ele>
        <time>2010-01-01T03:06:50Z</time>
      </trkpt>
      <trkpt lat="46.79836" lon="-0.9835">
        <ele>95</ele>
        <time>2010-01-01T03:07:00Z</time>
      </trkpt>
      <trkpt lat="46.79892" lon="-0.98356">
        <ele>97</ele>
        <time>2010-01-01T03:07:09Z</time>
      </trkpt>
      <trkpt lat="46.79918" lon="-0.98375">
        <ele>99</ele>
        <time>2010-01-01T03:07:14Z</time>
      </trkpt>
      <trkpt lat="46.79951" lon="-0.98418">
        <ele>99</ele>
        <time>2010-01-01T03:07:21Z</time>
      </trkpt>
      <trkpt lat="46.79994" lon="-0.98467">
        <ele>101</ele>
        <time>2010-01-01T03:07:30Z</time>
      </trkpt>
      <trkpt lat="46.80106" lon="-0.98531">
        <ele>106</ele>
        <time>2010-01-01T03:07:50Z</time>
      </trkpt>
      <trkpt lat="46.8017" lon="-0.98564">
        <ele>107</ele>
        <time>2010-01-01T03:08:02Z</time>
      </trkpt>
      <trkpt lat="46.80302" lon="-0.98641">
        <ele>107</ele>
        <time>2010-01-01T03:08:25Z</time>
      </trkpt>
      <trkpt lat="46.80358" lon="-0.98646">
        <ele>106</ele>
        <time>2010-01-01T03:08:35Z</time>
      </trkpt>
      <trkpt lat="46.80414" lon="-0.98633">
        <ele>105</ele>
        <time>2010-01-01T03:08:44Z</time>
      </trkpt>
      <trkpt lat="46.80546" lon="-0.98596">
        <ele>108</ele>
        <time>2010-01-01T03:09:07Z</time>
      </trkpt>
      <trkpt lat="46.80891" lon="-0.98491">
        <ele>111</ele>
        <time>2010-01-01T03:10:05Z</time>
      </trkpt>
      <trkpt lat="46.80933" lon="-0.98491">
        <ele>110</ele>
        <time>2010-01-01T03:10:12Z</time>
      </trkpt>
      <trkpt lat="46.80976" lon="-0.985">
        <ele>107</ele>
        <time>2010-01-01T03:10:20Z</time>
      </trkpt>
      <trkpt lat="46.81033" lon="-0.98518">
        <ele>105</ele>
        <time>2010-01-01T03:10:29Z</time>
      </trkpt>
      <trkpt lat="46.81121" lon="-0.98542">
        <ele>100</ele>
        <time>2010-01-01T03:10:44Z</time>
      </trkpt>
      <trkpt lat="46.81213" lon="-0.98578">
        <ele>94</ele>
        <time>2010-01-01T03:11:00Z</time>
      </trkpt>
      <trkpt lat="46.81404" lon="-0.98641">
        <ele>101</ele>
        <time>2010-01-01T03:11:33Z</time>
      </trkpt>
      <trkpt lat="46.81547" lon="-0.98686">
        <ele>108</ele>
        <time>2010-01-01T03:11:57Z</time>
      </trkpt>
      <trkpt lat="46.81728" lon="-0.9875">
        <ele>113</ele>
        <time>2010-01-01T03:12:28Z</time>
      </trkpt>
      <trkpt lat="46.81762" lon="-0.98767">
        <ele>113</ele>
        <time>2010-01-01T03:12:34Z</time>
      </trkpt>
      <trkpt lat="46.81905" lon="-0.98862">
        <ele>107</ele>
        <time>2010-01-01T03:13:00Z</time>
      </trkpt>
      <trkpt lat="46.81974" lon="-0.98906">
        <ele>106</ele>
        <time>2010-01-01T03:13:13Z</time>
      </trkpt>
      <trkpt lat="46.82033" lon="-0.98947">
        <ele>108</ele>
        <time>2010-01-01T03:13:24Z</time>
      </trkpt>
      <trkpt lat="46.82151" lon="-0.99023">
        <ele>113</ele>
        <time>2010-01-01T03:13:45Z</time>
      </trkpt>
      <trkpt lat="46.8217" lon="-0.99039">
        <ele>115</ele>
        <time>2010-01-01T03:13:49Z</time>
      </trkpt>
      <trkpt lat="46.82185" lon="-0.99056">
        <ele>116</ele>
        <time>2010-01-01T03:13:52Z</time>
      </trkpt>
      <trkpt lat="46.82204" lon="-0.99089">
        <ele>117</ele>
        <time>2010-01-01T03:13:57Z</time>
      </trkpt>
      <trkpt lat="46.82246" lon="-0.99286">
        <ele>116</ele>
        <time>2010-01-01T03:14:21Z</time>
      </trkpt>
      <trkpt lat="46.82228" lon="-0.99296">
        <ele>115</ele>
        <time>2010-01-01T03:14:24Z</time>
      </trkpt>
      <trkpt lat="46.82227" lon="-0.99296">
        <ele>115</ele>
        <time>2010-01-01T03:14:24Z</time>
      </trkpt>
      <trkpt lat="46.82246" lon="-0.99286">
        <ele>116</ele>
        <time>2010-01-01T03:14:27Z</time>
      </trkpt>
      <trkpt lat="46.82254" lon="-0.99322">
        <ele>114</ele>
        <time>2010-01-01T03:14:32Z</time>
      </trkpt>
      <trkpt lat="46.8226" lon="-0.99367">
        <ele>113</ele>
        <time>2010-01-01T03:14:37Z</time>
      </trkpt>
      <trkpt lat="46.82259" lon="-0.9945">
        <ele>110</ele>
        <time>2010-01-01T03:14:47Z</time>
      </trkpt>
      <trkpt lat="46.82256" lon="-0.99482">
        <ele>107</ele>
        <time>2010-01-01T03:14:50Z</time>
      </trkpt>
      <trkpt lat="46.82259" lon="-0.9952">
        <ele>105</ele>
        <time>2010-01-01T03:14:55Z</time>
      </trkpt>
      <trkpt lat="46.82277" lon="-0.99562">
        <ele>103</ele>
        <time>2010-01-01T03:15:00Z</time>
      </trkpt>
      <trkpt lat="46.82278" lon="-0.99571">
        <ele>102</ele>
        <time>2010-01-01T03:15:01Z</time>
      </trkpt>
      <trkpt lat="46.82278" lon="-0.99582">
        <ele>101</ele>
        <time>2010-01-01T03:15:03Z</time>
      </trkpt>
      <trkpt lat="46.82262" lon="-0.99624">
        <ele>97</ele>
        <time>2010-01-01T03:15:08Z</time>
      </trkpt>
      <trkpt lat="46.82254" lon="-0.99662">
        <ele>94</ele>
        <time>2010-01-01T03:15:13Z</time>
      </trkpt>
      <trkpt lat="46.82246" lon="-0.99691">
        <ele>93</ele>
        <time>2010-01-01T03:15:16Z</time>
      </trkpt>
      <trkpt lat="46.82235" lon="-0.99715">
        <ele>92</ele>
        <time>2010-01-01T03:15:19Z</time>
      </trkpt>
      <trkpt lat="46.82225" lon="-0.99726">
        <ele>92</ele>
        <time>2010-01-01T03:15:21Z</time>
      </trkpt>
      <trkpt lat="46.82219" lon="-0.99742">
        <ele>91</ele>
        <time>2010-01-01T03:15:24Z</time>
      </trkpt>
      <trkpt lat="46.82222" lon="-0.9976">
        <ele>90</ele>
        <time>2010-01-01T03:15:26Z</time>
      </trkpt>
      <trkpt lat="46.82237" lon="-0.99809">
        <ele>88</ele>
        <time>2010-01-01T03:15:32Z</time>
      </trkpt>
      <trkpt lat="46.82262" lon="-0.9987">
        <ele>89</ele>
        <time>2010-01-01T03:15:40Z</time>
      </trkpt>
      <trkpt lat="46.8226" lon="-0.9987">
        <ele>89</ele>
        <time>2010-01-01T03:15:40Z</time>
      </trkpt>
      <trkpt lat="46.82171" lon="-0.99957">
        <ele>91</ele>
        <time>2010-01-01T03:15:58Z</time>
      </trkpt>
      <trkpt lat="46.82129" lon="-1.00011">
        <ele>92</ele>
        <time>2010-01-01T03:16:07Z</time>
      </trkpt>
      <trkpt lat="46.82108" lon="-1.00061">
        <ele>94</ele>
        <time>2010-01-01T03:16:14Z</time>
      </trkpt>
      <trkpt lat="46.82099" lon="-1.00217">
        <ele>101</ele>
        <time>2010-01-01T03:16:32Z</time>
      </trkpt>
      <trkpt lat="46.82102" lon="-1.00266">
        <ele>103</ele>
        <time>2010-01-01T03:16:38Z</time>
      </trkpt>
      <trkpt lat="46.82116" lon="-1.00348">
        <ele>105</ele>
        <time>2010-01-01T03:16:47Z</time>
      </trkpt>
      <trkpt lat="46.82117" lon="-1.00439">
        <ele>110</ele>
        <time>2010-01-01T03:16:58Z</time>
      </trkpt>
      <trkpt lat="46.8212" lon="-1.00505">
        <ele>113</ele>
        <time>2010-01-01T03:17:05Z</time>
      </trkpt>
      <trkpt lat="46.82133" lon="-1.00584">
        <ele>115</ele>
        <time>2010-01-01T03:17:14Z</time>
      </trkpt>
      <trkpt lat="46.82143" lon="-1.00668">
        <ele>115</ele>
        <time>2010-01-01T03:17:24Z</time>
      </trkpt>
      <trkpt lat="46.82148" lon="-1.00722">
        <ele>117</ele>
        <time>2010-01-01T03:17:30Z</time>
      </trkpt>
      <trkpt lat="46.82143" lon="-1.00773">
        <ele>118</ele>
        <time>2010-01-01T03:17:36Z</time>
      </trkpt>
      <trkpt lat="46.82144" lon="-1.00815">
        <ele>118</ele>
        <time>2010-01-01T03:17:41Z</time>
      </trkpt>
      <trkpt lat="46.82178" lon="-1.00953">
        <ele>120</ele>
        <time>2010-01-01T03:17:58Z</time>
      </trkpt>
      <trkpt lat="46.82222" lon="-1.01077">
        <ele>121</ele>
        <time>2010-01-01T03:18:14Z</time>
      </trkpt>
      <trkpt lat="46.82245" lon="-1.01129">
        <ele>122</ele>
        <time>2010-01-01T03:18:21Z</time>
      </trkpt>
      <trkpt lat="46.82303" lon="-1.0122">
        <ele>122</ele>
        <time>2010-01-01T03:18:35Z</time>
      </trkpt>
      <trkpt lat="46.82319" lon="-1.01238">
        <ele>122</ele>
        <time>2010-01-01T03:18:38Z</time>
      </trkpt>
      <trkpt lat="46.82328" lon="-1.01251">
        <ele>122</ele>
        <time>2010-01-01T03:18:41Z</time>
      </trkpt>
      <trkpt lat="46.82356" lon="-1.01291">
        <ele>121</ele>
        <time>2010-01-01T03:18:47Z</time>
      </trkpt>
      <trkpt lat="46.82368" lon="-1.01313">
        <ele>121</ele>
        <time>2010-01-01T03:18:50Z</time>
      </trkpt>
      <trkpt lat="46.82631" lon="-1.01197">
        <ele>119</ele>
        <time>2010-01-01T03:19:36Z</time>
      </trkpt>
      <trkpt lat="46.82659" lon="-1.0117">
        <ele>118</ele>
        <time>2010-01-01T03:19:42Z</time>
      </trkpt>
      <trkpt lat="46.82738" lon="-1.01078">
        <ele>118</ele>
        <time>2010-01-01T03:19:59Z</time>
      </trkpt>
      <trkpt lat="46.82788" lon="-1.01018">
        <ele>119</ele>
        <time>2010-01-01T03:20:09Z</time>
      </trkpt>
      <trkpt lat="46.82866" lon="-1.0092">
        <ele>121</ele>
        <time>2010-01-01T03:20:26Z</time>
      </trkpt>
      <trkpt lat="46.82895" lon="-1.00871">
        <ele>121</ele>
        <time>2010-01-01T03:20:34Z</time>
      </trkpt>
      <trkpt lat="46.8297" lon="-1.00721">
        <ele>121</ele>
        <time>2010-01-01T03:20:55Z</time>
      </trkpt>
      <trkpt lat="46.83004" lon="-1.00668">
        <ele>121</ele>
        <time>2010-01-01T03:21:03Z</time>
      </trkpt>
      <trkpt lat="46.83025" lon="-1.00644">
        <ele>120</ele>
        <time>2010-01-01T03:21:08Z</time>
      </trkpt>
      <trkpt lat="46.83151" lon="-1.00543">
        <ele>121</ele>
        <time>2010-01-01T03:21:32Z</time>
      </trkpt>
      <trkpt lat="46.8315" lon="-1.00543">
        <ele>121</ele>
        <time>2010-01-01T03:21:32Z</time>
      </trkpt>
      <trkpt lat="46.83175" lon="-1.00527">
        <ele>122</ele>
        <time>2010-01-01T03:21:37Z</time>
      </trkpt>
      <trkpt lat="46.83256" lon="-1.00493">
        <ele>124</ele>
        <time>2010-01-01T03:21:51Z</time>
      </trkpt>
      <trkpt lat="46.83296" lon="-1.00464">
        <ele>126</ele>
        <time>2010-01-01T03:21:58Z</time>
      </trkpt>
      <trkpt lat="46.83304" lon="-1.00453">
        <ele>126</ele>
        <time>2010-01-01T03:22:00Z</time>
      </trkpt>
      <trkpt lat="46.83312" lon="-1.00429">
        <ele>126</ele>
        <time>2010-01-01T03:22:03Z</time>
      </trkpt>
      <trkpt lat="46.83315" lon="-1.00398">
        <ele>126</ele>
        <time>2010-01-01T03:22:06Z</time>
      </trkpt>
      <trkpt lat="46.83313" lon="-1.00375">
        <ele>126</ele>
        <time>2010-01-01T03:22:09Z</time>
      </trkpt>
      <trkpt lat="46.8351" lon="-1.00397">
        <ele>127</ele>
        <time>2010-01-01T03:22:42Z</time>
      </trkpt>
      <trkpt lat="46.83505" lon="-1.00388">
        <ele>127</ele>
        <time>2010-01-01T03:22:43Z</time>
      </trkpt>
      <trkpt lat="46.83516" lon="-1.00386">
        <ele>127</ele>
        <time>2010-01-01T03:22:45Z</time>
      </trkpt>
      <trkpt lat="46.83525" lon="-1.0039">
        <ele>127</ele>
        <time>2010-01-01T03:22:47Z</time>
      </trkpt>
      <trkpt lat="46.8356" lon="-1.0039">
        <ele>128</ele>
        <time>2010-01-01T03:22:53Z</time>
      </trkpt>
      <trkpt lat="46.83598" lon="-1.00395">
        <ele>129</ele>
        <time>2010-01-01T03:22:59Z</time>
      </trkpt>
      <trkpt lat="46.83613" lon="-1.00405">
        <ele>129</ele>
        <time>2010-01-01T03:23:02Z</time>
      </trkpt>
      <trkpt lat="46.83677" lon="-1.00402">
        <ele>130</ele>
        <time>2010-01-01T03:23:12Z</time>
      </trkpt>
      <trkpt lat="46.83857" lon="-1.00416">
        <ele>126</ele>
        <time>2010-01-01T03:23:42Z</time>
      </trkpt>
      <trkpt lat="46.83871" lon="-1.0041">
        <ele>126</ele>
        <time>2010-01-01T03:23:45Z</time>
      </trkpt>
      <trkpt lat="46.83876" lon="-1.00414">
        <ele>126</ele>
        <time>2010-01-01T03:23:46Z</time>
      </trkpt>
      <trkpt lat="46.83876" lon="-1.00437">
        <ele>125</ele>
        <time>2010-01-01T03:23:49Z</time>
      </trkpt>
      <trkpt lat="46.84259" lon="-1.00464">
        <ele>117</ele>
        <time>2010-01-01T03:24:52Z</time>
      </trkpt>
      <trkpt lat="46.84319" lon="-1.00471">
        <ele>116</ele>
        <time>2010-01-01T03:25:02Z</time>
      </trkpt>
      <trkpt lat="46.84422" lon="-1.00477">
        <ele>113</ele>
        <time>2010-01-01T03:25:20Z</time>
      </trkpt>
      <trkpt lat="46.84444" lon="-1.00486">
        <ele>112</ele>
        <time>2010-01-01T03:25:23Z</time>
      </trkpt>
      <trkpt lat="46.84486" lon="-1.00515">
        <ele>111</ele>
        <time>2010-01-01T03:25:31Z</time>
      </trkpt>
      <trkpt lat="46.84488" lon="-1.00495">
        <ele>111</ele>
        <time>2010-01-01T03:25:34Z</time>
      </trkpt>
      <trkpt lat="46.84481" lon="-1.00494">
        <ele>111</ele>
        <time>2010-01-01T03:25:35Z</time>
      </trkpt>
      <trkpt lat="46.84475" lon="-1.00489">
        <ele>112</ele>
        <time>2010-01-01T03:25:36Z</time>
      </trkpt>
      <trkpt lat="46.84471" lon="-1.00482">
        <ele>112</ele>
        <time>2010-01-01T03:25:37Z</time>
      </trkpt>
      <trkpt lat="46.8447" lon="-1.00471">
        <ele>112</ele>
        <time>2010-01-01T03:25:38Z</time>
      </trkpt>
      <trkpt lat="46.84471" lon="-1.00462">
        <ele>112</ele>
        <time>2010-01-01T03:25:39Z</time>
      </trkpt>
      <trkpt lat="46.84475" lon="-1.00453">
        <ele>112</ele>
        <time>2010-01-01T03:25:40Z</time>
      </trkpt>
      <trkpt lat="46.8448" lon="-1.00449">
        <ele>112</ele>
        <time>2010-01-01T03:25:41Z</time>
      </trkpt>
      <trkpt lat="46.84488" lon="-1.00448">
        <ele>111</ele>
        <time>2010-01-01T03:25:43Z</time>
      </trkpt>
      <trkpt lat="46.84493" lon="-1.0045">
        <ele>111</ele>
        <time>2010-01-01T03:25:44Z</time>
      </trkpt>
      <trkpt lat="46.84499" lon="-1.00457">
        <ele>111</ele>
        <time>2010-01-01T03:25:45Z</time>
      </trkpt>
      <trkpt lat="46.84502" lon="-1.00467">
        <ele>111</ele>
        <time>2010-01-01T03:25:46Z</time>
      </trkpt>
      <trkpt lat="46.84502" lon="-1.00473">
        <ele>111</ele>
        <time>2010-01-01T03:25:47Z</time>
      </trkpt>
      <trkpt lat="46.84536" lon="-1.00469">
        <ele>111</ele>
        <time>2010-01-01T03:25:53Z</time>
      </trkpt>
      <trkpt lat="46.84589" lon="-1.00467">
        <ele>111</ele>
        <time>2010-01-01T03:26:01Z</time>
      </trkpt>
      <trkpt lat="46.84645" lon="-1.00451">
        <ele>113</ele>
        <time>2010-01-01T03:26:11Z</time>
      </trkpt>
      <trkpt lat="46.84645" lon="-1.00452">
        <ele>113</ele>
        <time>2010-01-01T03:26:11Z</time>
      </trkpt>
      <trkpt lat="46.84696" lon="-1.00435">
        <ele>114</ele>
        <time>2010-01-01T03:26:20Z</time>
      </trkpt>
      <trkpt lat="46.84769" lon="-1.00402">
        <ele>116</ele>
        <time>2010-01-01T03:26:32Z</time>
      </trkpt>
      <trkpt lat="46.84833" lon="-1.00383">
        <ele>115</ele>
        <time>2010-01-01T03:26:43Z</time>
      </trkpt>
      <trkpt lat="46.84867" lon="-1.00377">
        <ele>115</ele>
        <time>2010-01-01T03:26:49Z</time>
      </trkpt>
      <trkpt lat="46.84906" lon="-1.00376">
        <ele>114</ele>
        <time>2010-01-01T03:26:56Z</time>
      </trkpt>
      <trkpt lat="46.84953" lon="-1.00379">
        <ele>113</ele>
        <time>2010-01-01T03:27:03Z</time>
      </trkpt>
      <trkpt lat="46.84991" lon="-1.00386">
        <ele>113</ele>
        <time>2010-01-01T03:27:10Z</time>
      </trkpt>
      <trkpt lat="46.85028" lon="-1.00398">
        <ele>112</ele>
        <time>2010-01-01T03:27:16Z</time>
      </trkpt>
      <trkpt lat="46.85054" lon="-1.0041">
        <ele>111</ele>
        <time>2010-01-01T03:27:21Z</time>
      </trkpt>
      <trkpt lat="46.85078" lon="-1.00417">
        <ele>111</ele>
        <time>2010-01-01T03:27:25Z</time>
      </trkpt>
      <trkpt lat="46.85104" lon="-1.00442">
        <ele>110</ele>
        <time>2010-01-01T03:27:30Z</time>
      </trkpt>
      <trkpt lat="46.85281" lon="-1.00571">
        <ele>110</ele>
        <time>2010-01-01T03:28:03Z</time>
      </trkpt>
      <trkpt lat="46.85347" lon="-1.00588">
        <ele>109</ele>
        <time>2010-01-01T03:28:14Z</time>
      </trkpt>
      <trkpt lat="46.85442" lon="-1.00633">
        <ele>108</ele>
        <time>2010-01-01T03:28:31Z</time>
      </trkpt>
      <trkpt lat="46.85483" lon="-1.00655">
        <ele>108</ele>
        <time>2010-01-01T03:28:38Z</time>
      </trkpt>
      <trkpt lat="46.85562" lon="-1.00711">
        <ele>108</ele>
        <time>2010-01-01T03:28:53Z</time>
      </trkpt>
      <trkpt lat="46.85689" lon="-1.0083">
        <ele>112</ele>
        <time>2010-01-01T03:29:18Z</time>
      </trkpt>
      <trkpt lat="46.8584" lon="-1.00918">
        <ele>113</ele>
        <time>2010-01-01T03:29:45Z</time>
      </trkpt>
      <trkpt lat="46.85843" lon="-1.00911">
        <ele>113</ele>
        <time>2010-01-01T03:29:46Z</time>
      </trkpt>
      <trkpt lat="46.85847" lon="-1.00908">
        <ele>113</ele>
        <time>2010-01-01T03:29:47Z</time>
      </trkpt>
      <trkpt lat="46.85855" lon="-1.00908">
        <ele>113</ele>
        <time>2010-01-01T03:29:48Z</time>
      </trkpt>
      <trkpt lat="46.85859" lon="-1.00913">
        <ele>113</ele>
        <time>2010-01-01T03:29:49Z</time>
      </trkpt>
      <trkpt lat="46.85861" lon="-1.00918">
        <ele>113</ele>
        <time>2010-01-01T03:29:50Z</time>
      </trkpt>
      <trkpt lat="46.85862" lon="-1.00925">
        <ele>113</ele>
        <time>2010-01-01T03:29:50Z</time>
      </trkpt>
      <trkpt lat="46.85869" lon="-1.00937">
        <ele>113</ele>
        <time>2010-01-01T03:29:52Z</time>
      </trkpt>
      <trkpt lat="46.85879" lon="-1.00946">
        <ele>113</ele>
        <time>2010-01-01T03:29:54Z</time>
      </trkpt>
      <trkpt lat="46.85931" lon="-1.00971">
        <ele>113</ele>
        <time>2010-01-01T03:30:03Z</time>
      </trkpt>
      <trkpt lat="46.85941" lon="-1.00971">
        <ele>113</ele>
        <time>2010-01-01T03:30:05Z</time>
      </trkpt>
      <trkpt lat="46.85947" lon="-1.0097">
        <ele>113</ele>
        <time>2010-01-01T03:30:06Z</time>
      </trkpt>
      <trkpt lat="46.8595" lon="-1.00968">
        <ele>113</ele>
        <time>2010-01-01T03:30:06Z</time>
      </trkpt>
      <trkpt lat="46.85954" lon="-1.00968">
        <ele>113</ele>
        <time>2010-01-01T03:30:07Z</time>
      </trkpt>
      <trkpt lat="46.85957" lon="-1.00972">
        <ele>113</ele>
        <time>2010-01-01T03:30:08Z</time>
      </trkpt>
      <trkpt lat="46.85957" lon="-1.00977">
        <ele>113</ele>
        <time>2010-01-01T03:30:08Z</time>
      </trkpt>
      <trkpt lat="46.85968" lon="-1.00987">
        <ele>113</ele>
        <time>2010-01-01T03:30:11Z</time>
      </trkpt>
      <trkpt lat="46.85985" lon="-1.00996">
        <ele>113</ele>
        <time>2010-01-01T03:30:14Z</time>
      </trkpt>
      <trkpt lat="46.86038" lon="-1.01032">
        <ele>114</ele>
        <time>2010-01-01T03:30:23Z</time>
      </trkpt>
      <trkpt lat="46.86062" lon="-1.01045">
        <ele>114</ele>
        <time>2010-01-01T03:30:28Z</time>
      </trkpt>
      <trkpt lat="46.86114" lon="-1.01079">
        <ele>115</ele>
        <time>2010-01-01T03:30:37Z</time>
      </trkpt>
      <trkpt lat="46.86155" lon="-1.01112">
        <ele>116</ele>
        <time>2010-01-01T03:30:45Z</time>
      </trkpt>
      <trkpt lat="46.86178" lon="-1.01135">
        <ele>116</ele>
        <time>2010-01-01T03:30:50Z</time>
      </trkpt>
      <trkpt lat="46.86183" lon="-1.01132">
        <ele>116</ele>
        <time>2010-01-01T03:30:50Z</time>
      </trkpt>
      <trkpt lat="46.86187" lon="-1.01135">
        <ele>116</ele>
        <time>2010-01-01T03:30:51Z</time>
      </trkpt>
      <trkpt lat="46.86188" lon="-1.01143">
        <ele>116</ele>
        <time>2010-01-01T03:30:52Z</time>
      </trkpt>
      <trkpt lat="46.86248" lon="-1.01184">
        <ele>116</ele>
        <time>2010-01-01T03:31:03Z</time>
      </trkpt>
      <trkpt lat="46.86298" lon="-1.0122">
        <ele>117</ele>
        <time>2010-01-01T03:31:12Z</time>
      </trkpt>
      <trkpt lat="46.86325" lon="-1.01236">
        <ele>117</ele>
        <time>2010-01-01T03:31:17Z</time>
      </trkpt>
      <trkpt lat="46.86327" lon="-1.01229">
        <ele>117</ele>
        <time>2010-01-01T03:31:18Z</time>
      </trkpt>
      <trkpt lat="46.86334" lon="-1.01224">
        <ele>117</ele>
        <time>2010-01-01T03:31:19Z</time>
      </trkpt>
      <trkpt lat="46.86337" lon="-1.01225">
        <ele>117</ele>
        <time>2010-01-01T03:31:20Z</time>
      </trkpt>
      <trkpt lat="46.86342" lon="-1.0123">
        <ele>117</ele>
        <time>2010-01-01T03:31:21Z</time>
      </trkpt>
      <trkpt lat="46.86344" lon="-1.01235">
        <ele>117</ele>
        <time>2010-01-01T03:31:22Z</time>
      </trkpt>
      <trkpt lat="46.86357" lon="-1.01218">
        <ele>117</ele>
        <time>2010-01-01T03:31:25Z</time>
      </trkpt>
      <trkpt lat="46.86361" lon="-1.01204">
        <ele>117</ele>
        <time>2010-01-01T03:31:26Z</time>
      </trkpt>
      <trkpt lat="46.8638" lon="-1.01034">
        <ele>119</ele>
        <time>2010-01-01T03:31:46Z</time>
      </trkpt>
      <trkpt lat="46.86388" lon="-1.01003">
        <ele>119</ele>
        <time>2010-01-01T03:31:50Z</time>
      </trkpt>
      <trkpt lat="46.86409" lon="-1.00955">
        <ele>119</ele>
        <time>2010-01-01T03:31:56Z</time>
      </trkpt>
      <trkpt lat="46.86409" lon="-1.00956">
        <ele>119</ele>
        <time>2010-01-01T03:31:56Z</time>
      </trkpt>
      <trkpt lat="46.86414" lon="-1.00943">
        <ele>119</ele>
        <time>2010-01-01T03:31:58Z</time>
      </trkpt>
      <trkpt lat="46.86433" lon="-1.00914">
        <ele>118</ele>
        <time>2010-01-01T03:32:03Z</time>
      </trkpt>
      <trkpt lat="46.86648" lon="-1.00707">
        <ele>113</ele>
        <time>2010-01-01T03:32:46Z</time>
      </trkpt>
      <trkpt lat="46.86721" lon="-1.00665">
        <ele>111</ele>
        <time>2010-01-01T03:32:59Z</time>
      </trkpt>
      <trkpt lat="46.86595" lon="-1.00621">
        <ele>116</ele>
        <time>2010-01-01T03:33:20Z</time>
      </trkpt>
      <trkpt lat="46.86578" lon="-1.0061">
        <ele>116</ele>
        <time>2010-01-01T03:33:23Z</time>
      </trkpt>
    </trkseg>
  </trk>
</gpx>